Provisional Data: Meshoppen Creek near Kaiserville, PA


Please select a monitoring station.
Please select start date.
Please select start date.

Toggle Unit: C/F Toggle Unit: C/F
Sample Time Temperature (C) Temperature (F) Specific Conductivity (mS/cm) pH   Turbidity (NTU+) DO (mg/L)
8/11/2023 12:00:00 AM 18.68 65.624 0.155 7.47 4.27 9.09
8/11/2023 12:15:00 AM 18.65 65.57 0.155 7.47 3.94 9.1
8/11/2023 12:30:00 AM 18.6 65.48 0.155 7.46 4.05 9.11
8/11/2023 12:45:00 AM 18.55 65.39 0.155 7.46 4.06 9.12
8/11/2023 1:00:00 AM 18.51 65.318 0.155 7.45 3.96 9.12
8/11/2023 1:15:00 AM 18.47 65.246 0.155 7.45 4.18 9.13
8/11/2023 1:30:00 AM 18.43 65.174 0.155 7.45 4 9.14
8/11/2023 1:45:00 AM 18.39 65.102 0.155 7.45 4.17 9.15
8/11/2023 2:00:00 AM 18.35 65.03 0.155 7.45 4.3 9.16
8/11/2023 2:15:00 AM 18.31 64.958 0.155 7.44 3.93 9.17
8/11/2023 2:30:00 AM 18.27 64.886 0.155 7.44 4.24 9.18
8/11/2023 2:45:00 AM 18.24 64.832 0.155 7.43 4.13 9.18
8/11/2023 3:00:00 AM 18.21 64.778 0.155 7.43 4.05 9.19
8/11/2023 3:15:00 AM 18.18 64.724 0.156 7.44 4.05 9.19
8/11/2023 3:30:00 AM 18.15 64.67 0.156 7.43 4.01 9.2
8/11/2023 3:45:00 AM 18.12 64.616 0.156 7.44 4.14 9.21
8/11/2023 4:00:00 AM 18.08 64.544 0.156 7.43 4.16 9.22
8/11/2023 4:15:00 AM 18.05 64.49 0.156 7.43 4.06 9.22
8/11/2023 4:30:00 AM 18.03 64.454 0.156 7.44 4.05 9.23
8/11/2023 4:45:00 AM 18.01 64.418 0.156 7.43 4.21 9.24
8/11/2023 5:00:00 AM 17.98 64.364 0.156 7.43 4 9.24
8/11/2023 5:15:00 AM 17.95 64.31 0.156 7.43 3.95 9.25
8/11/2023 5:30:00 AM 17.92 64.256 0.156 7.43 4.33 9.26
8/11/2023 5:45:00 AM 17.89 64.202 0.156 7.43 4.15 9.26
8/11/2023 6:00:00 AM 17.86 64.148 0.156 7.43 4.26 9.27
8/11/2023 6:15:00 AM 17.82 64.076 0.156 7.43 4.49 9.28
8/11/2023 6:30:00 AM 17.77 63.986 0.156 7.44 4.1 9.3
8/11/2023 6:45:00 AM 17.73 63.914 0.156 7.44 4.05 9.33
8/11/2023 7:00:00 AM 17.69 63.842 0.156 7.44 3.99 9.37
8/11/2023 7:15:00 AM 17.67 63.806 0.156 7.45 3.98 9.42
8/11/2023 7:30:00 AM 17.65 63.77 0.156 7.46 3.88 9.47
8/11/2023 7:45:00 AM 17.66 63.788 0.156 7.48 3.86 9.53
8/11/2023 8:00:00 AM 17.67 63.806 0.156 7.5 3.84 9.58
8/11/2023 8:15:00 AM 17.69 63.842 0.157 7.52 3.65 9.62
8/11/2023 8:30:00 AM 17.72 63.896 0.157 7.55 3.77 9.66
8/11/2023 8:45:00 AM 17.78 64.004 0.157 7.57 3.55 9.7
8/11/2023 9:00:00 AM 17.85 64.13 0.157 7.6 3.64 9.74
8/11/2023 9:15:00 AM 17.91 64.238 0.157 7.63 3.5 9.77
8/11/2023 9:30:00 AM 17.98 64.364 0.157 7.65 3.55 9.8
8/11/2023 9:45:00 AM 18.06 64.508 0.157 7.69 3.43 9.84
8/11/2023 10:00:00 AM 18.14 64.652 0.157 7.71 3.49 9.84
8/11/2023 10:15:00 AM 18.24 64.832 0.157 7.75 3.43 9.87
8/11/2023 10:30:00 AM 18.3 64.94 0.157 7.77 3.3 9.86
8/11/2023 10:45:00 AM 18.39 65.102 0.157 7.79 3.3 9.87
8/11/2023 11:00:00 AM 18.62 65.516 0.157 7.83 3.26 9.91
8/11/2023 11:15:00 AM 18.82 65.876 0.157 7.86 3.17 9.92
8/11/2023 11:30:00 AM 18.98 66.164 0.157 7.9 3.25 9.88
8/11/2023 11:45:00 AM 19.17 66.506 0.157 7.93 3.38 9.83
8/11/2023 12:00:00 PM 19.43 66.974 0.157 7.96 3.16 9.85
8/11/2023 12:15:00 PM 19.51 67.118 0.157 7.97 3.3 9.79
8/11/2023 12:30:00 PM 19.84 67.712 0.157 8.01 3.11 9.83
8/11/2023 12:45:00 PM 19.91 67.838 0.157 8.02 3.18 9.71
8/11/2023 1:00:00 PM 20.16 68.288 0.157 8.05 3.21 9.74
8/11/2023 1:15:00 PM 20.31 68.558 0.157 8.06 3.12 9.68
8/11/2023 1:30:00 PM 20.37 68.666 0.157 8.06 3.2 9.62
8/11/2023 1:45:00 PM 20.61 69.098 0.157 8.07 3.1 9.64
8/11/2023 2:00:00 PM 20.78 69.404 0.157 8.08 3.3 9.64
8/11/2023 2:15:00 PM 21.07 69.926 0.157 8.12 3.03 9.62
8/11/2023 2:30:00 PM 21.38 70.484 0.157 8.16 2.91 9.56
8/11/2023 2:45:00 PM 21.62 70.916 0.157 8.18 3.03 9.5
8/11/2023 3:00:00 PM 21.87 71.366 0.157 8.2 3.15 9.45
8/11/2023 3:15:00 PM 22.07 71.726 0.157 8.22 3.03 9.41
8/11/2023 3:30:00 PM 22.21 71.978 0.157 8.22 3.11 9.37
8/11/2023 3:45:00 PM 22.23 72.014 0.157 8.21 3.17 9.28
8/11/2023 4:00:00 PM 22.31 72.158 0.157 8.2 3.19 9.28
8/11/2023 4:15:00 PM 22.3 72.14 0.157 8.17 3.04 9.23
8/11/2023 4:30:00 PM 22.32 72.176 0.157 8.15 3.15 9.21
8/11/2023 4:45:00 PM 22.3 72.14 0.158 8.12 3.11 9.16
8/11/2023 5:00:00 PM 22.23 72.014 0.158 8.08 3.18 9.13
8/11/2023 5:15:00 PM 22.13 71.834 0.158 8.03 3.1 9.09
8/11/2023 5:30:00 PM 21.99 71.582 0.158 7.98 3.05 9.05
8/11/2023 5:45:00 PM 21.83 71.294 0.158 7.93 3.08 9.04
8/11/2023 6:00:00 PM 21.67 71.006 0.158 7.88 3.2 8.99
8/11/2023 6:15:00 PM 21.52 70.736 0.158 7.83 3.12 8.96
8/11/2023 6:30:00 PM 21.37 70.466 0.158 7.79 3.18 8.93
8/11/2023 6:45:00 PM 21.23 70.214 0.158 7.75 3.5 8.9
8/11/2023 7:00:00 PM 21.1 69.98 0.158 7.71 3.38 8.89
8/11/2023 7:15:00 PM 20.99 69.782 0.159 7.68 3.25 8.87
8/11/2023 7:30:00 PM 20.89 69.602 0.159 7.65 3.28 8.86
8/11/2023 7:45:00 PM 20.79 69.422 0.159 7.63 3.35 8.85
8/11/2023 8:00:00 PM 20.7 69.26 0.159 7.61 3.41 8.83
8/11/2023 8:15:00 PM 20.61 69.098 0.159 7.59 3.43 8.82
8/11/2023 8:30:00 PM 20.53 68.954 0.159 7.57 3.76 8.79
8/11/2023 8:45:00 PM 20.46 68.828 0.159 7.55 3.81 8.79
8/11/2023 9:00:00 PM 20.39 68.702 0.159 7.53 3.88 8.79
8/11/2023 9:15:00 PM 20.33 68.594 0.159 7.52 3.79 8.79
8/11/2023 9:30:00 PM 20.28 68.504 0.159 7.51 3.94 8.79
8/11/2023 9:45:00 PM 20.23 68.414 0.158 7.5 3.77 8.8
8/11/2023 10:00:00 PM 20.19 68.342 0.158 7.49 3.87 8.8
8/11/2023 10:15:00 PM 20.14 68.252 0.158 7.49 3.99 8.81
8/11/2023 10:30:00 PM 20.08 68.144 0.157 7.48 3.81 8.82
8/11/2023 10:45:00 PM 20.03 68.054 0.157 7.48 3.83 8.83
8/11/2023 11:00:00 PM 19.98 67.964 0.157 7.47 3.88 8.84
8/11/2023 11:15:00 PM 19.92 67.856 0.157 7.47 3.95 8.85
8/11/2023 11:30:00 PM 19.87 67.766 0.157 7.46 3.99 8.86
8/11/2023 11:45:00 PM 19.81 67.658 0.157 7.46 3.89 8.87
8/12/2023 12:00:00 AM 19.74 67.532 0.157 7.45 3.87 8.87
8/12/2023 12:15:00 AM 19.68 67.424 0.157 7.45 3.79 8.89
8/12/2023 12:30:00 AM 19.61 67.298 0.157 7.45 3.87 8.9
8/12/2023 12:45:00 AM 19.54 67.172 0.157 7.45 3.77 8.92
8/12/2023 1:00:00 AM 19.47 67.046 0.157 7.44 3.6 8.93
8/12/2023 1:15:00 AM 19.4 66.92 0.157 7.44 3.91 8.95
8/12/2023 1:30:00 AM 19.33 66.794 0.157 7.44 3.8 8.96
8/12/2023 1:45:00 AM 19.25 66.65 0.157 7.44 3.76 8.98
8/12/2023 2:00:00 AM 19.17 66.506 0.157 7.44 3.66 8.99
8/12/2023 2:15:00 AM 19.1 66.38 0.157 7.43 3.8 9.01
8/12/2023 2:30:00 AM 19.02 66.236 0.157 7.44 3.75 9.03
8/12/2023 2:45:00 AM 18.95 66.11 0.157 7.43 3.96 9.04
8/12/2023 3:00:00 AM 18.88 65.984 0.157 7.43 3.73 9.05
8/12/2023 3:15:00 AM 18.81 65.858 0.157 7.43 3.82 9.07
8/12/2023 3:30:00 AM 18.73 65.714 0.157 7.43 3.98 9.08
8/12/2023 3:45:00 AM 18.66 65.588 0.157 7.43 3.84 9.1
8/12/2023 4:00:00 AM 18.59 65.462 0.157 7.42 3.88 9.11
8/12/2023 4:15:00 AM 18.52 65.336 0.158 7.42 3.99 9.12
8/12/2023 4:30:00 AM 18.46 65.228 0.158 7.41 3.89 9.14
8/12/2023 4:45:00 AM 18.39 65.102 0.158 7.41 3.7 9.15
8/12/2023 5:00:00 AM 18.33 64.994 0.158 7.41 3.94 9.16
8/12/2023 5:15:00 AM 18.27 64.886 0.158 7.4 3.73 9.17
8/12/2023 5:30:00 AM 18.2 64.76 0.158 7.4 3.69 9.18
8/12/2023 5:45:00 AM 18.14 64.652 0.158 7.4 3.91 9.2
8/12/2023 6:00:00 AM 18.08 64.544 0.158 7.4 3.85 9.21
8/12/2023 6:15:00 AM 18.03 64.454 0.158 7.4 4.18 9.23
8/12/2023 6:30:00 AM 17.98 64.364 0.158 7.4 3.77 9.25
8/12/2023 6:45:00 AM 17.94 64.292 0.158 7.4 3.69 9.27
8/12/2023 7:00:00 AM 17.92 64.256 0.158 7.4 3.61 9.3
8/12/2023 7:15:00 AM 17.9 64.22 0.159 7.41 3.86 9.35
8/12/2023 7:30:00 AM 17.88 64.184 0.159 7.42 3.45 9.37
8/12/2023 7:45:00 AM 17.88 64.184 0.159 7.43 3.37 9.42
8/12/2023 8:00:00 AM 17.88 64.184 0.159 7.45 3.49 9.5
8/12/2023 8:15:00 AM 17.92 64.256 0.159 7.47 3.36 9.56
8/12/2023 8:30:00 AM 17.97 64.346 0.159 7.5 3.21 9.62
8/12/2023 8:45:00 AM 18.04 64.472 0.159 7.53 3.2 9.66
8/12/2023 9:00:00 AM 18.09 64.562 0.159 7.56 3.1 9.69
8/12/2023 9:15:00 AM 18.14 64.652 0.159 7.58 3.11 9.72
8/12/2023 9:30:00 AM 18.25 64.85 0.159 7.62 3.09 9.78
8/12/2023 9:45:00 AM 18.4 65.12 0.159 7.67 3.17 9.84
8/12/2023 10:00:00 AM 18.53 65.354 0.159 7.71 3.23 9.82
8/12/2023 10:15:00 AM 18.55 65.39 0.159 7.71 3.07 9.73
8/12/2023 10:30:00 AM 18.56 65.408 0.159 7.73 3.12 9.78
8/12/2023 10:45:00 AM 18.59 65.462 0.159 7.76 3.04 9.84
8/12/2023 11:00:00 AM 18.65 65.57 0.159 7.8 2.95 9.9
8/12/2023 11:15:00 AM 18.82 65.876 0.158 7.85 2.93 9.97
8/12/2023 11:30:00 AM 18.96 66.128 0.158 7.91 2.99 9.96
8/12/2023 11:45:00 AM 19.08 66.344 0.158 7.93 2.96 9.9
8/12/2023 12:00:00 PM 19.23 66.614 0.158 7.98 2.94 9.92
8/12/2023 12:15:00 PM 19.31 66.758 0.158 8.01 2.93 9.9
8/12/2023 12:30:00 PM 19.4 66.92 0.158 8.03 2.76 9.87
8/12/2023 12:45:00 PM 19.53 67.154 0.158 8.08 2.74 9.9
8/12/2023 1:00:00 PM 19.79 67.622 0.158 8.12 2.9 9.94
8/12/2023 1:15:00 PM 20.02 68.036 0.158 8.18 2.78 9.95
8/12/2023 1:30:00 PM 20.23 68.414 0.157 8.24 2.76 9.91
8/12/2023 1:45:00 PM 20.59 69.062 0.157 8.29 2.65 9.87
8/12/2023 2:00:00 PM 20.75 69.35 0.157 8.33 2.73 9.82
8/12/2023 2:15:00 PM 21.03 69.854 0.157 8.37 2.59 9.78
8/12/2023 2:30:00 PM 21.14 70.052 0.157 8.38 2.65 9.64
8/12/2023 2:45:00 PM 21.3 70.34 0.157 8.38 2.62 9.62
8/12/2023 3:00:00 PM 21.53 70.754 0.157 8.39 2.69 9.6
8/12/2023 3:15:00 PM 21.68 71.024 0.157 8.41 2.65 9.58
8/12/2023 3:30:00 PM 21.7 71.06 0.157 8.38 2.63 9.39
8/12/2023 3:45:00 PM 21.72 71.096 0.157 8.36 2.6 9.36
8/12/2023 4:00:00 PM 21.78 71.204 0.158 8.32 2.6 9.35
8/12/2023 4:15:00 PM 21.88 71.384 0.157 8.32 2.65 9.34
8/12/2023 4:30:00 PM 22.04 71.672 0.157 8.33 2.72 9.34
8/12/2023 4:45:00 PM 22.12 71.816 0.158 8.32 2.59 9.3
8/12/2023 5:00:00 PM 22.04 71.672 0.158 8.28 2.65 9.22
8/12/2023 5:15:00 PM 21.95 71.51 0.158 8.22 2.74 9.19
8/12/2023 5:30:00 PM 21.9 71.42 0.158 8.19 2.67 9.22
8/12/2023 5:45:00 PM 21.9 71.42 0.158 8.16 2.73 9.19
8/12/2023 6:00:00 PM 21.88 71.384 0.158 8.13 2.79 9.12
8/12/2023 6:15:00 PM 21.82 71.276 0.158 8.07 2.77 9.08
8/12/2023 6:30:00 PM 21.72 71.096 0.158 8.01 3.13 9.04
8/12/2023 6:45:00 PM 21.64 70.952 0.159 7.94 2.86 8.95
8/12/2023 7:00:00 PM 21.57 70.826 0.159 7.88 2.83 8.9
8/12/2023 7:15:00 PM 21.49 70.682 0.159 7.81 2.76 8.84
8/12/2023 7:30:00 PM 21.41 70.538 0.159 7.76 2.87 8.81
8/12/2023 7:45:00 PM 21.29 70.32201 0.159 7.72 2.96 8.76
8/12/2023 8:00:00 PM 21.14 70.052 0.158 7.67 3.79 8.74
8/12/2023 8:15:00 PM 21.05 69.89 0.158 7.64 3.56 8.73
8/12/2023 8:30:00 PM 20.94 69.692 0.158 7.62 3.33 8.73
8/12/2023 8:45:00 PM 20.85 69.53 0.157 7.6 3.35 8.72
8/12/2023 9:00:00 PM 20.76 69.368 0.157 7.58 3.61 8.73
8/12/2023 9:15:00 PM 20.68 69.224 0.156 7.56 3.62 8.72
8/12/2023 9:30:00 PM 20.61 69.098 0.156 7.55 3.85 8.73
8/12/2023 9:45:00 PM 20.53 68.954 0.156 7.54 4.4 8.74
8/12/2023 10:00:00 PM 20.47 68.846 0.155 7.53 4.38 8.74
8/12/2023 10:15:00 PM 20.41 68.738 0.154 7.52 4.53 8.75
8/12/2023 10:30:00 PM 20.37 68.666 0.154 7.52 4.61 8.77
8/12/2023 10:45:00 PM 20.33 68.594 0.154 7.52 4.58 8.78
8/12/2023 11:00:00 PM 20.27 68.486 0.154 7.51 5.04 8.81
8/12/2023 11:15:00 PM 20.21 68.378 0.154 7.51 5.08 8.82
8/12/2023 11:30:00 PM 20.14 68.252 0.154 7.5 5.09 8.82
8/12/2023 11:45:00 PM 20.07 68.126 0.154 7.5 5.98 8.84
8/13/2023 12:00:00 AM 19.99 67.982 0.154 7.49 6.4 8.87
8/13/2023 12:15:00 AM 19.91 67.838 0.153 7.49 7.14 8.88
8/13/2023 12:30:00 AM 19.83 67.694 0.153 7.49 7.2 8.9
8/13/2023 12:45:00 AM 19.75 67.55 0.153 7.48 8.13 8.92
8/13/2023 1:00:00 AM 19.7 67.46 0.152 7.49 21.04 8.98
8/13/2023 1:15:00 AM 19.73 67.514 0.151 7.49 36.1 9.03
8/13/2023 1:30:00 AM 19.84 67.712 0.15 7.49 37.91 9.02
8/13/2023 1:45:00 AM 19.88 67.784 0.149 7.48 38.4 9
8/13/2023 2:00:00 AM 19.88 67.784 0.147 7.46 40.35 9
8/13/2023 2:15:00 AM 19.87 67.766 0.145 7.45 42.58 9.01
8/13/2023 2:30:00 AM 19.84 67.712 0.145 7.45 43.11 9.01
8/13/2023 2:45:00 AM 19.75 67.55 0.143 7.42 54.74 9.02
8/13/2023 3:00:00 AM 19.63 67.334 0.14 7.38 73.5 9.03
8/13/2023 3:15:00 AM 19.49 67.082 0.136 7.35 88.98 9.04
8/13/2023 3:30:00 AM 19.36 66.848 0.132 7.31 96.84 9.06
8/13/2023 3:45:00 AM 19.24 66.632 0.128 7.28 98.39 9.07
8/13/2023 4:00:00 AM 19.14 66.452 0.124 7.27 97.56 9.08
8/13/2023 4:15:00 AM 19.06 66.308 0.122 7.25 88.99 9.1
8/13/2023 4:30:00 AM 18.97 66.146 0.119 7.24 84.03 9.12
8/13/2023 4:45:00 AM 18.89 66.002 0.117 7.25 78.34 9.14
8/13/2023 5:00:00 AM 18.82 65.876 0.117 7.24 69.47 9.16
8/13/2023 5:15:00 AM 18.77 65.786 0.118 7.25 62.52 9.18
8/13/2023 5:30:00 AM 18.74 65.732 0.119 7.26 58.92 9.19
8/13/2023 5:45:00 AM 18.72 65.696 0.12 7.26 52.07 9.21
8/13/2023 6:00:00 AM 18.71 65.67799 0.121 7.26 48.64 9.21
8/13/2023 6:15:00 AM 18.69 65.642 0.121 7.27 46.81 9.22
8/13/2023 6:30:00 AM 18.69 65.642 0.122 7.27 41.43 9.23
8/13/2023 6:45:00 AM 18.68 65.624 0.122 7.27 39.31 9.24
8/13/2023 7:00:00 AM 18.68 65.624 0.123 7.28 36.85 9.24
8/13/2023 7:15:00 AM 18.69 65.642 0.124 7.28 36.94 9.25
8/13/2023 7:30:00 AM 18.7 65.66 0.125 7.28 36.32 9.26
8/13/2023 7:45:00 AM 18.7 65.66 0.126 7.29 34.01 9.26
8/13/2023 8:00:00 AM 18.71 65.67799 0.127 7.29 36.76 9.27
8/13/2023 8:15:00 AM 18.72 65.696 0.128 7.29 39.79 9.27
8/13/2023 8:30:00 AM 18.74 65.732 0.129 7.3 39.7 9.28
8/13/2023 8:45:00 AM 18.76 65.768 0.129 7.3 40.66 9.29
8/13/2023 9:00:00 AM 18.76 65.768 0.129 7.31 43.98 9.28
8/13/2023 9:15:00 AM 18.76 65.768 0.128 7.31 46.87 9.29
8/13/2023 9:30:00 AM 18.78 65.804 0.128 7.31 45.21 9.3
8/13/2023 9:45:00 AM 18.83 65.894 0.127 7.32 45.11 9.31
8/13/2023 10:00:00 AM 18.85 65.93 0.126 7.33 43.02 9.32
8/13/2023 10:15:00 AM 18.91 66.038 0.126 7.34 40.11 9.33
8/13/2023 10:30:00 AM 19.04 66.272 0.125 7.36 41.21 9.34
8/13/2023 10:45:00 AM 19.11 66.398 0.125 7.37 37.37 9.36
8/13/2023 11:00:00 AM 19.19 66.542 0.124 7.39 36.36 9.36
8/13/2023 11:15:00 AM 19.29 66.722 0.124 7.42 33.45 9.38
8/13/2023 11:30:00 AM 19.45 67.01 0.124 7.44 31.81 9.39
8/13/2023 11:45:00 AM 19.54 67.172 0.124 7.46 30.26 9.38
8/13/2023 12:00:00 PM 19.67 67.406 0.125 7.48 29.32 9.41
8/13/2023 12:15:00 PM 19.87 67.766 0.125 7.51 26.05 9.43
8/13/2023 12:30:00 PM 20.04 68.07201 0.126 7.54 26.1 9.43
8/13/2023 12:45:00 PM 20.21 68.378 0.127 7.55 23.26 9.4
8/13/2023 1:00:00 PM 20.28 68.504 0.128 7.57 23.88 9.37
8/13/2023 1:15:00 PM 20.4 68.72 0.128 7.58 22.67 9.39
8/13/2023 1:30:00 PM 20.43 68.774 0.129 7.6 20.86 9.38
8/13/2023 1:45:00 PM 20.5 68.9 0.13 7.61 74.28 9.39
8/13/2023 2:00:00 PM 20.67 69.206 0.131 7.64 18.55 9.4
8/13/2023 2:15:00 PM 20.89 69.602 0.131 7.67 17.13 9.39
8/13/2023 2:30:00 PM 20.99 69.782 0.132 7.68 20.27 9.33
8/13/2023 2:45:00 PM 21.14 70.052 0.132 7.7 16.63 9.33
8/13/2023 3:00:00 PM 21.26 70.268 0.133 7.7 16.14 9.33
8/13/2023 3:15:00 PM 21.28 70.304 0.133 7.71 15.85 9.29
8/13/2023 3:30:00 PM 21.24 70.232 0.133 7.7 15.54 9.23
8/13/2023 3:45:00 PM 21.3 70.34 0.134 7.69 14.89 9.23
8/13/2023 4:00:00 PM 21.38 70.484 0.134 7.69 14.38 9.23
8/13/2023 4:15:00 PM 21.42 70.556 0.134 7.69 13.58 9.21
8/13/2023 4:30:00 PM 21.43 70.574 0.134 7.68 13.97 9.18
8/13/2023 4:45:00 PM 21.41 70.538 0.134 7.67 13.55 9.16
8/13/2023 5:00:00 PM 21.36 70.448 0.134 7.67 13.85 9.12
8/13/2023 5:15:00 PM 21.32 70.376 0.135 7.64 12.74 9.09
8/13/2023 5:30:00 PM 21.3 70.34 0.135 7.62 12.87 9.06
8/13/2023 5:45:00 PM 21.26 70.268 0.135 7.6 12.85 9.02
8/13/2023 6:00:00 PM 21.22 70.196 0.135 7.58 12.34 8.99
8/13/2023 6:15:00 PM 21.19 70.142 0.135 7.57 12.46 8.96
8/13/2023 6:30:00 PM 21.17 70.106 0.135 7.54 12.12 8.92
8/13/2023 6:45:00 PM 21.13 70.034 0.135 7.52 12.91 8.9
8/13/2023 7:00:00 PM 21.1 69.98 0.135 7.5 12.34 8.87
8/13/2023 7:15:00 PM 21.07 69.926 0.135 7.49 12.47 8.86
8/13/2023 7:30:00 PM 21.04 69.872 0.135 7.47 11.59 8.84
8/13/2023 7:45:00 PM 21.02 69.836 0.135 7.46 12.21 8.83
8/13/2023 8:00:00 PM 21 69.8 0.135 7.45 11.77 8.82
8/13/2023 8:15:00 PM 20.98 69.764 0.135 7.44 11.53 8.81
8/13/2023 8:30:00 PM 20.97 69.746 0.135 7.43 12.08 8.79
8/13/2023 8:45:00 PM 20.95 69.71 0.135 7.42 11.55 8.79
8/13/2023 9:00:00 PM 20.92 69.656 0.135 7.41 11.83 8.78
8/13/2023 9:15:00 PM 20.89 69.602 0.135 7.4 12.1 8.78
8/13/2023 9:30:00 PM 20.85 69.53 0.135 7.4 12.18 8.78
8/13/2023 9:45:00 PM 20.8 69.44 0.135 7.39 11.79 8.78
8/13/2023 10:00:00 PM 20.75 69.35 0.135 7.39 11.66 8.79
8/13/2023 10:15:00 PM 20.7 69.26 0.135 7.39 12.14 8.81
8/13/2023 10:30:00 PM 20.63 69.134 0.135 7.39 11.66 8.82
8/13/2023 10:45:00 PM 20.57 69.026 0.135 7.38 11.85 8.83
8/13/2023 11:00:00 PM 20.51 68.918 0.136 7.38 11.79 8.84
8/13/2023 11:15:00 PM 20.46 68.828 0.136 7.38 11.38 8.85
8/13/2023 11:30:00 PM 20.4 68.72 0.136 7.38 11.12 8.86
8/13/2023 11:45:00 PM 20.34 68.612 0.136 7.38 11.24 8.87
8/14/2023 12:00:00 AM 20.28 68.504 0.137 7.38 11.02 8.89
8/14/2023 12:15:00 AM 20.21 68.378 0.137 7.39 11.03 8.89
8/14/2023 12:30:00 AM 20.14 68.252 0.137 7.37 10.74 8.91
8/14/2023 12:45:00 AM 20.07 68.126 0.137 7.38 10.32 8.92
8/14/2023 1:00:00 AM 20.01 68.018 0.138 7.38 10.51 8.93
8/14/2023 1:15:00 AM 19.95 67.91 0.138 7.37 10.34 8.94
8/14/2023 1:30:00 AM 19.89 67.802 0.138 7.38 10.17 8.96
8/14/2023 1:45:00 AM 19.83 67.694 0.139 7.38 10.39 8.97
8/14/2023 2:00:00 AM 19.78 67.604 0.139 7.38 9.93 8.98
8/14/2023 2:15:00 AM 19.73 67.514 0.14 7.38 9.53 8.98
8/14/2023 2:30:00 AM 19.67 67.406 0.14 7.37 9.42 8.99
8/14/2023 2:45:00 AM 19.62 67.316 0.141 7.37 9.09 9.01
8/14/2023 3:00:00 AM 19.57 67.226 0.141 7.37 9.47 9.02
8/14/2023 3:15:00 AM 19.51 67.118 0.141 7.37 9.27 9.03
8/14/2023 3:30:00 AM 19.45 67.01 0.141 7.37 9.3 9.04
8/14/2023 3:45:00 AM 19.39 66.902 0.142 7.37 8.89 9.04
8/14/2023 4:00:00 AM 19.34 66.812 0.142 7.37 9.14 9.06
8/14/2023 4:15:00 AM 19.29 66.722 0.142 7.37 9.06 9.06
8/14/2023 4:30:00 AM 19.24 66.632 0.142 7.37 9.1 9.08
8/14/2023 4:45:00 AM 19.18 66.524 0.142 7.36 8.84 9.09
8/14/2023 5:00:00 AM 19.13 66.434 0.142 7.36 8.8 9.1
8/14/2023 5:15:00 AM 19.09 66.362 0.142 7.36 9.07 9.1
8/14/2023 5:30:00 AM 19.05 66.29 0.143 7.37 9.29 9.11
8/14/2023 5:45:00 AM 19 66.2 0.143 7.37 9.17 9.12
8/14/2023 6:00:00 AM 18.96 66.128 0.143 7.36 9.29 9.13
8/14/2023 6:15:00 AM 18.91 66.038 0.143 7.36 9.26 9.13
8/14/2023 6:30:00 AM 18.87 65.966 0.143 7.37 9.2 9.15
8/14/2023 6:45:00 AM 18.83 65.894 0.143 7.37 8.95 9.16
8/14/2023 7:00:00 AM 18.8 65.84 0.144 7.38 8.99 9.18
8/14/2023 7:15:00 AM 18.77 65.786 0.144 7.38 9.02 9.22
8/14/2023 7:30:00 AM 18.75 65.75 0.144 7.38 8.99 9.27
8/14/2023 7:45:00 AM 18.74 65.732 0.144 7.39 8.82 9.32
8/14/2023 8:00:00 AM 18.74 65.732 0.144 7.41 8.19 9.36
8/14/2023 8:15:00 AM 18.74 65.732 0.144 7.43 8.44 9.39
8/14/2023 8:30:00 AM 18.74 65.732 0.144 7.44 8.35 9.43
8/14/2023 8:45:00 AM 18.75 65.75 0.144 7.46 8.44 9.47
8/14/2023 9:00:00 AM 18.76 65.768 0.144 7.48 8.23 9.51
8/14/2023 9:15:00 AM 18.8 65.84 0.144 7.51 8.32 9.57
8/14/2023 9:30:00 AM 18.85 65.93 0.144 7.54 8.03 9.64
8/14/2023 9:45:00 AM 18.91 66.038 0.144 7.57 8.23 9.7
8/14/2023 10:00:00 AM 18.97 66.146 0.144 7.61 8.24 9.72
8/14/2023 10:15:00 AM 19.03 66.254 0.144 7.64 8.21 9.76
8/14/2023 10:30:00 AM 19.1 66.38 0.144 7.66 8.08 9.77
8/14/2023 10:45:00 AM 19.16 66.488 0.144 7.71 8.21 9.79
8/14/2023 11:00:00 AM 19.22 66.596 0.144 7.73 7.81 9.8
8/14/2023 11:15:00 AM 19.29 66.722 0.144 7.79 7.93 9.85
8/14/2023 11:30:00 AM 19.48 67.064 0.144 7.82 7.92 9.9
8/14/2023 11:45:00 AM 19.64 67.352 0.144 7.88 7.89 9.92
8/14/2023 12:00:00 PM 19.85 67.73 0.144 7.94 7.36 9.92
8/14/2023 12:15:00 PM 20.04 68.07201 0.144 7.99 7.37 9.92
8/14/2023 12:30:00 PM 20.24 68.432 0.144 8.04 7.4 9.91
8/14/2023 12:45:00 PM 20.47 68.846 0.144 8.09 7.26 9.89
8/14/2023 1:00:00 PM 20.64 69.152 0.144 8.13 7.39 9.87
8/14/2023 1:15:00 PM 20.81 69.458 0.144 8.17 7.12 9.84
8/14/2023 1:30:00 PM 20.97 69.746 0.144 8.19 7.02 9.78
8/14/2023 1:45:00 PM 21.09 69.962 0.144 8.21 6.93 9.76
8/14/2023 2:00:00 PM 21.2 70.16 0.144 8.24 6.83 9.73
8/14/2023 2:15:00 PM 21.34 70.412 0.144 8.27 6.91 9.71
8/14/2023 2:30:00 PM 21.55 70.79 0.144 8.31 6.86 9.71
8/14/2023 2:45:00 PM 21.74 71.132 0.144 8.32 6.73 9.66
8/14/2023 3:00:00 PM 21.93 71.474 0.144 8.36 6.77 9.65
8/14/2023 3:15:00 PM 21.95 71.51 0.144 8.36 6.95 9.56
8/14/2023 3:30:00 PM 22 71.6 0.144 8.35 6.99 9.53
8/14/2023 3:45:00 PM 21.98 71.564 0.144 8.33 6.77 9.41
8/14/2023 4:00:00 PM 21.99 71.582 0.144 8.3 6.91 9.34
8/14/2023 4:15:00 PM 22.05 71.69 0.144 8.28 6.82 9.41
8/14/2023 4:30:00 PM 22.06 71.708 0.145 8.27 6.86 9.35
8/14/2023 4:45:00 PM 22.04 71.672 0.145 8.22 7.01 9.23
8/14/2023 5:00:00 PM 21.96 71.528 0.145 8.16 6.91 9.18
8/14/2023 5:15:00 PM 21.89 71.402 0.145 8.08 6.64 9.11
8/14/2023 5:30:00 PM 21.84 71.312 0.145 8 6.79 9.03
8/14/2023 5:45:00 PM 21.79 71.222 0.146 7.92 6.69 8.99
8/14/2023 6:00:00 PM 21.73 71.114 0.146 7.86 6.86 8.98
8/14/2023 6:15:00 PM 21.67 71.006 0.146 7.81 6.67 8.94
8/14/2023 6:30:00 PM 21.62 70.916 0.146 7.77 6.9 8.91
8/14/2023 6:45:00 PM 21.58 70.844 0.146 7.72 7 8.86
8/14/2023 7:00:00 PM 21.55 70.79 0.147 7.68 6.87 8.82
8/14/2023 7:15:00 PM 21.53 70.754 0.147 7.64 6.89 8.78
8/14/2023 7:30:00 PM 21.51 70.718 0.147 7.61 7 8.75
8/14/2023 7:45:00 PM 21.5 70.7 0.147 7.58 6.95 8.71
8/14/2023 8:00:00 PM 21.48 70.664 0.147 7.56 6.94 8.68
8/14/2023 8:15:00 PM 21.47 70.646 0.147 7.53 7.2 8.66
8/14/2023 8:30:00 PM 21.46 70.628 0.147 7.52 7.22 8.65
8/14/2023 8:45:00 PM 21.45 70.61 0.147 7.51 7.34 8.63
8/14/2023 9:00:00 PM 21.44 70.592 0.147 7.5 7.12 8.63
8/14/2023 9:15:00 PM 21.43 70.574 0.147 7.49 7.39 8.62
8/14/2023 9:30:00 PM 21.42 70.556 0.147 7.48 7.36 8.62
8/14/2023 9:45:00 PM 21.41 70.538 0.147 7.47 7.25 8.62
8/14/2023 10:00:00 PM 21.39 70.502 0.147 7.46 7.43 8.61
8/14/2023 10:15:00 PM 21.37 70.466 0.148 7.45 7.06 8.61
8/14/2023 10:30:00 PM 21.35 70.43 0.147 7.45 7.16 8.62
8/14/2023 10:45:00 PM 21.33 70.394 0.147 7.44 6.84 8.62
8/14/2023 11:00:00 PM 21.31 70.358 0.147 7.44 6.82 8.63
8/14/2023 11:15:00 PM 21.28 70.304 0.147 7.44 6.87 8.64
8/14/2023 11:30:00 PM 21.25 70.25 0.146 7.43 7.05 8.64
8/14/2023 11:45:00 PM 21.21 70.17799 0.146 7.43 7.24 8.64
8/15/2023 12:00:00 AM 21.17 70.106 0.145 7.44 6.93 8.66
8/15/2023 12:15:00 AM 21.13 70.034 0.145 7.44 6.98 8.66
8/15/2023 12:30:00 AM 21.07 69.926 0.143 7.44 7.83 8.68
8/15/2023 12:45:00 AM 21.01 69.818 0.142 7.43 7.78 8.68
8/15/2023 1:00:00 AM 20.94 69.692 0.141 7.43 8.05 8.7
8/15/2023 1:15:00 AM 20.87 69.566 0.14 7.41 8.99 8.7
8/15/2023 1:30:00 AM 20.81 69.458 0.139 7.4 9.49 8.72
8/15/2023 1:45:00 AM 20.74 69.332 0.139 7.4 10.5 8.74
8/15/2023 2:00:00 AM 20.66 69.188 0.138 7.4 12 8.76
8/15/2023 2:15:00 AM 20.58 69.044 0.138 7.39 15.66 8.76
8/15/2023 2:30:00 AM 20.48 68.864 0.138 7.39 21.1 8.83
8/15/2023 2:45:00 AM 20.36 68.648 0.136 7.39 26.03 8.89
8/15/2023 3:00:00 AM 20.16 68.288 0.135 7.38 36.41 8.95
8/15/2023 3:15:00 AM 19.91 67.838 0.133 7.37 49.68 9
8/15/2023 3:30:00 AM 19.76 67.568 0.126 7.35 63.79 9.03
8/15/2023 3:45:00 AM 19.75 67.55 0.122 7.32 69.36 9.03
8/15/2023 4:00:00 AM 19.8 67.64 0.121 7.31 65.86 9.01
8/15/2023 4:15:00 AM 19.85 67.73 0.122 7.31 51.91 9
8/15/2023 4:30:00 AM 19.87 67.766 0.124 7.31 47.87 9
8/15/2023 4:45:00 AM 19.85 67.73 0.124 7.32 45.32 9.01
8/15/2023 5:00:00 AM 19.83 67.694 0.123 7.32 47.6 9
8/15/2023 5:15:00 AM 19.8 67.64 0.121 7.32 51.91 9.01
8/15/2023 5:30:00 AM 19.78 67.604 0.118 7.3 52.53 9.01
8/15/2023 5:45:00 AM 19.77 67.586 0.117 7.3 52.13 9.01
8/15/2023 6:00:00 AM 19.75 67.55 0.116 7.29 48.15 9.02
8/15/2023 6:15:00 AM 19.74 67.532 0.116 7.29 47.68 9.03
8/15/2023 6:30:00 AM 19.71 67.478 0.115 7.28 47.55 9.03
8/15/2023 6:45:00 AM 19.68 67.424 0.116 7.29 44.46 9.05
8/15/2023 7:00:00 AM 19.64 67.352 0.117 7.29 44.48 9.05
8/15/2023 7:15:00 AM 19.6 67.28 0.118 7.29 43.34 9.07
8/15/2023 7:30:00 AM 19.56 67.208 0.12 7.29 44.22 9.07
8/15/2023 7:45:00 AM 19.52 67.136 0.122 7.29 48.46 9.08
8/15/2023 8:00:00 AM 19.5 67.1 0.122 7.29 52.36 9.1
8/15/2023 8:15:00 AM 19.49 67.082 0.121 7.28 57.89 9.1
8/15/2023 8:30:00 AM 19.49 67.082 0.12 7.27 63.62 9.1
8/15/2023 8:45:00 AM 19.5 67.1 0.118 7.26 65.74 9.11
8/15/2023 9:00:00 AM 19.5 67.1 0.116 7.25 65.66 9.11
8/15/2023 9:15:00 AM 19.5 67.1 0.113 7.24 67.4 9.11
8/15/2023 9:30:00 AM 19.49 67.082 0.111 7.22 66.42 9.11
8/15/2023 9:45:00 AM 19.48 67.064 0.11 7.21 67.8 9.11
8/15/2023 10:00:00 AM 19.49 67.082 0.109 7.2 64.06 9.11
8/15/2023 10:15:00 AM 19.52 67.136 0.109 7.2 59.66 9.11
8/15/2023 10:30:00 AM 19.54 67.172 0.11 7.21 57.93 9.1
8/15/2023 10:45:00 AM 19.59 67.262 0.111 7.22 54.1 9.11
8/15/2023 11:00:00 AM 19.66 67.388 0.112 7.22 51 9.11
8/15/2023 11:15:00 AM 19.66 67.388 0.113 7.23 48.77 9.1
8/15/2023 11:30:00 AM 19.68 67.424 0.114 7.23 46.16 9.11
8/15/2023 11:45:00 AM 19.78 67.604 0.116 7.25 45.2 9.1
8/15/2023 12:00:00 PM 19.88 67.784 0.117 7.25 41.15 9.11
8/15/2023 12:15:00 PM 19.96 67.92799 0.119 7.26 40.36 9.11
8/15/2023 12:30:00 PM 19.87 67.766 0.119 7.26 40.39 9.1
8/15/2023 12:45:00 PM 19.85 67.73 0.119 7.25 39.58 9.1
8/15/2023 1:00:00 PM 19.86 67.748 0.118 7.26 38.86 9.11
8/15/2023 1:15:00 PM 19.87 67.766 0.118 7.28 39.6 9.1
8/15/2023 1:30:00 PM 19.88 67.784 0.117 7.27 38.79 9.11
8/15/2023 1:45:00 PM 19.88 67.784 0.117 7.27 37.78 9.11
8/15/2023 2:00:00 PM 19.91 67.838 0.117 7.27 37.41 9.1
8/15/2023 2:15:00 PM 19.93 67.874 0.117 7.28 35.52 9.09
8/15/2023 2:30:00 PM 19.93 67.874 0.117 7.28 34.57 9.09
8/15/2023 2:45:00 PM 19.93 67.874 0.117 7.28 33.88 9.09
8/15/2023 3:00:00 PM 19.95 67.91 0.117 7.29 32.7 9.09
8/15/2023 3:15:00 PM 19.98 67.964 0.117 7.29 37.49 9.09
8/15/2023 3:30:00 PM 20.02 68.036 0.117 7.29 31.72 9.09
8/15/2023 3:45:00 PM 20.04 68.07201 0.117 7.3 32.59 9.09
8/15/2023 4:00:00 PM 20.07 68.126 0.117 7.3 31.05 9.09
8/15/2023 4:15:00 PM 20.1 68.18 0.117 7.3 30.31 9.09
8/15/2023 4:30:00 PM 20.13 68.234 0.118 7.31 30.43 9.09
8/15/2023 4:45:00 PM 20.15 68.27 0.119 7.31 31.19 9.08
8/15/2023 5:00:00 PM 20.17 68.306 0.119 7.31 30.9 9.08
8/15/2023 5:15:00 PM 20.18 68.324 0.119 7.32 33.52 9.07
8/15/2023 5:30:00 PM 20.16 68.288 0.119 7.31 35.17 9.06
8/15/2023 5:45:00 PM 20.13 68.234 0.119 7.31 36.07 9.06
8/15/2023 6:00:00 PM 20.11 68.198 0.118 7.31 38.39 9.06
8/15/2023 6:15:00 PM 20.09 68.162 0.118 7.3 37.54 9.05
8/15/2023 6:30:00 PM 20.07 68.126 0.117 7.29 38.05 9.05
8/15/2023 6:45:00 PM 20.04 68.07201 0.116 7.29 36.47 9.05
8/15/2023 7:00:00 PM 20.01 68.018 0.116 7.28 34.76 9.05
8/15/2023 7:15:00 PM 19.99 67.982 0.116 7.27 34.57 9.05
8/15/2023 7:30:00 PM 19.98 67.964 0.116 7.27 32.8 9.05
8/15/2023 7:45:00 PM 19.98 67.964 0.117 7.27 36.04 9.04
8/15/2023 8:00:00 PM 19.99 67.982 0.117 7.27 29.71 9.04
8/15/2023 8:15:00 PM 20 68 0.118 7.27 30 9.04
8/15/2023 8:30:00 PM 20 68 0.118 7.28 28.83 9.03
8/15/2023 8:45:00 PM 19.99 67.982 0.118 7.26 28.38 9.03
8/15/2023 9:00:00 PM 19.98 67.964 0.118 7.26 27.22 9.04
8/15/2023 9:15:00 PM 19.96 67.92799 0.117 7.26 28.68 9.04
8/15/2023 9:30:00 PM 19.93 67.874 0.117 7.26 35.97 9.05
8/15/2023 9:45:00 PM 19.9 67.82 0.116 7.26 28.58 9.05
8/15/2023 10:00:00 PM 19.87 67.766 0.116 7.26 27.73 9.05
8/15/2023 10:15:00 PM 19.84 67.712 0.115 7.26 27.95 9.06
8/15/2023 10:30:00 PM 19.8 67.64 0.115 7.25 27.66 9.06
8/15/2023 10:45:00 PM 19.76 67.568 0.115 7.24 28.92 9.06
8/15/2023 11:00:00 PM 19.72 67.496 0.115 7.24 29.38 9.07
8/15/2023 11:15:00 PM 19.68 67.424 0.115 7.23 28.53 9.08
8/15/2023 11:30:00 PM 19.64 67.352 0.115 7.23 28.09 9.09
8/15/2023 11:45:00 PM 19.6 67.28 0.115 7.24 28.74 9.1
8/16/2023 12:00:00 AM 19.56 67.208 0.115 7.24 27.85 9.1
8/16/2023 12:15:00 AM 19.54 67.172 0.115 7.23 26.71 9.11
8/16/2023 12:30:00 AM 19.51 67.118 0.115 7.23 28.1 9.11
8/16/2023 12:45:00 AM 19.49 67.082 0.115 7.23 28.32 9.11
8/16/2023 1:00:00 AM 19.47 67.046 0.116 7.23 27.37 9.12
8/16/2023 1:15:00 AM 19.46 67.028 0.116 7.23 27.34 9.11
8/16/2023 1:30:00 AM 19.45 67.01 0.115 7.23 26.52 9.12
8/16/2023 1:45:00 AM 19.43 66.974 0.115 7.24 27.54 9.12
8/16/2023 2:00:00 AM 19.41 66.938 0.115 7.23 26.75 9.12
8/16/2023 2:15:00 AM 19.39 66.902 0.114 7.23 25.98 9.12
8/16/2023 2:30:00 AM 19.37 66.866 0.114 7.23 25.02 9.13
8/16/2023 2:45:00 AM 19.35 66.83 0.114 7.23 24.54 9.13
8/16/2023 3:00:00 AM 19.33 66.794 0.114 7.24 24.03 9.14
8/16/2023 3:15:00 AM 19.32 66.776 0.114 7.24 23.81 9.14
8/16/2023 3:30:00 AM 19.31 66.758 0.114 7.24 24.18 9.14
8/16/2023 3:45:00 AM 19.29 66.722 0.114 7.24 24.75 9.14
8/16/2023 4:00:00 AM 19.28 66.704 0.114 7.24 23.86 9.15
8/16/2023 4:15:00 AM 19.27 66.686 0.114 7.24 23.76 9.15
8/16/2023 4:30:00 AM 19.25 66.65 0.114 7.24 23 9.15
8/16/2023 4:45:00 AM 19.24 66.632 0.114 7.24 22.43 9.16
8/16/2023 5:00:00 AM 19.23 66.614 0.114 7.24 22.24 9.16
8/16/2023 5:15:00 AM 19.22 66.596 0.114 7.25 22 9.17
8/16/2023 5:30:00 AM 19.2 66.56 0.114 7.25 21.22 9.16
8/16/2023 5:45:00 AM 19.19 66.542 0.114 7.25 21.39 9.17
8/16/2023 6:00:00 AM 19.17 66.506 0.115 7.25 21.08 9.18
8/16/2023 6:15:00 AM 19.16 66.488 0.115 7.25 21.34 9.18
8/16/2023 6:30:00 AM 19.15 66.47 0.115 7.25 20.74 9.19
8/16/2023 6:45:00 AM 19.13 66.434 0.115 7.25 19.41 9.2
8/16/2023 7:00:00 AM 19.12 66.416 0.115 7.26 21.57 9.2
8/16/2023 7:15:00 AM 19.12 66.416 0.115 7.27 20.08 9.21
8/16/2023 7:30:00 AM 19.11 66.398 0.115 7.27 20.02 9.22
8/16/2023 7:45:00 AM 19.1 66.38 0.115 7.28 19.04 9.23
8/16/2023 8:00:00 AM 19.09 66.362 0.115 7.28 18.12 9.23
8/16/2023 8:15:00 AM 19.1 66.38 0.115 7.28 17.97 9.25
8/16/2023 8:30:00 AM 19.13 66.434 0.115 7.29 17 9.27
8/16/2023 8:45:00 AM 19.16 66.488 0.115 7.3 16.35 9.28
8/16/2023 9:00:00 AM 19.19 66.542 0.115 7.31 16.18 9.3
8/16/2023 9:15:00 AM 19.22 66.596 0.115 7.31 16.25 9.31
8/16/2023 9:30:00 AM 19.24 66.632 0.116 7.32 15.48 9.31
8/16/2023 9:45:00 AM 19.29 66.722 0.116 7.33 15.62 9.32
8/16/2023 10:00:00 AM 19.37 66.866 0.116 7.35 14.85 9.34
8/16/2023 10:15:00 AM 19.43 66.974 0.116 7.36 15.3 9.35
8/16/2023 10:30:00 AM 19.51 67.118 0.116 7.37 14.45 9.35
8/16/2023 10:45:00 AM 19.53 67.154 0.116 7.38 14.29 9.34
8/16/2023 11:00:00 AM 19.62 67.316 0.117 7.4 14.06 9.36
8/16/2023 11:15:00 AM 19.7 67.46 0.117 7.4 13.81 9.36
8/16/2023 11:30:00 AM 19.82 67.676 0.117 7.42 13.71 9.38
8/16/2023 11:45:00 AM 19.95 67.91 0.117 7.44 13.39 9.39
8/16/2023 12:00:00 PM 20.14 68.252 0.117 7.46 13.07 9.39
8/16/2023 12:15:00 PM 20.26 68.468 0.118 7.47 13.14 9.38
8/16/2023 12:30:00 PM 20.4 68.72 0.118 7.49 12.45 9.37
8/16/2023 12:45:00 PM 20.55 68.99 0.118 7.51 12.66 9.36
8/16/2023 1:00:00 PM 20.7 69.26 0.118 7.52 12.56 9.35
8/16/2023 1:15:00 PM 20.85 69.53 0.118 7.53 12.49 9.35
8/16/2023 1:30:00 PM 20.93 69.674 0.118 7.54 12.01 9.33
8/16/2023 1:45:00 PM 21.03 69.854 0.118 7.55 11.69 9.31
8/16/2023 2:00:00 PM 21.18 70.124 0.118 7.56 11.71 9.29
8/16/2023 2:15:00 PM 21.35 70.43 0.118 7.58 11.43 9.28
8/16/2023 2:30:00 PM 21.42 70.556 0.118 7.59 11.35 9.26
8/16/2023 2:45:00 PM 21.47 70.646 0.118 7.58 11.23 9.24
8/16/2023 3:00:00 PM 21.53 70.754 0.118 7.58 11.03 9.22
8/16/2023 3:15:00 PM 21.61 70.898 0.118 7.58 11 9.2
8/16/2023 3:30:00 PM 21.67 71.006 0.118 7.58 10.71 9.18
8/16/2023 3:45:00 PM 21.73 71.114 0.118 7.57 10.89 9.13
8/16/2023 4:00:00 PM 21.78 71.204 0.118 7.56 11.06 9.11
8/16/2023 4:15:00 PM 21.88 71.384 0.119 7.55 10.54 9.09
8/16/2023 4:30:00 PM 21.92 71.456 0.119 7.55 11.06 9.05
8/16/2023 4:45:00 PM 21.94 71.492 0.119 7.55 10.55 9.02
8/16/2023 5:00:00 PM 21.92 71.456 0.119 7.53 10.84 8.99
8/16/2023 5:15:00 PM 21.95 71.51 0.119 7.52 10.3 8.97
8/16/2023 5:30:00 PM 21.96 71.528 0.119 7.5 10.77 8.94
8/16/2023 5:45:00 PM 21.95 71.51 0.119 7.49 10.55 8.91
8/16/2023 6:00:00 PM 21.92 71.456 0.119 7.47 10.52 8.88
8/16/2023 6:15:00 PM 21.91 71.438 0.119 7.46 10.97 8.86
8/16/2023 6:30:00 PM 21.9 71.42 0.12 7.45 11.01 8.85
8/16/2023 6:45:00 PM 21.88 71.384 0.12 7.44 11.18 8.84
8/16/2023 7:00:00 PM 21.84 71.312 0.12 7.44 10.77 8.83
8/16/2023 7:15:00 PM 21.8 71.24 0.12 7.43 10.99 8.82
8/16/2023 7:30:00 PM 21.75 71.15 0.12 7.42 10.98 8.82
8/16/2023 7:45:00 PM 21.7 71.06 0.12 7.42 11.03 8.82
8/16/2023 8:00:00 PM 21.62 70.916 0.121 7.42 10.98 8.81
8/16/2023 8:15:00 PM 21.54 70.772 0.121 7.39 10.93 8.81
8/16/2023 8:30:00 PM 21.47 70.646 0.121 7.39 10.64 8.82
8/16/2023 8:45:00 PM 21.38 70.484 0.121 7.38 11.58 8.83
8/16/2023 9:00:00 PM 21.28 70.304 0.121 7.38 11.14 8.83
8/16/2023 9:15:00 PM 21.19 70.142 0.121 7.37 11.65 8.85
8/16/2023 9:30:00 PM 21.1 69.98 0.122 7.37 10.88 8.85
8/16/2023 9:45:00 PM 21.01 69.818 0.122 7.36 11.32 8.87
8/16/2023 10:00:00 PM 20.94 69.692 0.122 7.36 11.32 8.88
8/16/2023 10:15:00 PM 20.86 69.548 0.122 7.35 11.24 8.89
8/16/2023 10:30:00 PM 20.79 69.422 0.122 7.35 10.94 8.91
8/16/2023 10:45:00 PM 20.72 69.296 0.122 7.36 11.42 8.92
8/16/2023 11:00:00 PM 20.65 69.17 0.122 7.35 11.38 8.93
8/16/2023 11:15:00 PM 20.58 69.044 0.123 7.35 10.62 8.94
8/16/2023 11:30:00 PM 20.51 68.918 0.123 7.34 10.76 8.95
8/16/2023 11:45:00 PM 20.45 68.81 0.123 7.34 11.03 8.96
8/17/2023 12:00:00 AM 20.38 68.684 0.123 7.34 11.05 8.97
8/17/2023 12:15:00 AM 20.32 68.576 0.123 7.34 10.68 8.97
8/17/2023 12:30:00 AM 20.27 68.486 0.123 7.33 10.51 8.98
8/17/2023 12:45:00 AM 20.21 68.378 0.123 7.33 10.96 8.99
8/17/2023 1:00:00 AM 20.15 68.27 0.124 7.33 10.6 9
8/17/2023 1:15:00 AM 20.1 68.18 0.124 7.33 10.7 9.02
8/17/2023 1:30:00 AM 20.04 68.07201 0.124 7.33 10.95 9.02
8/17/2023 1:45:00 AM 19.99 67.982 0.124 7.33 10.22 9.03
8/17/2023 2:00:00 AM 19.94 67.892 0.124 7.33 10.68 9.04
8/17/2023 2:15:00 AM 19.88 67.784 0.124 7.33 10.57 9.05
8/17/2023 2:30:00 AM 19.83 67.694 0.124 7.33 10.29 9.06
8/17/2023 2:45:00 AM 19.78 67.604 0.125 7.33 10.49 9.06
8/17/2023 3:00:00 AM 19.74 67.532 0.125 7.33 10.32 9.07
8/17/2023 3:15:00 AM 19.69 67.442 0.125 7.33 10.38 9.08
8/17/2023 3:30:00 AM 19.65 67.37 0.125 7.33 10.32 9.09
8/17/2023 3:45:00 AM 19.6 67.28 0.125 7.35 10.57 9.1
8/17/2023 4:00:00 AM 19.56 67.208 0.125 7.32 10.14 9.11
8/17/2023 4:15:00 AM 19.52 67.136 0.125 7.33 10.26 9.12
8/17/2023 4:30:00 AM 19.47 67.046 0.126 7.32 10.04 9.13
8/17/2023 4:45:00 AM 19.42 66.956 0.126 7.32 10.1 9.13
8/17/2023 5:00:00 AM 19.38 66.884 0.126 7.32 10.4 9.13
8/17/2023 5:15:00 AM 19.35 66.83 0.126 7.32 10.42 9.15
8/17/2023 5:30:00 AM 19.31 66.758 0.126 7.32 10.56 9.15
8/17/2023 5:45:00 AM 19.28 66.704 0.126 7.33 10.28 9.16
8/17/2023 6:00:00 AM 19.25 66.65 0.126 7.33 10.2 9.17
8/17/2023 6:15:00 AM 19.22 66.596 0.126 7.32 10.3 9.17
8/17/2023 6:30:00 AM 19.18 66.524 0.127 7.33 10.57 9.18
8/17/2023 6:45:00 AM 19.15 66.47 0.127 7.33 10 9.2
8/17/2023 7:00:00 AM 19.12 66.416 0.127 7.33 10.8 9.21
8/17/2023 7:15:00 AM 19.09 66.362 0.127 7.33 9.94 9.23
8/17/2023 7:30:00 AM 19.09 66.362 0.127 7.35 9.35 9.26
8/17/2023 7:45:00 AM 19.09 66.362 0.127 7.35 9.18 9.29
8/17/2023 8:00:00 AM 19.1 66.38 0.127 7.36 9.15 9.31
8/17/2023 8:15:00 AM 19.12 66.416 0.127 7.37 8.87 9.33
8/17/2023 8:30:00 AM 19.15 66.47 0.127 7.38 8.37 9.36
8/17/2023 8:45:00 AM 19.19 66.542 0.127 7.4 8.25 9.38
8/17/2023 9:00:00 AM 19.24 66.632 0.128 7.41 8.18 9.39
8/17/2023 9:15:00 AM 19.28 66.704 0.128 7.43 7.94 9.4
8/17/2023 9:30:00 AM 19.33 66.794 0.128 7.44 7.65 9.41
8/17/2023 9:45:00 AM 19.39 66.902 0.128 7.46 7.83 9.42
8/17/2023 10:00:00 AM 19.47 67.046 0.128 7.47 7.59 9.43
8/17/2023 10:15:00 AM 19.57 67.226 0.128 7.5 7.73 9.45
8/17/2023 10:30:00 AM 19.7 67.46 0.128 7.52 7.66 9.46
8/17/2023 10:45:00 AM 19.81 67.658 0.128 7.56 7.74 9.49
8/17/2023 11:00:00 AM 19.9 67.82 0.128 7.57 7.33 9.5
8/17/2023 11:15:00 AM 20.01 68.018 0.128 7.6 7.42 9.51
8/17/2023 11:30:00 AM 20.12 68.216 0.128 7.63 7.38 9.52
8/17/2023 11:45:00 AM 20.23 68.414 0.128 7.65 7.05 9.53
8/17/2023 12:00:00 PM 20.34 68.612 0.128 7.68 7.14 9.52
8/17/2023 12:15:00 PM 20.44 68.792 0.128 7.7 7.14 9.53
8/17/2023 12:30:00 PM 20.51 68.918 0.128 7.72 6.86 9.5
8/17/2023 12:45:00 PM 20.53 68.954 0.129 7.73 6.83 9.45
8/17/2023 1:00:00 PM 20.53 68.954 0.129 7.71 7 9.41
8/17/2023 1:15:00 PM 20.51 68.918 0.129 7.69 6.73 9.37
8/17/2023 1:30:00 PM 20.49 68.882 0.129 7.66 6.58 9.34
8/17/2023 1:45:00 PM 20.51 68.918 0.129 7.65 6.57 9.33
8/17/2023 2:00:00 PM 20.59 69.062 0.129 7.67 6.72 9.38
8/17/2023 2:15:00 PM 20.77 69.386 0.129 7.69 7.57 9.39
8/17/2023 2:30:00 PM 20.96 69.728 0.129 7.7 7.58 9.38
8/17/2023 2:45:00 PM 21.17 70.106 0.129 7.71 8.28 9.35
8/17/2023 3:00:00 PM 21.29 70.32201 0.13 7.71 8.43 9.29
8/17/2023 3:15:00 PM 21.42 70.556 0.13 7.71 8.06 9.27
8/17/2023 3:30:00 PM 21.56 70.808 0.13 7.73 7.62 9.26
8/17/2023 3:45:00 PM 21.57 70.826 0.13 7.7 8.18 9.19
8/17/2023 4:00:00 PM 21.64 70.952 0.13 7.7 7.74 9.17
8/17/2023 4:15:00 PM 21.75 71.15 0.13 7.71 6.98 9.16
8/17/2023 4:30:00 PM 21.78 71.204 0.13 7.73 7.92 9.13
8/17/2023 4:45:00 PM 21.78 71.204 0.13 7.69 7.04 9.09
8/17/2023 5:00:00 PM 21.75 71.15 0.13 7.67 6.63 9.06
8/17/2023 5:15:00 PM 21.71 71.078 0.131 7.65 6.66 9.01
8/17/2023 5:30:00 PM 21.71 71.078 0.131 7.63 5.98 8.99
8/17/2023 5:45:00 PM 21.71 71.078 0.131 7.62 7.14 8.95
8/17/2023 6:00:00 PM 21.7 71.06 0.131 7.59 6 8.92
8/17/2023 6:15:00 PM 21.68 71.024 0.131 7.56 6.24 8.87
8/17/2023 6:30:00 PM 21.67 71.006 0.131 7.55 6.47 8.86
8/17/2023 6:45:00 PM 21.69 71.042 0.131 7.54 6.29 8.85
8/17/2023 7:00:00 PM 21.7 71.06 0.131 7.53 6.25 8.82
8/17/2023 7:15:00 PM 21.7 71.06 0.132 7.51 6.27 8.79
8/17/2023 7:30:00 PM 21.69 71.042 0.132 7.49 6.16 8.77
8/17/2023 7:45:00 PM 21.68 71.024 0.132 7.48 6.61 8.75
8/17/2023 8:00:00 PM 21.66 70.988 0.132 7.49 6.35 8.72
8/17/2023 8:15:00 PM 21.63 70.934 0.132 7.45 6.55 8.71
8/17/2023 8:30:00 PM 21.6 70.88 0.132 7.44 6.47 8.7
8/17/2023 8:45:00 PM 21.56 70.808 0.132 7.43 6.6 8.69
8/17/2023 9:00:00 PM 21.52 70.736 0.133 7.43 6.93 8.69
8/17/2023 9:15:00 PM 21.47 70.646 0.133 7.43 7.35 8.68
8/17/2023 9:30:00 PM 21.43 70.574 0.133 7.42 6.97 8.69
8/17/2023 9:45:00 PM 21.4 70.52 0.133 7.41 6.97 8.69
8/17/2023 10:00:00 PM 21.36 70.448 0.133 7.41 7.22 8.69
8/17/2023 10:15:00 PM 21.32 70.376 0.133 7.42 7.18 8.69
8/17/2023 10:30:00 PM 21.27 70.286 0.133 7.42 6.87 8.7
8/17/2023 10:45:00 PM 21.23 70.214 0.133 7.42 6.61 8.71
8/17/2023 11:00:00 PM 21.19 70.142 0.134 7.42 6.82 8.72
8/17/2023 11:15:00 PM 21.15 70.07 0.134 7.42 6.56 8.72
8/17/2023 11:30:00 PM 21.13 70.034 0.134 7.42 6.83 8.72
8/17/2023 11:45:00 PM 21.11 69.998 0.134 7.42 6.52 8.72
8/18/2023 12:00:00 AM 21.08 69.944 0.134 7.42 6.72 8.72
8/18/2023 12:15:00 AM 21.05 69.89 0.134 7.44 6.77 8.73
8/18/2023 12:30:00 AM 21.02 69.836 0.134 7.43 6.99 8.73
8/18/2023 12:45:00 AM 21 69.8 0.134 7.42 6.85 8.74
8/18/2023 1:00:00 AM 20.92 69.656 0.131 7.42 9.02 8.78
8/18/2023 1:15:00 AM 20.78 69.404 0.124 7.39 13.21 8.84
8/18/2023 1:30:00 AM 20.71 69.278 0.123 7.35 16.17 8.85
8/18/2023 1:45:00 AM 20.47 68.846 0.109 7.33 60.45 8.95
8/18/2023 2:00:00 AM 20.1 68.18 0.1 7.19 153.19 9.02
8/18/2023 2:15:00 AM 19.57 67.226 0.074 6.84 708.64 9.14
8/18/2023 2:30:00 AM 19.38 66.884 0.057 6.52 1030.91 9.12
8/18/2023 2:45:00 AM 19.42 66.956 0.057 6.44 1094.08 9.07
8/18/2023 3:00:00 AM 19.51 67.118 0.058 6.53 1105.51 9.07
8/18/2023 3:15:00 AM 19.59 67.262 0.044 6.51 1229.38 9
8/18/2023 3:30:00 AM 19.59 67.262 0.052 6.54 1324.34 9.02
8/18/2023 3:45:00 AM 19.56 67.208 0.044 6.55 1053.75 9.05
8/18/2023 4:00:00 AM 19.55 67.19 0.043 6.54 887.82 9.07
8/18/2023 4:15:00 AM 19.53 67.154 0.039 6.57 689.24 9.06
8/18/2023 4:30:00 AM 19.48 67.064 0.059 6.62 592.52 9.06
8/18/2023 4:45:00 AM 19.43 66.974 0.06 6.7 527.73 9.05
8/18/2023 5:00:00 AM 19.4 66.92 0.046 6.6 494.39 9.02
8/18/2023 5:15:00 AM 19.38 66.884 0.05 6.63 474.26 8.99
8/18/2023 5:30:00 AM 19.36 66.848 0.059 6.6 461.92 8.98
8/18/2023 5:45:00 AM 19.33 66.794 0.059 6.6 485.44 8.97
8/18/2023 6:00:00 AM 19.32 66.776 0.059 6.48 401.39 8.95
8/18/2023 6:15:00 AM 19.3 66.74 0.06 6.53 499.01 8.95
8/18/2023 6:30:00 AM 19.29 66.722 0.061 6.52 483.02 8.96
8/18/2023 6:45:00 AM 19.27 66.686 0.061 6.49 429.16 8.96
8/18/2023 7:00:00 AM 19.25 66.65 0.062 6.56 380.28 8.97
8/18/2023 7:15:00 AM 19.23 66.614 0.064 6.57 356.67 8.98
8/18/2023 7:30:00 AM 19.21 66.578 0.065 6.61 331.24 8.99
8/18/2023 7:45:00 AM 19.18 66.524 0.065 6.61 320.8 9
8/18/2023 8:00:00 AM 19.14 66.452 0.066 6.59 334.91 9
8/18/2023 8:15:00 AM 19.1 66.38 0.065 6.57 345.32 9.01
8/18/2023 8:30:00 AM 19.07 66.326 0.065 6.63 358.81 9.02
8/18/2023 8:45:00 AM 19.04 66.272 0.065 6.59 353.65 9.03
8/18/2023 9:00:00 AM 19.02 66.236 0.065 6.59 354.48 9.04
8/18/2023 9:15:00 AM 19.01 66.218 0.066 6.63 354.92 9.06
8/18/2023 9:30:00 AM 19 66.2 0.066 6.63 338.9 9.06
8/18/2023 9:45:00 AM 19.01 66.218 0.066 6.64 333.83 9.06
8/18/2023 10:00:00 AM 19.02 66.236 0.067 6.63 316.11 9.07
8/18/2023 10:15:00 AM 19.02 66.236 0.067 6.65 305.15 9.07
8/18/2023 10:30:00 AM 19.02 66.236 0.068 6.66 310.13 9.07
8/18/2023 10:45:00 AM 19.05 66.29 0.068 6.62 296.78 9.08
8/18/2023 11:00:00 AM 19.09 66.362 0.069 6.62 297.46 9.08
8/18/2023 11:15:00 AM 19.07 66.326 0.069 6.65 273.19 9.08
8/18/2023 11:30:00 AM 19.09 66.362 0.069 6.67 271.6 9.08
8/18/2023 11:45:00 AM 19.14 66.452 0.07 6.72 248.53 9.08
8/18/2023 12:00:00 PM 19.15 66.47 0.07 6.68 255.9 9.11
8/18/2023 12:15:00 PM 19.16 66.488 0.07 6.62 248.77 9.09
8/18/2023 12:30:00 PM 19.15 66.47 0.069 6.68 266.12 9.05
8/18/2023 12:45:00 PM 19.21 66.578 0.069 6.66 296.1 9.02
8/18/2023 1:00:00 PM 19.22 66.596 0.053 6.66 290.63 9.01
8/18/2023 1:15:00 PM 19.22 66.596 0.047 6.66 304.3 9
8/18/2023 1:30:00 PM 19.26 66.668 0.045 6.68 327.33 8.98
8/18/2023 1:45:00 PM 19.3 66.74 0.046 6.62 353.22 8.96
8/18/2023 2:00:00 PM 19.35 66.83 0.045 6.61 356.92 8.94
8/18/2023 2:15:00 PM 19.38 66.884 0.047 6.59 377.09 8.93
8/18/2023 2:30:00 PM 19.4 66.92 0.046 6.62 358.45 8.92
8/18/2023 2:45:00 PM 19.43 66.974 0.048 6.61 379.5 8.91
8/18/2023 3:00:00 PM 19.46 67.028 0.046 6.59 362.54 8.9
8/18/2023 3:15:00 PM 19.47 67.046 0.044 6.57 367.46 8.9
8/18/2023 3:30:00 PM 19.46 67.028 0.043 6.59 367.71 8.89
8/18/2023 3:45:00 PM 19.45 67.01 0.044 6.59 358.61 8.89
8/18/2023 4:00:00 PM 19.46 67.028 0.043 6.58 364.04 8.9
8/18/2023 4:15:00 PM 19.47 67.046 0.042 6.57 328.3 8.9
8/18/2023 4:30:00 PM 19.47 67.046 0.044 6.58 316.25 8.9
8/18/2023 4:45:00 PM 19.47 67.046 0.042 6.59 312.76 8.9
8/18/2023 5:00:00 PM 19.46 67.028 0.042 6.59 321.41 8.9
8/18/2023 5:15:00 PM 19.45 67.01 0.042 6.59 312.09 8.9
8/18/2023 5:30:00 PM 19.42 66.956 0.041 6.59 312.04 8.91
8/18/2023 5:45:00 PM 19.4 66.92 0.043 6.61 299.8 8.91
8/18/2023 6:00:00 PM 19.38 66.884 0.043 6.6 321.3 8.91
8/18/2023 6:15:00 PM 19.36 66.848 0.041 6.58 292.56 8.91
8/18/2023 6:30:00 PM 19.35 66.83 0.059 6.59 300.33 8.92
8/18/2023 6:45:00 PM 19.32 66.776 0.06 6.59 289.25 8.92
8/18/2023 7:00:00 PM 19.3 66.74 0.06 6.63 298.13 8.93
8/18/2023 7:15:00 PM 19.27 66.686 0.06 6.59 287.03 8.93
8/18/2023 7:30:00 PM 19.25 66.65 0.06 6.63 286.96 8.94
8/18/2023 7:45:00 PM 19.23 66.614 0.06 6.61 287.8 8.95
8/18/2023 8:00:00 PM 19.21 66.578 0.061 6.62 276.86 8.96
8/18/2023 8:15:00 PM 19.19 66.542 0.061 6.62 275.5 8.98
8/18/2023 8:30:00 PM 19.16 66.488 0.061 6.64 285.06 8.99
8/18/2023 8:45:00 PM 19.14 66.452 0.061 6.61 270.51 9
8/18/2023 9:00:00 PM 19.12 66.416 0.061 6.67 253.07 9.01
8/18/2023 9:15:00 PM 19.1 66.38 0.062 6.65 250.08 9.02
8/18/2023 9:30:00 PM 19.08 66.344 0.062 6.67 244.45 9.04
8/18/2023 9:45:00 PM 19.06 66.308 0.063 6.67 241.27 9.04
8/18/2023 10:00:00 PM 19.03 66.254 0.063 6.66 230.65 9.06
8/18/2023 10:15:00 PM 19.01 66.218 0.049 6.66 229.38 9.06
8/18/2023 10:30:00 PM 18.99 66.182 0.064 6.67 213.97 9.07
8/18/2023 10:45:00 PM 18.97 66.146 0.065 6.69 197.57 9.08
8/18/2023 11:00:00 PM 18.95 66.11 0.064 6.69 189.98 9.09
8/18/2023 11:15:00 PM 18.93 66.074 0.065 6.69 175.47 9.1
8/18/2023 11:30:00 PM 18.91 66.038 0.066 6.7 189.25 9.11
8/18/2023 11:45:00 PM 18.89 66.002 0.066 6.73 172.26 9.13
8/19/2023 12:00:00 AM 18.87 65.966 0.067 6.73 168.84 9.13
8/19/2023 12:15:00 AM 18.85 65.93 0.05 6.72 172.95 9.14
8/19/2023 12:30:00 AM 18.83 65.894 0.067 6.71 162.99 9.15
8/19/2023 12:45:00 AM 18.81 65.858 0.068 6.73 144.17 9.16
8/19/2023 1:00:00 AM 18.79 65.82201 0.069 6.74 141.48 9.16
8/19/2023 1:15:00 AM 18.77 65.786 0.069 6.76 134.02 9.17
8/19/2023 1:30:00 AM 18.75 65.75 0.07 6.77 127.57 9.17
8/19/2023 1:45:00 AM 18.73 65.714 0.07 6.77 114.53 9.19
8/19/2023 2:00:00 AM 18.71 65.67799 0.071 6.78 109.94 9.2
8/19/2023 2:15:00 AM 18.7 65.66 0.071 6.78 117.27 9.2
8/19/2023 2:30:00 AM 18.68 65.624 0.072 6.79 111.92 9.2
8/19/2023 2:45:00 AM 18.66 65.588 0.072 6.79 110.3 9.21
8/19/2023 3:00:00 AM 18.64 65.552 0.072 6.79 105.8 9.23
8/19/2023 3:15:00 AM 18.62 65.516 0.073 6.79 103.65 9.23
8/19/2023 3:30:00 AM 18.59 65.462 0.074 6.78 102.55 9.23
8/19/2023 3:45:00 AM 18.57 65.426 0.074 6.78 94.97 9.25
8/19/2023 4:00:00 AM 18.54 65.372 0.075 6.78 95.24 9.24
8/19/2023 4:15:00 AM 18.52 65.336 0.075 6.79 95.17 9.25
8/19/2023 4:30:00 AM 18.49 65.282 0.075 6.79 85.03 9.25
8/19/2023 4:45:00 AM 18.45 65.21 0.076 6.79 88.88 9.26
8/19/2023 5:00:00 AM 18.41 65.138 0.076 6.78 86.1 9.27
8/19/2023 5:15:00 AM 18.38 65.084 0.077 6.81 83.13 9.27
8/19/2023 5:30:00 AM 18.34 65.012 0.077 6.82 76.98 9.29
8/19/2023 5:45:00 AM 18.29 64.922 0.077 6.82 77.91 9.29
8/19/2023 6:00:00 AM 18.25 64.85 0.078 6.84 73.99 9.3
8/19/2023 6:15:00 AM 18.21 64.778 0.078 6.83 71.1 9.31
8/19/2023 6:30:00 AM 18.17 64.706 0.079 6.83 77.09 9.32
8/19/2023 6:45:00 AM 18.13 64.634 0.079 6.83 69.04 9.32
8/19/2023 7:00:00 AM 18.1 64.58 0.079 6.84 65.34 9.33
8/19/2023 7:15:00 AM 18.06 64.508 0.08 6.84 61.39 9.34
8/19/2023 7:30:00 AM 18.03 64.454 0.08 6.85 64.06 9.35
8/19/2023 7:45:00 AM 18 64.4 0.081 6.84 62.13 9.36
8/19/2023 8:00:00 AM 17.97 64.346 0.081 6.87 58.91 9.37
8/19/2023 8:15:00 AM 17.95 64.31 0.081 6.87 57.95 9.38
8/19/2023 8:30:00 AM 17.92 64.256 0.082 6.88 58.81 9.39
8/19/2023 8:45:00 AM 17.91 64.238 0.082 6.89 55.38 9.4
8/19/2023 9:00:00 AM 17.89 64.202 0.082 6.9 52.85 9.4
8/19/2023 9:15:00 AM 17.89 64.202 0.083 6.9 52.2 9.41
8/19/2023 9:30:00 AM 17.89 64.202 0.083 6.91 52.95 9.41
8/19/2023 9:45:00 AM 17.89 64.202 0.083 6.92 52.42 9.41
8/19/2023 10:00:00 AM 17.91 64.238 0.084 6.93 51.53 9.42
8/19/2023 10:15:00 AM 17.93 64.274 0.084 6.94 49.45 9.42
8/19/2023 10:30:00 AM 17.96 64.328 0.084 6.93 52.28 9.42
8/19/2023 10:45:00 AM 17.99 64.382 0.084 6.95 47.53 9.42
8/19/2023 11:00:00 AM 18.04 64.472 0.085 6.96 46.94 9.42
8/19/2023 11:15:00 AM 18.08 64.544 0.085 6.97 46.19 9.41
8/19/2023 11:30:00 AM 18.16 64.688 0.085 6.97 44.73 9.41
8/19/2023 11:45:00 AM 18.22 64.796 0.085 6.99 45.41 9.4
8/19/2023 12:00:00 PM 18.29 64.922 0.086 6.99 44.69 9.4
8/19/2023 12:15:00 PM 18.34 65.012 0.086 6.99 43.64 9.4
8/19/2023 12:30:00 PM 18.43 65.174 0.086 7.02 44.46 9.39
8/19/2023 12:45:00 PM 18.5 65.3 0.086 7.01 43.58 9.38
8/19/2023 1:00:00 PM 18.58 65.444 0.086 7.03 42.58 9.38
8/19/2023 1:15:00 PM 18.61 65.498 0.087 7.04 41.47 9.37
8/19/2023 1:30:00 PM 18.67 65.606 0.087 7.05 41.84 9.36
8/19/2023 1:45:00 PM 18.8 65.84 0.087 7.06 39.8 9.35
8/19/2023 2:00:00 PM 18.83 65.894 0.087 7.06 40.53 9.34
8/19/2023 2:15:00 PM 18.95 66.11 0.088 7.07 41.4 9.32
8/19/2023 2:30:00 PM 19.02 66.236 0.088 7.07 39.78 9.31
8/19/2023 2:45:00 PM 19.1 66.38 0.088 7.08 38.81 9.3
8/19/2023 3:00:00 PM 19.15 66.47 0.088 7.1 39 9.29
8/19/2023 3:15:00 PM 19.19 66.542 0.089 7.1 37.34 9.28
8/19/2023 3:30:00 PM 19.22 66.596 0.089 7.09 38.14 9.28
8/19/2023 3:45:00 PM 19.24 66.632 0.089 7.09 38.53 9.27
8/19/2023 4:00:00 PM 19.26 66.668 0.089 7.09 36.94 9.26
8/19/2023 4:15:00 PM 19.28 66.704 0.09 7.1 37.07 9.25
8/19/2023 4:30:00 PM 19.28 66.704 0.09 7.1 34.64 9.25
8/19/2023 4:45:00 PM 19.28 66.704 0.09 7.11 35.44 9.24
8/19/2023 5:00:00 PM 19.26 66.668 0.09 7.1 36.08 9.24
8/19/2023 5:15:00 PM 19.23 66.614 0.091 7.11 33.53 9.24
8/19/2023 5:30:00 PM 19.2 66.56 0.091 7.1 33.66 9.24
8/19/2023 5:45:00 PM 19.17 66.506 0.091 7.1 33.74 9.24
8/19/2023 6:00:00 PM 19.15 66.47 0.091 7.1 33.43 9.24
8/19/2023 6:15:00 PM 19.1 66.38 0.091 7.1 33.63 9.24
8/19/2023 6:30:00 PM 19.06 66.308 0.092 7.11 31.61 9.25
8/19/2023 6:45:00 PM 19.02 66.236 0.092 7.11 32.43 9.25
8/19/2023 7:00:00 PM 18.97 66.146 0.092 7.11 31.32 9.25
8/19/2023 7:15:00 PM 18.92 66.056 0.092 7.11 31.81 9.26
8/19/2023 7:30:00 PM 18.86 65.948 0.092 7.1 33.95 9.26
8/19/2023 7:45:00 PM 18.8 65.84 0.093 7.11 73.62 9.27
8/19/2023 8:00:00 PM 18.74 65.732 0.093 7.1 30.07 9.27
8/19/2023 8:15:00 PM 18.68 65.624 0.093 7.11 29.79 9.28
8/19/2023 8:30:00 PM 18.63 65.534 0.093 7.11 29.2 9.29
8/19/2023 8:45:00 PM 18.58 65.444 0.093 7.13 28.54 9.3
8/19/2023 9:00:00 PM 18.53 65.354 0.094 7.1 29.01 9.31
8/19/2023 9:15:00 PM 18.48 65.264 0.094 7.11 28.32 9.31
8/19/2023 9:30:00 PM 18.43 65.174 0.094 7.1 27.99 9.32
8/19/2023 9:45:00 PM 18.39 65.102 0.094 7.13 28.16 9.32
8/19/2023 10:00:00 PM 18.35 65.03 0.094 7.09 27.52 9.33
8/19/2023 10:15:00 PM 18.31 64.958 0.095 7.1 26.61 9.34
8/19/2023 10:30:00 PM 18.27 64.886 0.095 7.09 26.49 9.34
8/19/2023 10:45:00 PM 18.23 64.814 0.095 7.09 26.45 9.35
8/19/2023 11:00:00 PM 18.2 64.76 0.095 7.12 25.28 9.36
8/19/2023 11:15:00 PM 18.16 64.688 0.095 7.09 24.87 9.36
8/19/2023 11:30:00 PM 18.12 64.616 0.095 7.11 25.8 9.37
8/19/2023 11:45:00 PM 18.09 64.562 0.096 7.09 25.27 9.38
8/20/2023 12:00:00 AM 18.06 64.508 0.096 7.09 25.05 9.39
8/20/2023 12:15:00 AM 18.02 64.436 0.096 7.1 23.85 9.39
8/20/2023 12:30:00 AM 17.99 64.382 0.096 7.09 23.55 9.4
8/20/2023 12:45:00 AM 17.96 64.328 0.096 7.09 23.98 9.4
8/20/2023 1:00:00 AM 17.93 64.274 0.096 7.09 43.98 9.41
8/20/2023 1:15:00 AM 17.9 64.22 0.097 7.08 23.26 9.42
8/20/2023 1:30:00 AM 17.87 64.166 0.097 7.08 23.48 9.42
8/20/2023 1:45:00 AM 17.84 64.112 0.097 7.08 23.7 9.43
8/20/2023 2:00:00 AM 17.8 64.04 0.097 7.08 23.06 9.44
8/20/2023 2:15:00 AM 17.77 63.986 0.097 7.12 22.5 9.45
8/20/2023 2:30:00 AM 17.74 63.932 0.097 7.09 22.68 9.45
8/20/2023 2:45:00 AM 17.7 63.86 0.098 7.09 22.22 9.46
8/20/2023 3:00:00 AM 17.66 63.788 0.098 7.09 21.6 9.47
8/20/2023 3:15:00 AM 17.63 63.734 0.098 7.11 22.75 9.47
8/20/2023 3:30:00 AM 17.59 63.662 0.098 7.11 22.17 9.48
8/20/2023 3:45:00 AM 17.55 63.59 0.098 7.09 21.35 9.49
8/20/2023 4:00:00 AM 17.52 63.536 0.098 7.09 20.7 9.5
8/20/2023 4:15:00 AM 17.48 63.464 0.098 7.09 20.34 9.51
8/20/2023 4:30:00 AM 17.44 63.392 0.099 7.1 29.32 9.52
8/20/2023 4:45:00 AM 17.4 63.32 0.099 7.09 166.23 9.53
8/20/2023 5:00:00 AM 17.36 63.248 0.099 7.09 20.61 9.53
8/20/2023 5:15:00 AM 17.32 63.176 0.099 7.09 21.11 9.55
8/20/2023 5:30:00 AM 17.28 63.104 0.099 7.09 19.76 9.56
8/20/2023 5:45:00 AM 17.24 63.032 0.099 7.09 20.67 9.57
8/20/2023 6:00:00 AM 17.2 62.96 0.099 7.11 20.76 9.57
8/20/2023 6:15:00 AM 17.16 62.888 0.1 7.09 20.44 9.59
8/20/2023 6:30:00 AM 17.12 62.816 0.1 7.1 19.53 9.6
8/20/2023 6:45:00 AM 17.08 62.744 0.1 7.1 20.73 9.61
8/20/2023 7:00:00 AM 17.04 62.672 0.1 7.09 20.23 9.62
8/20/2023 7:15:00 AM 17.01 62.618 0.1 7.11 19.79 9.63
8/20/2023 7:30:00 AM 16.99 62.582 0.1 7.1 19.35 9.64
8/20/2023 7:45:00 AM 16.97 62.546 0.1 7.1 20.51 9.66
8/20/2023 8:00:00 AM 16.95 62.51 0.1 7.11 19.75 9.67
8/20/2023 8:15:00 AM 16.94 62.492 0.1 7.11 19.66 9.68
8/20/2023 8:30:00 AM 16.95 62.51 0.101 7.12 19.37 9.7
8/20/2023 8:45:00 AM 16.98 62.564 0.101 7.13 18.86 9.7
8/20/2023 9:00:00 AM 16.99 62.582 0.101 7.14 17.72 9.71
8/20/2023 9:15:00 AM 17.03 62.654 0.101 7.15 18.17 9.72
8/20/2023 9:30:00 AM 17.1 62.78 0.101 7.16 17.82 9.72
8/20/2023 9:45:00 AM 17.15 62.87 0.101 7.17 18.13 9.72
8/20/2023 10:00:00 AM 17.22 62.996 0.101 7.19 2522.08 9.72
8/20/2023 10:15:00 AM 17.32 63.176 0.101 7.2 16.83 9.72
8/20/2023 10:30:00 AM 17.4 63.32 0.101 7.21 17.4 9.71
8/20/2023 10:45:00 AM 17.46 63.428 0.101 7.23 17.07 9.71
8/20/2023 11:00:00 AM 17.52 63.536 0.102 7.24 16.65 9.71
8/20/2023 11:15:00 AM 17.6 63.68 0.102 7.25 16.47 9.7
8/20/2023 11:30:00 AM 17.68 63.824 0.102 7.26 17.08 9.7
8/20/2023 11:45:00 AM 17.83 64.094 0.102 7.27 16.88 9.68
8/20/2023 12:00:00 PM 17.99 64.382 0.102 7.27 16.61 9.66
8/20/2023 12:15:00 PM 18.14 64.652 0.102 7.29 16.49 9.64
8/20/2023 12:30:00 PM 18.28 64.904 0.102 7.3 17.13 9.62
8/20/2023 12:45:00 PM 18.4 65.12 0.102 7.34 18.32 9.61
8/20/2023 1:00:00 PM 18.52 65.336 0.102 7.32 16.05 9.58
8/20/2023 1:15:00 PM 18.68 65.624 0.102 7.33 16.25 9.56
8/20/2023 1:30:00 PM 18.83 65.894 0.102 7.36 15.73 9.54
8/20/2023 1:45:00 PM 18.97 66.146 0.102 7.34 15.61 9.51
8/20/2023 2:00:00 PM 19.1 66.38 0.103 7.36 15.5 9.48
8/20/2023 2:15:00 PM 19.23 66.614 0.103 7.35 15.3 9.46
8/20/2023 2:30:00 PM 19.35 66.83 0.103 7.35 15.33 9.44
8/20/2023 2:45:00 PM 19.44 66.992 0.103 7.35 14.64 9.41
8/20/2023 3:00:00 PM 19.52 67.136 0.103 7.35 14.84 9.39
8/20/2023 3:15:00 PM 19.56 67.208 0.103 7.36 14.28 9.38
8/20/2023 3:30:00 PM 19.65 67.37 0.103 7.33 15.09 9.36
8/20/2023 3:45:00 PM 19.74 67.532 0.103 7.33 14.72 9.34
8/20/2023 4:00:00 PM 19.81 67.658 0.103 7.34 14.48 9.32
8/20/2023 4:15:00 PM 19.86 67.748 0.103 7.34 15.46 9.3
8/20/2023 4:30:00 PM 19.91 67.838 0.103 7.32 14.11 9.29
8/20/2023 4:45:00 PM 19.95 67.91 0.104 7.35 15.95 9.26
8/20/2023 5:00:00 PM 19.97 67.946 0.104 7.34 14.37 9.24
8/20/2023 5:15:00 PM 19.98 67.964 0.104 7.34 14.59 9.22
8/20/2023 5:30:00 PM 19.99 67.982 0.104 7.3 15.34 9.22
8/20/2023 5:45:00 PM 19.99 67.982 0.104 7.31 24.35 9.2
8/20/2023 6:00:00 PM 19.98 67.964 0.104 7.33 23.09 9.19
8/20/2023 6:15:00 PM 19.97 67.946 0.104 7.31 16.39 9.19
8/20/2023 6:30:00 PM 19.95 67.91 0.104 7.28 14.47 9.18
8/20/2023 6:45:00 PM 19.93 67.874 0.104 7.29 14.33 9.18
8/20/2023 7:00:00 PM 19.91 67.838 0.104 7.28 13.75 9.17
8/20/2023 7:15:00 PM 19.88 67.784 0.104 7.3 13.84 9.16
8/20/2023 7:30:00 PM 19.84 67.712 0.104 7.3 13.64 9.17
8/20/2023 7:45:00 PM 19.79 67.622 0.094 7.26 13.66 9.16
8/20/2023 8:00:00 PM 19.74 67.532 0.105 7.29 16.98 9.16
8/20/2023 8:15:00 PM 19.68 67.424 0.105 7.25 16.3 9.17
8/20/2023 8:30:00 PM 19.61 67.298 0.105 7.25 15.36 9.18
8/20/2023 8:45:00 PM 19.54 67.172 0.105 7.25 13.8 9.19
8/20/2023 9:00:00 PM 19.47 67.046 0.105 7.25 14.3 9.2
8/20/2023 9:15:00 PM 19.4 66.92 0.105 7.24 14.67 9.21
8/20/2023 9:30:00 PM 19.32 66.776 0.105 7.24 13.71 9.22
8/20/2023 9:45:00 PM 19.25 66.65 0.105 7.27 16.01 9.24
8/20/2023 10:00:00 PM 19.17 66.506 0.106 7.23 14.15 9.24
8/20/2023 10:15:00 PM 19.11 66.398 0.106 7.23 14.15 9.25
8/20/2023 10:30:00 PM 19.05 66.29 0.106 7.23 13.3 9.27
8/20/2023 10:45:00 PM 19 66.2 0.106 7.23 12.88 9.28
8/20/2023 11:00:00 PM 18.95 66.11 0.106 7.23 13.08 9.29
8/20/2023 11:15:00 PM 18.9 66.02 0.106 7.23 12.79 9.29
8/20/2023 11:30:00 PM 18.86 65.948 0.106 7.23 12.83 9.3
8/20/2023 11:45:00 PM 18.82 65.876 0.106 7.23 12.75 9.31
8/21/2023 12:00:00 AM 18.77 65.786 0.106 7.23 12.88 9.32
8/21/2023 12:15:00 AM 18.72 65.696 0.107 7.22 12.68 9.32
8/21/2023 12:30:00 AM 18.67 65.606 0.107 7.22 12.77 9.34
8/21/2023 12:45:00 AM 18.62 65.516 0.107 7.22 12.87 9.35
8/21/2023 1:00:00 AM 18.58 65.444 0.107 7.22 12.46 9.35
8/21/2023 1:15:00 AM 18.53 65.354 0.107 7.22 12.61 9.36
8/21/2023 1:30:00 AM 18.49 65.282 0.107 7.22 12.18 9.37
8/21/2023 1:45:00 AM 18.46 65.228 0.107 7.2 12.6 9.37
8/21/2023 2:00:00 AM 18.43 65.174 0.107 7.21 11.87 9.38
8/21/2023 2:15:00 AM 18.4 65.12 0.107 7.21 11.93 9.38
8/21/2023 2:30:00 AM 18.37 65.066 0.107 7.22 11.95 9.39
8/21/2023 2:45:00 AM 18.34 65.012 0.108 7.21 12.17 9.39
8/21/2023 3:00:00 AM 18.32 64.976 0.108 7.22 11.81 9.4
8/21/2023 3:15:00 AM 18.29 64.922 0.108 7.21 11.83 9.41
8/21/2023 3:30:00 AM 18.27 64.886 0.108 7.21 11.72 9.41
8/21/2023 3:45:00 AM 18.25 64.85 0.108 7.21 11.51 9.41
8/21/2023 4:00:00 AM 18.22 64.796 0.108 7.21 11.35 9.42
8/21/2023 4:15:00 AM 18.2 64.76 0.108 7.2 11.09 9.43
8/21/2023 4:30:00 AM 18.19 64.742 0.108 7.2 11.25 9.43
8/21/2023 4:45:00 AM 18.17 64.706 0.108 7.21 11.51 9.43
8/21/2023 5:00:00 AM 18.16 64.688 0.108 7.22 11.46 9.43
8/21/2023 5:15:00 AM 18.14 64.652 0.108 7.2 10.89 9.43
8/21/2023 5:30:00 AM 18.13 64.634 0.108 7.2 10.99 9.44
8/21/2023 5:45:00 AM 18.12 64.616 0.109 7.2 11.5 9.44
8/21/2023 6:00:00 AM 18.11 64.598 0.109 7.19 10.91 9.44
8/21/2023 6:15:00 AM 18.09 64.562 0.109 7.2 11.01 9.44
8/21/2023 6:30:00 AM 18.09 64.562 0.109 7.2 11.47 9.45
8/21/2023 6:45:00 AM 18.08 64.544 0.109 7.2 11.15 9.45
8/21/2023 7:00:00 AM 18.09 64.562 0.109 7.2 10.91 9.46
8/21/2023 7:15:00 AM 18.09 64.562 0.109 7.2 12.27 9.46
8/21/2023 7:30:00 AM 18.09 64.562 0.109 7.2 11.09 9.46
8/21/2023 7:45:00 AM 18.1 64.58 0.109 7.21 10.7 9.47
8/21/2023 8:00:00 AM 18.13 64.634 0.109 7.21 10.39 9.47
8/21/2023 8:15:00 AM 18.14 64.652 0.109 7.22 10.2 9.48
8/21/2023 8:30:00 AM 18.18 64.724 0.109 7.22 10.38 9.49
8/21/2023 8:45:00 AM 18.21 64.778 0.109 7.22 9.92 9.49
8/21/2023 9:00:00 AM 18.22 64.796 0.109 7.22 10.34 9.49
8/21/2023 9:15:00 AM 18.25 64.85 0.109 7.24 9.71 9.49
8/21/2023 9:30:00 AM 18.29 64.922 0.11 7.23 9.62 9.5
8/21/2023 9:45:00 AM 18.35 65.03 0.11 7.24 9.44 9.5
8/21/2023 10:00:00 AM 18.42 65.156 0.11 7.25 9.33 9.5
8/21/2023 10:15:00 AM 18.54 65.372 0.11 7.26 9.75 9.51
8/21/2023 10:30:00 AM 18.67 65.606 0.11 7.28 9.02 9.5
8/21/2023 10:45:00 AM 18.78 65.804 0.11 7.3 9.07 9.5
8/21/2023 11:00:00 AM 18.87 65.966 0.11 7.3 8.83 9.48
8/21/2023 11:15:00 AM 18.94 66.092 0.11 7.31 8.88 9.48
8/21/2023 11:30:00 AM 18.99 66.182 0.11 7.31 9.04 9.46
8/21/2023 11:45:00 AM 19.08 66.344 0.11 7.32 8.99 9.46
8/21/2023 12:00:00 PM 19.17 66.506 0.11 7.32 8.58 9.44
8/21/2023 12:15:00 PM 19.23 66.614 0.11 7.34 8.77 9.42
8/21/2023 12:30:00 PM 19.27 66.686 0.11 7.33 9.26 9.41
8/21/2023 12:45:00 PM 19.37 66.866 0.11 7.34 8.89 9.41
8/21/2023 1:00:00 PM 19.5 67.1 0.11 7.35 8.3 9.4
8/21/2023 1:15:00 PM 19.64 67.352 0.11 7.36 8.28 9.4
8/21/2023 1:30:00 PM 19.75 67.55 0.11 7.37 8.33 9.37
8/21/2023 1:45:00 PM 19.92 67.856 0.11 7.39 8.06 9.36
8/21/2023 2:00:00 PM 20.11 68.198 0.111 7.38 8.3 9.32
8/21/2023 2:15:00 PM 20.16 68.288 0.111 7.4 7.89 9.3
8/21/2023 2:30:00 PM 20.15 68.27 0.111 7.37 7.93 9.27
8/21/2023 2:45:00 PM 20.14 68.252 0.111 7.38 8.32 9.27
8/21/2023 3:00:00 PM 20.19 68.342 0.111 7.37 7.73 9.26
8/21/2023 3:15:00 PM 20.28 68.504 0.111 7.39 7.83 9.25
8/21/2023 3:30:00 PM 20.41 68.738 0.111 7.38 7.81 9.23
8/21/2023 3:45:00 PM 20.54 68.972 0.111 7.4 7.93 9.22
8/21/2023 4:00:00 PM 20.61 69.098 0.111 7.4 7.57 9.2
8/21/2023 4:15:00 PM 20.64 69.152 0.111 7.39 7.99 9.18
8/21/2023 4:30:00 PM 20.7 69.26 0.111 7.42 7.65 9.17
8/21/2023 4:45:00 PM 20.72 69.296 0.111 7.38 7.42 9.15
8/21/2023 5:00:00 PM 20.72 69.296 0.111 7.41 7.72 9.14
8/21/2023 5:15:00 PM 20.74 69.332 0.111 7.38 7.59 9.13
8/21/2023 5:30:00 PM 20.72 69.296 0.111 7.39 8.02 9.12
8/21/2023 5:45:00 PM 20.72 69.296 0.111 7.39 7.8 9.11
8/21/2023 6:00:00 PM 20.74 69.332 0.111 7.39 7.54 9.09
8/21/2023 6:15:00 PM 20.76 69.368 0.112 7.37 7.37 9.08
8/21/2023 6:30:00 PM 20.79 69.422 0.112 7.38 7.47 9.07
8/21/2023 6:45:00 PM 20.81 69.458 0.112 7.37 7.57 9.05
8/21/2023 7:00:00 PM 20.81 69.458 0.112 7.36 7.46 9.04
8/21/2023 7:15:00 PM 20.8 69.44 0.112 7.36 7.5 9.03
8/21/2023 7:30:00 PM 20.78 69.404 0.112 7.35 7.49 9.02
8/21/2023 7:45:00 PM 20.77 69.386 0.112 7.36 7.56 9
8/21/2023 8:00:00 PM 20.75 69.35 0.112 7.34 7.31 8.99
8/21/2023 8:15:00 PM 20.74 69.332 0.112 7.36 7.5 8.99
8/21/2023 8:30:00 PM 20.72 69.296 0.112 7.33 7.78 8.99
8/21/2023 8:45:00 PM 20.69 69.242 0.113 7.33 7.63 8.99
8/21/2023 9:00:00 PM 20.65 69.17 0.113 7.32 7.57 8.99
8/21/2023 9:15:00 PM 20.6 69.08 0.113 7.35 7.86 9
8/21/2023 9:30:00 PM 20.56 69.008 0.113 7.32 7.62 9.01
8/21/2023 9:45:00 PM 20.5 68.9 0.113 7.33 7.74 9.01
8/21/2023 10:00:00 PM 20.45 68.81 0.113 7.32 7.52 9.02
8/21/2023 10:15:00 PM 20.39 68.702 0.113 7.32 7.67 9.03
8/21/2023 10:30:00 PM 20.33 68.594 0.113 7.3 8.11 9.03
8/21/2023 10:45:00 PM 20.28 68.504 0.113 7.32 7.62 9.05
8/21/2023 11:00:00 PM 20.22 68.396 0.113 7.31 7.68 9.06
8/21/2023 11:15:00 PM 20.15 68.27 0.114 7.32 7.62 9.06
8/21/2023 11:30:00 PM 20.08 68.144 0.114 7.3 7.63 9.08
8/21/2023 11:45:00 PM 20.01 68.018 0.114 7.31 7.36 9.09
8/22/2023 12:00:00 AM 19.94 67.892 0.114 7.32 7.38 9.1
8/22/2023 12:15:00 AM 19.86 67.748 0.114 7.32 7.72 9.12
8/22/2023 12:30:00 AM 19.79 67.622 0.114 7.35 7.92 9.13
8/22/2023 12:45:00 AM 19.72 67.496 0.114 7.31 7.18 9.14
8/22/2023 1:00:00 AM 19.67 67.406 0.114 7.32 7.64 9.15
8/22/2023 1:15:00 AM 19.61 67.298 0.114 7.31 7.65 9.17
8/22/2023 1:30:00 AM 19.54 67.172 0.114 7.33 7.68 9.18
8/22/2023 1:45:00 AM 19.48 67.064 0.114 7.31 7.67 9.19
8/22/2023 2:00:00 AM 19.42 66.956 0.115 7.31 7.32 9.19
8/22/2023 2:15:00 AM 19.37 66.866 0.115 7.32 7.59 9.21
8/22/2023 2:30:00 AM 19.31 66.758 0.115 7.32 7.35 9.21
8/22/2023 2:45:00 AM 19.26 66.668 0.115 7.32 7.32 9.23
8/22/2023 3:00:00 AM 19.2 66.56 0.115 7.32 7.67 9.23
8/22/2023 3:15:00 AM 19.15 66.47 0.115 7.32 7.06 9.25
8/22/2023 3:30:00 AM 19.1 66.38 0.115 7.32 7.34 9.26
8/22/2023 3:45:00 AM 19.04 66.272 0.115 7.31 6.97 9.27
8/22/2023 4:00:00 AM 18.98 66.164 0.115 7.32 7.33 9.28
8/22/2023 4:15:00 AM 18.92 66.056 0.115 7.32 7.05 9.29
8/22/2023 4:30:00 AM 18.86 65.948 0.115 7.32 7.2 9.3
8/22/2023 4:45:00 AM 18.8 65.84 0.115 7.32 7.13 9.31
8/22/2023 5:00:00 AM 18.73 65.714 0.116 7.32 7.24 9.32
8/22/2023 5:15:00 AM 18.66 65.588 0.116 7.32 7.49 9.34
8/22/2023 5:30:00 AM 18.58 65.444 0.116 7.31 7.27 9.35
8/22/2023 5:45:00 AM 18.51 65.318 0.116 7.31 7.31 9.36
8/22/2023 6:00:00 AM 18.45 65.21 0.116 7.32 7.63 9.38
8/22/2023 6:15:00 AM 18.38 65.084 0.116 7.31 7.51 9.39
8/22/2023 6:30:00 AM 18.31 64.958 0.116 7.32 7.27 9.41
8/22/2023 6:45:00 AM 18.25 64.85 0.116 7.32 7.19 9.43
8/22/2023 7:00:00 AM 18.19 64.742 0.116 7.31 7.55 9.44
8/22/2023 7:15:00 AM 18.15 64.67 0.116 7.32 7.04 9.46
8/22/2023 7:30:00 AM 18.11 64.598 0.116 7.32 7.07 9.47
8/22/2023 7:45:00 AM 18.08 64.544 0.116 7.32 6.76 9.5
8/22/2023 8:00:00 AM 18.05 64.49 0.116 7.33 6.82 9.52
8/22/2023 8:15:00 AM 18.03 64.454 0.116 7.33 6.7 9.53
8/22/2023 8:30:00 AM 18.03 64.454 0.116 7.34 7.08 9.55
8/22/2023 8:45:00 AM 18.04 64.472 0.117 7.34 6.85 9.56
8/22/2023 9:00:00 AM 18.05 64.49 0.117 7.35 6.9 9.57
8/22/2023 9:15:00 AM 18.08 64.544 0.117 7.34 6.53 9.58
8/22/2023 9:30:00 AM 18.11 64.598 0.117 7.35 6.36 9.58
8/22/2023 9:45:00 AM 18.15 64.67 0.117 7.35 6.18 9.59
8/22/2023 10:00:00 AM 18.18 64.724 0.117 7.36 6.42 9.6
8/22/2023 10:15:00 AM 18.24 64.832 0.117 7.37 6.21 9.59
8/22/2023 10:30:00 AM 18.34 65.012 0.117 7.38 6.29 9.59
8/22/2023 10:45:00 AM 18.45 65.21 0.117 7.39 6.25 9.59
8/22/2023 11:00:00 AM 18.56 65.408 0.117 7.41 6.27 9.58
8/22/2023 11:15:00 AM 18.69 65.642 0.117 7.4 5.84 9.57
8/22/2023 11:30:00 AM 18.84 65.912 0.117 7.43 6.06 9.55
8/22/2023 11:45:00 AM 19.01 66.218 0.117 7.42 5.93 9.53
8/22/2023 12:00:00 PM 19.16 66.488 0.117 7.44 5.81 9.51
8/22/2023 12:15:00 PM 19.32 66.776 0.117 7.45 6 9.49
8/22/2023 12:30:00 PM 19.49 67.082 0.117 7.46 5.69 9.47
8/22/2023 12:45:00 PM 19.65 67.37 0.117 7.45 5.54 9.43
8/22/2023 1:00:00 PM 19.81 67.658 0.117 7.46 5.61 9.4
8/22/2023 1:15:00 PM 19.97 67.946 0.117 7.46 5.72 9.38
8/22/2023 1:30:00 PM 20.12 68.216 0.117 7.47 5.61 9.35
8/22/2023 1:45:00 PM 20.26 68.468 0.117 7.47 5.54 9.32
8/22/2023 2:00:00 PM 20.39 68.702 0.117 7.49 5.53 9.3
8/22/2023 2:15:00 PM 20.5 68.9 0.117 7.46 5.45 9.29
8/22/2023 2:30:00 PM 20.55 68.99 0.118 7.49 5.42 9.26
8/22/2023 2:45:00 PM 20.59 69.062 0.118 7.47 5.51 9.26
8/22/2023 3:00:00 PM 20.64 69.152 0.118 7.48 5.4 9.24
8/22/2023 3:15:00 PM 20.67 69.206 0.118 7.47 5.34 9.23
8/22/2023 3:30:00 PM 20.72 69.296 0.118 7.49 5.12 9.22
8/22/2023 3:45:00 PM 20.74 69.332 0.118 7.48 5.1 9.2
8/22/2023 4:00:00 PM 20.73 69.314 0.118 7.48 5.17 9.19
8/22/2023 4:15:00 PM 20.72 69.296 0.118 7.47 5.39 9.18
8/22/2023 4:30:00 PM 20.69 69.242 0.118 7.47 5.38 9.17
8/22/2023 4:45:00 PM 20.67 69.206 0.118 7.46 5.33 9.16
8/22/2023 5:00:00 PM 20.66 69.188 0.118 7.46 5.46 9.15
8/22/2023 5:15:00 PM 20.63 69.134 0.118 7.45 5.18 9.14
8/22/2023 5:30:00 PM 20.6 69.08 0.118 7.46 5.54 9.13
8/22/2023 5:45:00 PM 20.57 69.026 0.118 7.44 5.13 9.11
8/22/2023 6:00:00 PM 20.56 69.008 0.118 7.44 5.36 9.1
8/22/2023 6:15:00 PM 20.55 68.99 0.118 7.43 5.25 9.09
8/22/2023 6:30:00 PM 20.53 68.954 0.118 7.43 5.34 9.08
8/22/2023 6:45:00 PM 20.53 68.954 0.118 7.42 5.06 9.06
8/22/2023 7:00:00 PM 20.53 68.954 0.118 7.41 5.52 9.04
8/22/2023 7:15:00 PM 20.53 68.954 0.118 7.4 5.13 9.03
8/22/2023 7:30:00 PM 20.51 68.918 0.118 7.39 5.28 9.03
8/22/2023 7:45:00 PM 20.48 68.864 0.118 7.39 5.23 9.02
8/22/2023 8:00:00 PM 20.45 68.81 0.118 7.39 4.99 9.02
8/22/2023 8:15:00 PM 20.41 68.738 0.118 7.37 5.06 9.01
8/22/2023 8:30:00 PM 20.37 68.666 0.118 7.37 5.42 9
8/22/2023 8:45:00 PM 20.32 68.576 0.118 7.37 5.33 9.01
8/22/2023 9:00:00 PM 20.24 68.432 0.118 7.36 5.24 9.01
8/22/2023 9:15:00 PM 20.18 68.324 0.119 7.36 5.61 9.02
8/22/2023 9:30:00 PM 20.1 68.18 0.119 7.36 5.48 9.04
8/22/2023 9:45:00 PM 20.02 68.036 0.119 7.36 5.19 9.05
8/22/2023 10:00:00 PM 19.93 67.874 0.119 7.35 5.55 9.06
8/22/2023 10:15:00 PM 19.84 67.712 0.119 7.35 5.61 9.08
8/22/2023 10:30:00 PM 19.75 67.55 0.119 7.34 5.76 9.09
8/22/2023 10:45:00 PM 19.65 67.37 0.119 7.35 5.5 9.11
8/22/2023 11:00:00 PM 19.56 67.208 0.119 7.34 5.91 9.13
8/22/2023 11:15:00 PM 19.46 67.028 0.119 7.34 5.57 9.14
8/22/2023 11:30:00 PM 19.37 66.866 0.119 7.34 5.31 9.16
8/22/2023 11:45:00 PM 19.28 66.704 0.119 7.34 6 9.18
8/23/2023 12:00:00 AM 19.18 66.524 0.119 7.34 5.64 9.21
8/23/2023 12:15:00 AM 19.08 66.344 0.119 7.34 5.68 9.21
8/23/2023 12:30:00 AM 18.99 66.182 0.12 7.33 5.7 9.23
8/23/2023 12:45:00 AM 18.9 66.02 0.12 7.33 5.79 9.25
8/23/2023 1:00:00 AM 18.8 65.84 0.12 7.33 5.44 9.27
8/23/2023 1:15:00 AM 18.71 65.67799 0.12 7.32 5.27 9.28
8/23/2023 1:30:00 AM 18.62 65.516 0.12 7.32 5.23 9.31
8/23/2023 1:45:00 AM 18.54 65.372 0.12 7.32 5.36 9.32
8/23/2023 2:00:00 AM 18.45 65.21 0.12 7.32 5.23 9.34
8/23/2023 2:15:00 AM 18.36 65.048 0.12 7.33 5.6 9.35
8/23/2023 2:30:00 AM 18.29 64.922 0.12 7.31 5.41 9.37
8/23/2023 2:45:00 AM 18.21 64.778 0.12 7.32 5.34 9.39
8/23/2023 3:00:00 AM 18.12 64.616 0.121 7.31 5.38 9.39
8/23/2023 3:15:00 AM 18.05 64.49 0.121 7.31 5.21 9.41
8/23/2023 3:30:00 AM 17.98 64.364 0.121 7.3 5.55 9.43
8/23/2023 3:45:00 AM 17.91 64.238 0.121 7.31 5.6 9.45
8/23/2023 4:00:00 AM 17.84 64.112 0.121 7.29 5.5 9.47
8/23/2023 4:15:00 AM 17.77 63.986 0.121 7.3 5.56 9.48
8/23/2023 4:30:00 AM 17.7 63.86 0.121 7.28 5.1 9.49
8/23/2023 4:45:00 AM 17.63 63.734 0.121 7.28 5.3 9.5
8/23/2023 5:00:00 AM 17.57 63.626 0.121 7.27 5.24 9.51
8/23/2023 5:15:00 AM 17.52 63.536 0.121 7.27 5.15 9.54
8/23/2023 5:30:00 AM 17.47 63.446 0.122 7.27 5.16 9.55
8/23/2023 5:45:00 AM 17.41 63.338 0.122 7.26 5.15 9.55
8/23/2023 6:00:00 AM 17.37 63.266 0.122 7.26 5.09 9.57
8/23/2023 6:15:00 AM 17.32 63.176 0.122 7.26 5.01 9.58
8/23/2023 6:30:00 AM 17.27 63.086 0.122 7.25 5.18 9.59
8/23/2023 6:45:00 AM 17.23 63.014 0.122 7.26 4.91 9.61
8/23/2023 7:00:00 AM 17.2 62.96 0.122 7.25 5.01 9.63
8/23/2023 7:15:00 AM 17.17 62.906 0.122 7.26 5.08 9.64
8/23/2023 7:30:00 AM 17.13 62.834 0.122 7.26 4.9 9.65
8/23/2023 7:45:00 AM 17.1 62.78 0.122 7.26 5.03 9.67
8/23/2023 8:00:00 AM 17.09 62.762 0.122 7.26 4.89 9.68
8/23/2023 8:15:00 AM 17.08 62.744 0.122 7.27 4.69 9.69
8/23/2023 8:30:00 AM 17.09 62.762 0.122 7.28 4.56 9.72
8/23/2023 8:45:00 AM 17.11 62.798 0.123 7.29 4.82 9.74
8/23/2023 9:00:00 AM 17.12 62.816 0.123 7.31 4.43 9.75
8/23/2023 9:15:00 AM 17.15 62.87 0.123 7.32 4.7 9.76
8/23/2023 9:30:00 AM 17.19 62.942 0.123 7.32 4.59 9.77
8/23/2023 9:45:00 AM 17.24 63.032 0.123 7.33 4.41 9.78
8/23/2023 10:00:00 AM 17.33 63.194 0.123 7.36 4.42 9.78
8/23/2023 10:15:00 AM 17.49 63.482 0.123 7.38 4.58 9.8
8/23/2023 10:30:00 AM 17.65 63.77 0.123 7.39 4.4 9.77
8/23/2023 10:45:00 AM 17.78 64.004 0.123 7.41 4.6 9.76
8/23/2023 11:00:00 AM 17.89 64.202 0.123 7.43 4.45 9.76
8/23/2023 11:15:00 AM 18.07 64.526 0.123 7.44 4.48 9.73
8/23/2023 11:30:00 AM 18.24 64.832 0.123 7.45 4.44 9.71
8/23/2023 11:45:00 AM 18.43 65.174 0.123 7.47 4.67 9.68
8/23/2023 12:00:00 PM 18.6 65.48 0.123 7.48 5.17 9.65
8/23/2023 12:15:00 PM 18.77 65.786 0.123 7.5 4.76 9.62
8/23/2023 12:30:00 PM 18.9 66.02 0.123 7.51 5.18 9.59
8/23/2023 12:45:00 PM 19.05 66.29 0.123 7.52 5.13 9.57
8/23/2023 1:00:00 PM 19.22 66.596 0.123 7.54 5.53 9.55
8/23/2023 1:15:00 PM 19.4 66.92 0.123 7.53 5.33 9.52
8/23/2023 1:30:00 PM 19.48 67.064 0.123 7.55 5.09 9.5
8/23/2023 1:45:00 PM 19.55 67.19 0.123 7.55 4.89 9.49
8/23/2023 2:00:00 PM 19.64 67.352 0.123 7.55 4.62 9.47
8/23/2023 2:15:00 PM 19.7 67.46 0.123 7.56 4.34 9.45
8/23/2023 2:30:00 PM 19.72 67.496 0.123 7.55 4.29 9.43
8/23/2023 2:45:00 PM 19.68 67.424 0.123 7.55 4.01 9.41
8/23/2023 3:00:00 PM 19.64 67.352 0.123 7.54 4.31 9.4
8/23/2023 3:15:00 PM 19.6 67.28 0.123 7.54 4.07 9.39
8/23/2023 3:30:00 PM 19.57 67.226 0.123 7.52 4.17 9.37
8/23/2023 3:45:00 PM 19.56 67.208 0.123 7.52 3.99 9.38
8/23/2023 4:00:00 PM 19.57 67.226 0.123 7.52 4.12 9.38
8/23/2023 4:15:00 PM 19.57 67.226 0.123 7.53 4.05 9.38
8/23/2023 4:30:00 PM 19.65 67.37 0.123 7.52 4.08 9.38
8/23/2023 4:45:00 PM 19.72 67.496 0.123 7.53 3.97 9.36
8/23/2023 5:00:00 PM 19.71 67.478 0.123 7.53 4.15 9.35
8/23/2023 5:15:00 PM 19.69 67.442 0.123 7.53 4.97 9.34
8/23/2023 5:30:00 PM 19.69 67.442 0.123 7.52 3.91 9.32
8/23/2023 5:45:00 PM 19.72 67.496 0.123 7.51 4.73 9.3
8/23/2023 6:00:00 PM 19.72 67.496 0.123 7.51 3.82 9.28
8/23/2023 6:15:00 PM 19.73 67.514 0.123 7.5 4.13 9.26
8/23/2023 6:30:00 PM 19.74 67.532 0.123 7.49 3.85 9.24
8/23/2023 6:45:00 PM 19.74 67.532 0.123 7.47 4.81 9.21
8/23/2023 7:00:00 PM 19.73 67.514 0.123 7.47 4.06 9.2
8/23/2023 7:15:00 PM 19.71 67.478 0.123 7.46 3.97 9.18
8/23/2023 7:30:00 PM 19.69 67.442 0.123 7.45 4.07 9.17
8/23/2023 7:45:00 PM 19.68 67.424 0.123 7.44 4.31 9.16
8/23/2023 8:00:00 PM 19.65 67.37 0.123 7.44 4.41 9.14
8/23/2023 8:15:00 PM 19.64 67.352 0.123 7.43 4 9.13
8/23/2023 8:30:00 PM 19.63 67.334 0.123 7.43 4.24 9.12
8/23/2023 8:45:00 PM 19.61 67.298 0.124 7.42 3.95 9.13
8/23/2023 9:00:00 PM 19.59 67.262 0.124 7.42 4.06 9.12
8/23/2023 9:15:00 PM 19.57 67.226 0.124 7.41 4.14 9.12
8/23/2023 9:30:00 PM 19.55 67.19 0.124 7.41 4.15 9.12
8/23/2023 9:45:00 PM 19.52 67.136 0.124 7.4 4.23 9.12
8/23/2023 10:00:00 PM 19.49 67.082 0.124 7.4 4.14 9.12
8/23/2023 10:15:00 PM 19.46 67.028 0.124 7.4 4.21 9.13
8/23/2023 10:30:00 PM 19.43 66.974 0.124 7.4 4.15 9.13
8/23/2023 10:45:00 PM 19.4 66.92 0.124 7.39 7.13 9.14
8/23/2023 11:00:00 PM 19.37 66.866 0.124 7.39 4.34 9.14
8/23/2023 11:15:00 PM 19.34 66.812 0.124 7.39 4.19 9.15
8/23/2023 11:30:00 PM 19.31 66.758 0.124 7.39 4.25 9.15
8/23/2023 11:45:00 PM 19.28 66.704 0.124 7.39 4.21 9.16
8/24/2023 12:00:00 AM 19.25 66.65 0.124 7.39 4.29 9.17
8/24/2023 12:15:00 AM 19.23 66.614 0.124 7.4 4.14 9.18
8/24/2023 12:30:00 AM 19.2 66.56 0.124 7.38 4.12 9.17
8/24/2023 12:45:00 AM 19.18 66.524 0.124 7.39 4.27 9.18
8/24/2023 1:00:00 AM 19.16 66.488 0.125 7.39 4.18 9.19
8/24/2023 1:15:00 AM 19.14 66.452 0.125 7.39 4.23 9.18
8/24/2023 1:30:00 AM 19.11 66.398 0.125 7.39 4.21 9.19
8/24/2023 1:45:00 AM 19.09 66.362 0.125 7.39 4.29 9.2
8/24/2023 2:00:00 AM 19.06 66.308 0.125 7.4 4.48 9.2
8/24/2023 2:15:00 AM 19.04 66.272 0.125 7.4 4.22 9.2
8/24/2023 2:30:00 AM 19 66.2 0.125 7.4 4.32 9.21
8/24/2023 2:45:00 AM 18.97 66.146 0.125 7.41 4.47 9.22
8/24/2023 3:00:00 AM 18.93 66.074 0.125 7.41 4.31 9.23
8/24/2023 3:15:00 AM 18.9 66.02 0.125 7.41 4.17 9.23
8/24/2023 3:30:00 AM 18.87 65.966 0.125 7.41 4.18 9.24
8/24/2023 3:45:00 AM 18.84 65.912 0.125 7.42 4.31 9.24
8/24/2023 4:00:00 AM 18.8 65.84 0.125 7.41 4.27 9.25
8/24/2023 4:15:00 AM 18.76 65.768 0.125 7.41 4.21 9.26
8/24/2023 4:30:00 AM 18.73 65.714 0.125 7.41 4.25 9.27
8/24/2023 4:45:00 AM 18.68 65.624 0.125 7.41 4.25 9.27
8/24/2023 5:00:00 AM 18.64 65.552 0.126 7.41 4.22 9.28
8/24/2023 5:15:00 AM 18.61 65.498 0.126 7.42 4.25 9.29
8/24/2023 5:30:00 AM 18.57 65.426 0.126 7.42 4.24 9.3
8/24/2023 5:45:00 AM 18.53 65.354 0.126 7.41 4.27 9.3
8/24/2023 6:00:00 AM 18.49 65.282 0.126 7.42 4.08 9.31
8/24/2023 6:15:00 AM 18.45 65.21 0.126 7.41 4.06 9.32
8/24/2023 6:30:00 AM 18.41 65.138 0.126 7.41 4.07 9.32
8/24/2023 6:45:00 AM 18.37 65.066 0.126 7.41 4 9.34
8/24/2023 7:00:00 AM 18.33 64.994 0.127 7.41 4.06 9.34
8/24/2023 7:15:00 AM 18.31 64.958 0.127 7.42 4.22 9.36
8/24/2023 7:30:00 AM 18.28 64.904 0.127 7.42 4.3 9.37
8/24/2023 7:45:00 AM 18.25 64.85 0.127 7.41 4.16 9.38
8/24/2023 8:00:00 AM 18.23 64.814 0.127 7.42 4.17 9.4
8/24/2023 8:15:00 AM 18.21 64.778 0.127 7.42 4.15 9.41
8/24/2023 8:30:00 AM 18.18 64.724 0.127 7.43 3.98 9.42
8/24/2023 8:45:00 AM 18.16 64.688 0.127 7.43 3.93 9.44
8/24/2023 9:00:00 AM 18.14 64.652 0.127 7.43 3.94 9.45
8/24/2023 9:15:00 AM 18.13 64.634 0.127 7.44 3.93 9.46
8/24/2023 9:30:00 AM 18.12 64.616 0.127 7.43 4.34 9.47
8/24/2023 9:45:00 AM 18.1 64.58 0.127 7.44 3.75 9.47
8/24/2023 10:00:00 AM 18.09 64.562 0.128 7.44 3.77 9.49
8/24/2023 10:15:00 AM 18.08 64.544 0.128 7.45 3.71 9.49
8/24/2023 10:30:00 AM 18.07 64.526 0.128 7.45 3.77 9.5
8/24/2023 10:45:00 AM 18.06 64.508 0.128 7.45 4.02 9.51
8/24/2023 11:00:00 AM 18.05 64.49 0.128 7.46 3.64 9.51
8/24/2023 11:15:00 AM 18.04 64.472 0.128 7.46 3.48 9.51
8/24/2023 11:30:00 AM 18.04 64.472 0.128 7.46 3.54 9.51
8/24/2023 11:45:00 AM 18.04 64.472 0.128 7.46 3.68 9.52
8/24/2023 12:00:00 PM 18.05 64.49 0.128 7.47 3.66 9.53
8/24/2023 12:15:00 PM 18.04 64.472 0.128 7.47 3.53 9.53
8/24/2023 12:30:00 PM 18.05 64.49 0.128 7.48 3.56 9.54
8/24/2023 12:45:00 PM 18.05 64.49 0.128 7.48 3.53 9.54
8/24/2023 1:00:00 PM 18.05 64.49 0.128 7.48 3.49 9.55
8/24/2023 1:15:00 PM 18.05 64.49 0.128 7.49 3.51 9.55
8/24/2023 1:30:00 PM 18.07 64.526 0.128 7.49 3.7 9.56
8/24/2023 1:45:00 PM 18.08 64.544 0.128 7.49 3.47 9.57
8/24/2023 2:00:00 PM 18.08 64.544 0.128 7.5 7.32 9.57
8/24/2023 2:15:00 PM 18.1 64.58 0.128 7.51 3.38 9.58
8/24/2023 2:30:00 PM 18.11 64.598 0.128 7.51 3.52 9.59
8/24/2023 2:45:00 PM 18.12 64.616 0.128 7.52 3.32 9.59
8/24/2023 3:00:00 PM 18.11 64.598 0.128 7.52 3.41 9.57
8/24/2023 3:15:00 PM 18.1 64.58 0.128 7.52 3.33 9.57
8/24/2023 3:30:00 PM 18.09 64.562 0.128 7.51 3.68 9.56
8/24/2023 3:45:00 PM 18.08 64.544 0.128 7.52 3.67 9.56
8/24/2023 4:00:00 PM 18.06 64.508 0.128 7.51 5.09 9.55
8/24/2023 4:15:00 PM 18.06 64.508 0.128 7.5 3.48 9.53
8/24/2023 4:30:00 PM 18.05 64.49 0.128 7.5 3.35 9.54
8/24/2023 4:45:00 PM 18.05 64.49 0.128 7.49 3.55 9.52
8/24/2023 5:00:00 PM 18.05 64.49 0.128 7.49 3.53 9.54
8/24/2023 5:15:00 PM 18.06 64.508 0.128 7.5 3.6 9.54
8/24/2023 5:30:00 PM 18.05 64.49 0.128 7.5 3.46 9.53
8/24/2023 5:45:00 PM 18.05 64.49 0.128 7.5 3.35 9.52
8/24/2023 6:00:00 PM 18.04 64.472 0.128 7.49 1526.14 9.51
8/24/2023 6:15:00 PM 18.04 64.472 0.128 7.48 3.56 9.5
8/24/2023 6:30:00 PM 18.03 64.454 0.128 7.48 3.6 9.49
8/24/2023 6:45:00 PM 18.02 64.436 0.128 7.49 5.63 9.48
8/24/2023 7:00:00 PM 18.01 64.418 0.128 7.48 3.48 9.47
8/24/2023 7:15:00 PM 18 64.4 0.128 7.47 3.52 9.47
8/24/2023 7:30:00 PM 17.99 64.382 0.128 7.46 3.7 9.46
8/24/2023 7:45:00 PM 17.98 64.364 0.128 7.46 3.73 9.46
8/24/2023 8:00:00 PM 17.97 64.346 0.128 7.45 3.82 9.45
8/24/2023 8:15:00 PM 17.96 64.328 0.128 7.46 3.87 9.45
8/24/2023 8:30:00 PM 17.95 64.31 0.128 7.45 3.95 9.44
8/24/2023 8:45:00 PM 17.94 64.292 0.128 7.44 3.81 9.43
8/24/2023 9:00:00 PM 17.93 64.274 0.128 7.45 3.88 9.43
8/24/2023 9:15:00 PM 17.93 64.274 0.128 7.45 6.9 9.44
8/24/2023 9:30:00 PM 17.92 64.256 0.129 7.45 7.1 9.44
8/24/2023 9:45:00 PM 17.92 64.256 0.129 7.45 5.7 9.43
8/24/2023 10:00:00 PM 17.91 64.238 0.129 7.44 4.56 9.43
8/24/2023 10:15:00 PM 17.91 64.238 0.129 7.44 4.21 9.44
8/24/2023 10:30:00 PM 17.9 64.22 0.129 7.44 4.18 9.43
8/24/2023 10:45:00 PM 17.9 64.22 0.129 7.44 4.52 9.43
8/24/2023 11:00:00 PM 17.9 64.22 0.129 7.44 4.15 9.43
8/24/2023 11:15:00 PM 17.89 64.202 0.129 7.45 4.14 9.43
8/24/2023 11:30:00 PM 17.89 64.202 0.129 7.44 4.04 9.42
8/24/2023 11:45:00 PM 17.89 64.202 0.129 7.44 3.97 9.43
8/25/2023 12:00:00 AM 17.89 64.202 0.129 7.45 4.02 9.43
8/25/2023 12:15:00 AM 17.88 64.184 0.13 7.44 4.1 9.43
8/25/2023 12:30:00 AM 17.88 64.184 0.13 7.43 4.74 9.43
8/25/2023 12:45:00 AM 17.87 64.166 0.13 7.44 4 9.43
8/25/2023 1:00:00 AM 17.87 64.166 0.13 7.44 3.99 9.43
8/25/2023 1:15:00 AM 17.87 64.166 0.13 7.43 4.05 9.42
8/25/2023 1:30:00 AM 17.86 64.148 0.13 7.43 4.1 9.43
8/25/2023 1:45:00 AM 17.86 64.148 0.13 7.43 4.13 9.43
8/25/2023 2:00:00 AM 17.87 64.166 0.126 7.41 4.84 9.44
8/25/2023 2:15:00 AM 17.87 64.166 0.127 7.4 4.8 9.42
8/25/2023 2:30:00 AM 17.87 64.166 0.127 7.4 4.47 9.42
8/25/2023 2:45:00 AM 17.87 64.166 0.127 7.4 4.85 9.42
8/25/2023 3:00:00 AM 17.87 64.166 0.125 7.4 6.34 9.44
8/25/2023 3:15:00 AM 17.87 64.166 0.122 7.35 8.42 9.41
8/25/2023 3:30:00 AM 17.87 64.166 0.122 7.33 10.42 9.41
8/25/2023 3:45:00 AM 17.86 64.148 0.12 7.34 15.9 9.44
8/25/2023 4:00:00 AM 17.84 64.112 0.118 7.33 35.64 9.46
8/25/2023 4:15:00 AM 17.78 64.004 0.115 7.27 70.65 9.46
8/25/2023 4:30:00 AM 17.7 63.86 0.111 7.22 95.02 9.46
8/25/2023 4:45:00 AM 17.57 63.626 0.104 7.15 274.16 9.47
8/25/2023 5:00:00 AM 17.58 63.644 0.094 7.07 390.73 9.49
8/25/2023 5:15:00 AM 17.66 63.788 0.089 7.07 389.66 9.51
8/25/2023 5:30:00 AM 17.76 63.968 0.091 7.07 309.82 9.49
8/25/2023 5:45:00 AM 17.8 64.04 0.094 7.09 259.83 9.48
8/25/2023 6:00:00 AM 17.83 64.094 0.093 7.1 232.85 9.47
8/25/2023 6:15:00 AM 17.86 64.148 0.09 7.09 240.29 9.45
8/25/2023 6:30:00 AM 17.88 64.184 0.088 7.07 223.41 9.44
8/25/2023 6:45:00 AM 17.9 64.22 0.087 7.07 198.94 9.44
8/25/2023 7:00:00 AM 17.9 64.22 0.089 7.07 174.86 9.44
8/25/2023 7:15:00 AM 17.9 64.22 0.091 7.11 146.7 9.43
8/25/2023 7:30:00 AM 17.89 64.202 0.091 7.08 123.32 9.42
8/25/2023 7:45:00 AM 17.88 64.184 0.092 7.09 110.46 9.42
8/25/2023 8:00:00 AM 17.86 64.148 0.092 7.1 96.75 9.42
8/25/2023 8:15:00 AM 17.84 64.112 0.092 7.09 83.59 9.42
8/25/2023 8:30:00 AM 17.83 64.094 0.093 7.09 76.21 9.42
8/25/2023 8:45:00 AM 17.83 64.094 0.094 7.09 72.38 9.42
8/25/2023 9:00:00 AM 17.84 64.112 0.095 7.1 69.35 9.42
8/25/2023 9:15:00 AM 17.85 64.13 0.097 7.11 67.06 9.41
8/25/2023 9:30:00 AM 17.89 64.202 0.099 7.11 67.3 9.41
8/25/2023 9:45:00 AM 17.93 64.274 0.1 7.12 67.3 9.41
8/25/2023 10:00:00 AM 17.98 64.364 0.102 7.14 62.7 9.41
8/25/2023 10:15:00 AM 18.03 64.454 0.102 7.14 62.42 9.41
8/25/2023 10:30:00 AM 18.11 64.598 0.102 7.14 60.87 9.4
8/25/2023 10:45:00 AM 18.14 64.652 0.101 7.14 63.38 9.4
8/25/2023 11:00:00 AM 18.22 64.796 0.1 7.14 64.7 9.4
8/25/2023 11:15:00 AM 18.31 64.958 0.099 7.15 64.32 9.39
8/25/2023 11:30:00 AM 18.32 64.976 0.099 7.15 61.37 9.38
8/25/2023 11:45:00 AM 18.39 65.102 0.1 7.16 60.2 9.38
8/25/2023 12:00:00 PM 18.43 65.174 0.101 7.16 54.21 9.37
8/25/2023 12:15:00 PM 18.41 65.138 0.102 7.16 53.23 9.37
8/25/2023 12:30:00 PM 18.4 65.12 0.103 7.18 47.91 9.36
8/25/2023 12:45:00 PM 18.44 65.192 0.105 7.18 45.68 9.36
8/25/2023 1:00:00 PM 18.52 65.336 0.106 7.19 44.75 9.36
8/25/2023 1:15:00 PM 18.57 65.426 0.107 7.19 44.33 9.34
8/25/2023 1:30:00 PM 18.62 65.516 0.108 7.2 44.59 9.33
8/25/2023 1:45:00 PM 18.67 65.606 0.108 7.2 46.84 9.32
8/25/2023 2:00:00 PM 18.71 65.67799 0.108 7.2 49.19 9.31
8/25/2023 2:15:00 PM 18.76 65.768 0.108 7.19 50.69 9.3
8/25/2023 2:30:00 PM 18.78 65.804 0.107 7.19 50.99 9.29
8/25/2023 2:45:00 PM 18.81 65.858 0.106 7.21 51.62 9.28
8/25/2023 3:00:00 PM 18.85 65.93 0.105 7.2 50.96 9.28
8/25/2023 3:15:00 PM 18.87 65.966 0.104 7.2 51.77 9.27
8/25/2023 3:30:00 PM 18.88 65.984 0.104 7.19 52.5 9.27
8/25/2023 3:45:00 PM 18.88 65.984 0.103 7.18 50.72 9.26
8/25/2023 4:00:00 PM 18.88 65.984 0.103 7.19 53.35 9.26
8/25/2023 4:15:00 PM 18.9 66.02 0.104 7.19 56.24 9.25
8/25/2023 4:30:00 PM 18.93 66.074 0.104 7.19 69.07 9.26
8/25/2023 4:45:00 PM 18.91 66.038 0.104 7.19 84.21 9.25
8/25/2023 5:00:00 PM 18.93 66.074 0.103 7.19 98.73 9.25
8/25/2023 5:15:00 PM 18.91 66.038 0.102 7.17 107.29 9.25
8/25/2023 5:30:00 PM 18.89 66.002 0.1 7.17 112.95 9.25
8/25/2023 5:45:00 PM 18.88 65.984 0.099 7.16 107.98 9.25
8/25/2023 6:00:00 PM 18.9 66.02 0.099 7.16 98.09 9.25
8/25/2023 6:15:00 PM 18.91 66.038 0.098 7.15 91.67 9.24
8/25/2023 6:30:00 PM 18.89 66.002 0.098 7.15 81.85 9.25
8/25/2023 6:45:00 PM 18.88 65.984 0.099 7.19 72.78 9.25
8/25/2023 7:00:00 PM 18.87 65.966 0.1 7.15 66.46 9.25
8/25/2023 7:15:00 PM 18.85 65.93 0.1 7.16 60.68 9.25
8/25/2023 7:30:00 PM 18.82 65.876 0.101 7.16 57.67 9.25
8/25/2023 7:45:00 PM 18.79 65.82201 0.101 7.15 55.78 9.25
8/25/2023 8:00:00 PM 18.75 65.75 0.101 7.15 55.28 9.25
8/25/2023 8:15:00 PM 18.72 65.696 0.101 7.14 52.83 9.26
8/25/2023 8:30:00 PM 18.68 65.624 0.1 7.16 53.45 9.26
8/25/2023 8:45:00 PM 18.65 65.57 0.099 7.12 55.17 9.26
8/25/2023 9:00:00 PM 18.62 65.516 0.098 7.11 53.13 9.27
8/25/2023 9:15:00 PM 18.59 65.462 0.098 7.11 53.91 9.27
8/25/2023 9:30:00 PM 18.57 65.426 0.097 7.1 53.16 9.27
8/25/2023 9:45:00 PM 18.56 65.408 0.097 7.07 53.92 9.27
8/25/2023 10:00:00 PM 18.55 65.39 0.096 7.08 55.28 9.27
8/25/2023 10:15:00 PM 18.54 65.372 0.096 7.06 52.51 9.26
8/25/2023 10:30:00 PM 18.54 65.372 0.095 7.06 52.99 9.26
8/25/2023 10:45:00 PM 18.54 65.372 0.095 7.04 52.2 9.25
8/25/2023 11:00:00 PM 18.53 65.354 0.094 7.04 52.2 9.25
8/25/2023 11:15:00 PM 18.52 65.336 0.094 7.02 50.36 9.25
8/25/2023 11:30:00 PM 18.52 65.336 0.093 7.02 50.71 9.25
8/25/2023 11:45:00 PM 18.51 65.318 0.093 7.01 51.06 9.25
8/26/2023 12:00:00 AM 18.5 65.3 0.092 7 50.21 9.25
8/26/2023 12:15:00 AM 18.5 65.3 0.092 7.01 50.03 9.25
8/26/2023 12:30:00 AM 18.49 65.282 0.091 7.03 49.77 9.25
8/26/2023 12:45:00 AM 18.49 65.282 0.091 7.01 50.16 9.25
8/26/2023 1:00:00 AM 18.48 65.264 0.091 6.98 45.66 9.25
8/26/2023 1:15:00 AM 18.48 65.264 0.091 6.97 49.02 9.24
8/26/2023 1:30:00 AM 18.48 65.264 0.091 6.98 48.14 9.24
8/26/2023 1:45:00 AM 18.48 65.264 0.091 6.98 48.1 9.24
8/26/2023 2:00:00 AM 18.48 65.264 0.091 6.97 44.42 9.24
8/26/2023 2:15:00 AM 18.48 65.264 0.091 6.99 45.89 9.23
8/26/2023 2:30:00 AM 18.48 65.264 0.091 6.97 45.53 9.24
8/26/2023 2:45:00 AM 18.48 65.264 0.091 6.97 45.49 9.23
8/26/2023 3:00:00 AM 18.49 65.282 0.091 7 44.59 9.24
8/26/2023 3:15:00 AM 18.49 65.282 0.091 6.97 43.09 9.23
8/26/2023 3:30:00 AM 18.49 65.282 0.091 6.98 41.2 9.23
8/26/2023 3:45:00 AM 18.5 65.3 0.091 6.98 41.28 9.23
8/26/2023 4:00:00 AM 18.5 65.3 0.092 6.98 41.24 9.22
8/26/2023 4:15:00 AM 18.51 65.318 0.092 6.99 40.93 9.22
8/26/2023 4:30:00 AM 18.51 65.318 0.092 6.98 40.03 9.22
8/26/2023 4:45:00 AM 18.51 65.318 0.092 7.02 39.05 9.23
8/26/2023 5:00:00 AM 18.51 65.318 0.093 6.99 38.58 9.22
8/26/2023 5:15:00 AM 18.51 65.318 0.093 7 37.21 9.22
8/26/2023 5:30:00 AM 18.51 65.318 0.093 6.99 36.44 9.23
8/26/2023 5:45:00 AM 18.51 65.318 0.093 6.99 35.73 9.23
8/26/2023 6:00:00 AM 18.51 65.318 0.094 7 35.31 9.22
8/26/2023 6:15:00 AM 18.51 65.318 0.094 7 33.35 9.23
8/26/2023 6:30:00 AM 18.51 65.318 0.094 7.01 33.82 9.23
8/26/2023 6:45:00 AM 18.51 65.318 0.094 7.02 32.69 9.23
8/26/2023 7:00:00 AM 18.52 65.336 0.095 7.02 31.1 9.23
8/26/2023 7:15:00 AM 18.53 65.354 0.095 7.03 30.99 9.24
8/26/2023 7:30:00 AM 18.54 65.372 0.095 7.03 30.28 9.25
8/26/2023 7:45:00 AM 18.55 65.39 0.096 7.05 29.98 9.26
8/26/2023 8:00:00 AM 18.57 65.426 0.096 7.06 29.51 9.26
8/26/2023 8:15:00 AM 18.6 65.48 0.096 7.08 27.34 9.28
8/26/2023 8:30:00 AM 18.62 65.516 0.096 7.1 29.84 9.28
8/26/2023 8:45:00 AM 18.62 65.516 0.097 7.11 26.75 9.29
8/26/2023 9:00:00 AM 18.64 65.552 0.097 7.12 25.84 9.29
8/26/2023 9:15:00 AM 18.67 65.606 0.097 7.13 25.09 9.3
8/26/2023 9:30:00 AM 18.71 65.67799 0.097 7.15 24.68 9.3
8/26/2023 9:45:00 AM 18.73 65.714 0.098 7.16 23.63 9.31
8/26/2023 10:00:00 AM 18.75 65.75 0.098 7.16 22.42 9.31
8/26/2023 10:15:00 AM 18.82 65.876 0.098 7.17 22.6 9.32
8/26/2023 10:30:00 AM 18.86 65.948 0.098 7.18 22.33 9.32
8/26/2023 10:45:00 AM 18.89 66.002 0.099 7.2 21.79 9.32
8/26/2023 11:00:00 AM 18.94 66.092 0.099 7.2 22.06 9.32
8/26/2023 11:15:00 AM 18.98 66.164 0.099 7.21 21.06 9.32
8/26/2023 11:30:00 AM 19.04 66.272 0.099 7.22 21.23 9.33
8/26/2023 11:45:00 AM 19.13 66.434 0.1 7.24 19.93 9.34
8/26/2023 12:00:00 PM 19.18 66.524 0.1 7.25 19.36 9.34
8/26/2023 12:15:00 PM 19.23 66.614 0.1 7.26 19.34 9.35
8/26/2023 12:30:00 PM 19.32 66.776 0.1 7.26 18.55 9.34
8/26/2023 12:45:00 PM 19.38 66.884 0.101 7.27 18.09 9.34
8/26/2023 1:00:00 PM 19.51 67.118 0.101 7.28 18.02 9.33
8/26/2023 1:15:00 PM 19.63 67.334 0.101 7.29 17.38 9.32
8/26/2023 1:30:00 PM 19.73 67.514 0.101 7.3 16.87 9.31
8/26/2023 1:45:00 PM 19.83 67.694 0.101 7.3 16.58 9.31
8/26/2023 2:00:00 PM 19.88 67.784 0.102 7.31 16.51 9.29
8/26/2023 2:15:00 PM 19.94 67.892 0.102 7.32 15.88 9.29
8/26/2023 2:30:00 PM 19.97 67.946 0.102 7.33 15.18 9.27
8/26/2023 2:45:00 PM 19.96 67.92799 0.102 7.33 15.47 9.26
8/26/2023 3:00:00 PM 20.07 68.126 0.102 7.33 15 9.26
8/26/2023 3:15:00 PM 20.14 68.252 0.103 7.34 14.94 9.24
8/26/2023 3:30:00 PM 20.24 68.432 0.103 7.35 14.5 9.22
8/26/2023 3:45:00 PM 20.31 68.558 0.103 7.35 14.46 9.2
8/26/2023 4:00:00 PM 20.31 68.558 0.103 7.35 13.92 9.18
8/26/2023 4:15:00 PM 20.39 68.702 0.103 7.35 13.58 9.16
8/26/2023 4:30:00 PM 20.47 68.846 0.104 7.35 13.37 9.16
8/26/2023 4:45:00 PM 20.47 68.846 0.104 7.35 13.52 9.15
8/26/2023 5:00:00 PM 20.38 68.684 0.104 7.35 13.77 9.13
8/26/2023 5:15:00 PM 20.29 68.522 0.104 7.34 13.07 9.12
8/26/2023 5:30:00 PM 20.23 68.414 0.104 7.34 13.11 9.11
8/26/2023 5:45:00 PM 20.17 68.306 0.104 7.36 13.21 9.12
8/26/2023 6:00:00 PM 20.16 68.288 0.105 7.33 12.69 9.11
8/26/2023 6:15:00 PM 20.17 68.306 0.105 7.33 12.95 9.1
8/26/2023 6:30:00 PM 20.19 68.342 0.105 7.33 12.98 9.08
8/26/2023 6:45:00 PM 20.2 68.36 0.105 7.35 12.53 9.07
8/26/2023 7:00:00 PM 20.21 68.378 0.105 7.31 12.46 9.06
8/26/2023 7:15:00 PM 20.21 68.378 0.105 7.31 12.21 9.05
8/26/2023 7:30:00 PM 20.2 68.36 0.106 7.31 11.97 9.05
8/26/2023 7:45:00 PM 20.17 68.306 0.106 7.3 11.92 9.05
8/26/2023 8:00:00 PM 20.13 68.234 0.106 7.32 11.82 9.05
8/26/2023 8:15:00 PM 20.07 68.126 0.106 7.29 12.09 9.05
8/26/2023 8:30:00 PM 20.01 68.018 0.106 7.3 11.71 9.06
8/26/2023 8:45:00 PM 19.95 67.91 0.106 7.29 12.52 9.06
8/26/2023 9:00:00 PM 19.88 67.784 0.107 7.29 11.78 9.06
8/26/2023 9:15:00 PM 19.82 67.676 0.107 7.31 11.94 9.07
8/26/2023 9:30:00 PM 19.75 67.55 0.107 7.28 11.64 9.08
8/26/2023 9:45:00 PM 19.68 67.424 0.107 7.28 11.1 9.1
8/26/2023 10:00:00 PM 19.63 67.334 0.107 7.28 11.47 9.1
8/26/2023 10:15:00 PM 19.58 67.244 0.107 7.28 11.44 9.11
8/26/2023 10:30:00 PM 19.52 67.136 0.108 7.28 10.86 9.12
8/26/2023 10:45:00 PM 19.48 67.064 0.108 7.28 10.98 9.13
8/26/2023 11:00:00 PM 19.45 67.01 0.108 7.28 10.64 9.13
8/26/2023 11:15:00 PM 19.41 66.938 0.108 7.28 10.97 9.15
8/26/2023 11:30:00 PM 19.37 66.866 0.108 7.28 11 9.15
8/26/2023 11:45:00 PM 19.33 66.794 0.108 7.27 10.76 9.16
8/27/2023 12:00:00 AM 19.29 66.722 0.109 7.28 10.96 9.17
8/27/2023 12:15:00 AM 19.24 66.632 0.109 7.27 10.57 9.18
8/27/2023 12:30:00 AM 19.2 66.56 0.109 7.27 10.29 9.19
8/27/2023 12:45:00 AM 19.16 66.488 0.109 7.27 10.64 9.19
8/27/2023 1:00:00 AM 19.12 66.416 0.109 7.29 10.65 9.2
8/27/2023 1:15:00 AM 19.09 66.362 0.109 7.27 10.27 9.21
8/27/2023 1:30:00 AM 19.05 66.29 0.109 7.26 10.18 9.22
8/27/2023 1:45:00 AM 19.01 66.218 0.11 7.28 10.47 9.22
8/27/2023 2:00:00 AM 18.97 66.146 0.11 7.26 10.31 9.23
8/27/2023 2:15:00 AM 18.93 66.074 0.11 7.25 10.29 9.23
8/27/2023 2:30:00 AM 18.87 65.966 0.11 7.27 10.08 9.25
8/27/2023 2:45:00 AM 18.82 65.876 0.11 7.26 10.66 9.26
8/27/2023 3:00:00 AM 18.78 65.804 0.11 7.28 10.59 9.27
8/27/2023 3:15:00 AM 18.73 65.714 0.11 7.26 9.89 9.27
8/27/2023 3:30:00 AM 18.69 65.642 0.11 7.26 10.49 9.28
8/27/2023 3:45:00 AM 18.65 65.57 0.11 7.25 9.45 9.28
8/27/2023 4:00:00 AM 18.61 65.498 0.11 7.26 10.03 9.29
8/27/2023 4:15:00 AM 18.58 65.444 0.111 7.26 9.86 9.3
8/27/2023 4:30:00 AM 18.54 65.372 0.111 7.26 9.47 9.31
8/27/2023 4:45:00 AM 18.51 65.318 0.111 7.26 9.7 9.31
8/27/2023 5:00:00 AM 18.49 65.282 0.111 7.26 9.51 9.32
8/27/2023 5:15:00 AM 18.47 65.246 0.111 7.26 9.33 9.32
8/27/2023 5:30:00 AM 18.45 65.21 0.111 7.26 9.33 9.33
8/27/2023 5:45:00 AM 18.43 65.174 0.111 7.26 9.3 9.33
8/27/2023 6:00:00 AM 18.41 65.138 0.111 7.25 9.27 9.34
8/27/2023 6:15:00 AM 18.4 65.12 0.111 7.26 9.33 9.34
8/27/2023 6:30:00 AM 18.39 65.102 0.111 7.26 9.29 9.35
8/27/2023 6:45:00 AM 18.38 65.084 0.111 7.27 9.25 9.35
8/27/2023 7:00:00 AM 18.37 65.066 0.111 7.27 8.94 9.35
8/27/2023 7:15:00 AM 18.36 65.048 0.111 7.27 8.86 9.37
8/27/2023 7:30:00 AM 18.36 65.048 0.111 7.27 8.81 9.38
8/27/2023 7:45:00 AM 18.37 65.066 0.111 7.28 8.7 9.4
8/27/2023 8:00:00 AM 18.38 65.084 0.111 7.29 8.64 9.41
8/27/2023 8:15:00 AM 18.4 65.12 0.112 7.3 8.37 9.43
8/27/2023 8:30:00 AM 18.41 65.138 0.112 7.3 8.33 9.43
8/27/2023 8:45:00 AM 18.43 65.174 0.112 7.31 7.94 9.44
8/27/2023 9:00:00 AM 18.45 65.21 0.112 7.32 7.97 9.45
8/27/2023 9:15:00 AM 18.48 65.264 0.112 7.33 8.04 9.46
8/27/2023 9:30:00 AM 18.5 65.3 0.112 7.33 7.78 9.45
8/27/2023 9:45:00 AM 18.56 65.408 0.112 7.34 7.7 9.47
8/27/2023 10:00:00 AM 18.66 65.588 0.112 7.35 7.58 9.49
8/27/2023 10:15:00 AM 18.75 65.75 0.112 7.37 7.59 9.5
8/27/2023 10:30:00 AM 18.78 65.804 0.112 7.38 6.89 9.5
8/27/2023 10:45:00 AM 18.79 65.82201 0.112 7.39 7.29 9.51
8/27/2023 11:00:00 AM 18.81 65.858 0.112 7.39 7.02 9.51
8/27/2023 11:15:00 AM 18.87 65.966 0.112 7.41 7.1 9.53
8/27/2023 11:30:00 AM 18.98 66.164 0.112 7.41 6.93 9.52
8/27/2023 11:45:00 AM 19.12 66.416 0.112 7.43 6.92 9.52
8/27/2023 12:00:00 PM 19.2 66.56 0.112 7.44 6.84 9.51
8/27/2023 12:15:00 PM 19.23 66.614 0.112 7.45 6.7 9.51
8/27/2023 12:30:00 PM 19.25 66.65 0.112 7.45 6.57 9.51
8/27/2023 12:45:00 PM 19.32 66.776 0.112 7.46 6.78 9.51
8/27/2023 1:00:00 PM 19.44 66.992 0.112 7.47 6.66 9.51
8/27/2023 1:15:00 PM 19.46 67.028 0.113 7.47 6.58 9.49
8/27/2023 1:30:00 PM 19.52 67.136 0.113 7.48 6.71 9.48
8/27/2023 1:45:00 PM 19.57 67.226 0.113 7.48 6.42 9.47
8/27/2023 2:00:00 PM 19.68 67.424 0.113 7.49 6.5 9.47
8/27/2023 2:15:00 PM 19.7 67.46 0.113 7.49 6.45 9.44
8/27/2023 2:30:00 PM 19.86 67.748 0.113 7.5 6.62 9.45
8/27/2023 2:45:00 PM 19.99 67.982 0.113 7.5 6.35 9.43
8/27/2023 3:00:00 PM 20.03 68.054 0.113 7.51 6.21 9.41
8/27/2023 3:15:00 PM 20.06 68.108 0.113 7.5 6.44 9.4
8/27/2023 3:30:00 PM 20.15 68.27 0.113 7.51 6.26 9.39
8/27/2023 3:45:00 PM 20.23 68.414 0.113 7.52 6.36 9.36
8/27/2023 4:00:00 PM 20.31 68.558 0.113 7.52 6.62 9.36
8/27/2023 4:15:00 PM 20.32 68.576 0.113 7.51 6.3 9.31
8/27/2023 4:30:00 PM 20.29 68.522 0.113 7.51 6.3 9.28
8/27/2023 4:45:00 PM 20.35 68.63 0.113 7.49 6.42 9.27
8/27/2023 5:00:00 PM 20.34 68.612 0.113 7.49 6.37 9.25
8/27/2023 5:15:00 PM 20.33 68.594 0.113 7.49 6.58 9.25
8/27/2023 5:30:00 PM 20.36 68.648 0.113 7.49 6.38 9.24
8/27/2023 5:45:00 PM 20.35 68.63 0.113 7.49 6.29 9.22
8/27/2023 6:00:00 PM 20.37 68.666 0.113 7.48 6.19 9.2
8/27/2023 6:15:00 PM 20.39 68.702 0.113 7.47 6.18 9.18
8/27/2023 6:30:00 PM 20.4 68.72 0.113 7.47 6.1 9.17
8/27/2023 6:45:00 PM 20.41 68.738 0.114 7.46 6.32 9.15
8/27/2023 7:00:00 PM 20.42 68.756 0.114 7.45 6.27 9.12
8/27/2023 7:15:00 PM 20.43 68.774 0.114 7.43 6.32 9.09
8/27/2023 7:30:00 PM 20.42 68.756 0.114 7.43 6.09 9.07
8/27/2023 7:45:00 PM 20.39 68.702 0.114 7.42 6.28 9.06
8/27/2023 8:00:00 PM 20.34 68.612 0.114 7.42 6.41 9.05
8/27/2023 8:15:00 PM 20.28 68.504 0.114 7.4 6.42 9.05
8/27/2023 8:30:00 PM 20.21 68.378 0.114 7.4 6.56 9.05
8/27/2023 8:45:00 PM 20.16 68.288 0.114 7.39 6.63 9.05
8/27/2023 9:00:00 PM 20.11 68.198 0.115 7.4 6.61 9.05
8/27/2023 9:15:00 PM 20.06 68.108 0.115 7.37 6.54 9.05
8/27/2023 9:30:00 PM 20.01 68.018 0.115 7.37 6.5 9.06
8/27/2023 9:45:00 PM 19.94 67.892 0.115 7.37 6.54 9.07
8/27/2023 10:00:00 PM 19.87 67.766 0.115 7.37 6.59 9.08
8/27/2023 10:15:00 PM 19.79 67.622 0.115 7.36 6.59 9.1
8/27/2023 10:30:00 PM 19.69 67.442 0.115 7.36 6.67 9.11
8/27/2023 10:45:00 PM 19.6 67.28 0.115 7.36 6.56 9.13
8/27/2023 11:00:00 PM 19.5 67.1 0.115 7.36 6.48 9.15
8/27/2023 11:15:00 PM 19.41 66.938 0.116 7.36 6.5 9.17
8/27/2023 11:30:00 PM 19.31 66.758 0.116 7.35 6.46 9.18
8/27/2023 11:45:00 PM 19.22 66.596 0.116 7.35 6.42 9.2
8/28/2023 12:00:00 AM 19.13 66.434 0.116 7.38 6.59 9.22
8/28/2023 12:15:00 AM 19.04 66.272 0.116 7.34 6.45 9.23
8/28/2023 12:30:00 AM 18.95 66.11 0.116 7.34 6.59 9.25
8/28/2023 12:45:00 AM 18.86 65.948 0.116 7.34 6.74 9.26
8/28/2023 1:00:00 AM 18.78 65.804 0.116 7.34 6.67 9.28
8/28/2023 1:15:00 AM 18.69 65.642 0.116 7.36 6.51 9.29
8/28/2023 1:30:00 AM 18.61 65.498 0.116 7.33 6.34 9.31
8/28/2023 1:45:00 AM 18.53 65.354 0.116 7.34 6.54 9.33
8/28/2023 2:00:00 AM 18.46 65.228 0.117 7.34 6.46 9.35
8/28/2023 2:15:00 AM 18.38 65.084 0.116 7.34 6.36 9.36
8/28/2023 2:30:00 AM 18.32 64.976 0.117 7.33 6.27 9.37
8/28/2023 2:45:00 AM 18.27 64.886 0.117 7.33 6.59 9.38
8/28/2023 3:00:00 AM 18.21 64.778 0.117 7.33 6.44 9.39
8/28/2023 3:15:00 AM 18.15 64.67 0.117 7.34 6.44 9.4
8/28/2023 3:30:00 AM 18.1 64.58 0.117 7.33 6.37 9.41
8/28/2023 3:45:00 AM 18.05 64.49 0.117 7.33 6.38 9.43
8/28/2023 4:00:00 AM 18 64.4 0.117 7.33 6.43 9.44
8/28/2023 4:15:00 AM 17.95 64.31 0.117 7.33 6.29 9.45
8/28/2023 4:30:00 AM 17.9 64.22 0.117 7.33 6.15 9.46
8/28/2023 4:45:00 AM 17.86 64.148 0.117 7.32 6.33 9.47
8/28/2023 5:00:00 AM 17.82 64.076 0.117 7.32 6.22 9.48
8/28/2023 5:15:00 AM 17.77 63.986 0.117 7.31 6.46 9.48
8/28/2023 5:30:00 AM 17.73 63.914 0.118 7.32 6.2 9.49
8/28/2023 5:45:00 AM 17.69 63.842 0.118 7.31 6.34 9.5
8/28/2023 6:00:00 AM 17.65 63.77 0.118 7.31 6.04 9.51
8/28/2023 6:15:00 AM 17.6 63.68 0.118 7.31 6.11 9.52
8/28/2023 6:30:00 AM 17.56 63.608 0.118 7.3 6.41 9.53
8/28/2023 6:45:00 AM 17.53 63.554 0.118 7.3 6.13 9.54
8/28/2023 7:00:00 AM 17.51 63.518 0.118 7.3 5.99 9.55
8/28/2023 7:15:00 AM 17.48 63.464 0.118 7.3 6.12 9.56
8/28/2023 7:30:00 AM 17.46 63.428 0.118 7.3 5.76 9.57
8/28/2023 7:45:00 AM 17.45 63.41 0.118 7.3 5.98 9.59
8/28/2023 8:00:00 AM 17.46 63.428 0.118 7.31 5.78 9.63
8/28/2023 8:15:00 AM 17.46 63.428 0.118 7.33 5.8 9.64
8/28/2023 8:30:00 AM 17.47 63.446 0.118 7.33 5.46 9.67
8/28/2023 8:45:00 AM 17.49 63.482 0.118 7.34 5.58 9.69
8/28/2023 9:00:00 AM 17.53 63.554 0.118 7.36 5.16 9.71
8/28/2023 9:15:00 AM 17.57 63.626 0.118 7.37 5.37 9.72
8/28/2023 9:30:00 AM 17.6 63.68 0.118 7.39 5.26 9.72
8/28/2023 9:45:00 AM 17.61 63.698 0.118 7.4 5.1 9.71
8/28/2023 10:00:00 AM 17.66 63.788 0.118 7.4 5.1 9.72
8/28/2023 10:15:00 AM 17.74 63.932 0.118 7.42 5.18 9.75
8/28/2023 10:30:00 AM 17.84 64.112 0.118 7.44 4.92 9.76
8/28/2023 10:45:00 AM 17.96 64.328 0.118 7.46 4.92 9.77
8/28/2023 11:00:00 AM 18.05 64.49 0.118 7.48 5.15 9.78
8/28/2023 11:15:00 AM 18.22 64.796 0.118 7.5 4.88 9.79
8/28/2023 11:30:00 AM 18.33 64.994 0.118 7.51 4.69 9.77
8/28/2023 11:45:00 AM 18.39 65.102 0.118 7.54 4.75 9.76
8/28/2023 12:00:00 PM 18.5 65.3 0.118 7.54 4.68 9.76
8/28/2023 12:15:00 PM 18.57 65.426 0.118 7.55 4.58 9.75
8/28/2023 12:30:00 PM 18.59 65.462 0.118 7.56 4.72 9.71
8/28/2023 12:45:00 PM 18.63 65.534 0.118 7.56 4.6 9.68
8/28/2023 1:00:00 PM 18.65 65.57 0.118 7.55 4.8 9.65
8/28/2023 1:15:00 PM 18.67 65.606 0.118 7.55 4.56 9.63
8/28/2023 1:30:00 PM 18.7 65.66 0.118 7.55 4.53 9.63
8/28/2023 1:45:00 PM 18.74 65.732 0.118 7.55 4.47 9.62
8/28/2023 2:00:00 PM 18.76 65.768 0.118 7.55 4.46 9.6
8/28/2023 2:15:00 PM 18.76 65.768 0.118 7.54 4.74 9.58
8/28/2023 2:30:00 PM 18.77 65.786 0.118 7.54 4.66 9.58
8/28/2023 2:45:00 PM 18.77 65.786 0.117 7.52 4.59 9.56
8/28/2023 3:00:00 PM 18.77 65.786 0.117 7.53 4.58 9.55
8/28/2023 3:15:00 PM 18.79 65.82201 0.117 7.51 4.44 9.55
8/28/2023 3:30:00 PM 18.8 65.84 0.117 7.51 4.48 9.53
8/28/2023 3:45:00 PM 18.81 65.858 0.117 7.51 4.93 9.52
8/28/2023 4:00:00 PM 18.84 65.912 0.117 7.51 4.98 9.52
8/28/2023 4:15:00 PM 18.88 65.984 0.117 7.51 4.89 9.54
8/28/2023 4:30:00 PM 18.92 66.056 0.117 7.51 5 9.54
8/28/2023 4:45:00 PM 18.97 66.146 0.117 7.52 4.77 9.54
8/28/2023 5:00:00 PM 19.02 66.236 0.117 7.52 4.94 9.55
8/28/2023 5:15:00 PM 19.08 66.344 0.118 7.53 4.72 9.54
8/28/2023 5:30:00 PM 19.12 66.416 0.118 7.54 4.87 9.54
8/28/2023 5:45:00 PM 19.13 66.434 0.118 7.53 4.84 9.51
8/28/2023 6:00:00 PM 19.14 66.452 0.118 7.53 5.06 9.49
8/28/2023 6:15:00 PM 19.14 66.452 0.118 7.51 5.27 9.45
8/28/2023 6:30:00 PM 19.14 66.452 0.118 7.52 5.13 9.43
8/28/2023 6:45:00 PM 19.14 66.452 0.118 7.48 4.91 9.4
8/28/2023 7:00:00 PM 19.14 66.452 0.118 7.48 4.91 9.38
8/28/2023 7:15:00 PM 19.12 66.416 0.118 7.47 4.68 9.36
8/28/2023 7:30:00 PM 19.1 66.38 0.118 7.46 4.78 9.34
8/28/2023 7:45:00 PM 19.09 66.362 0.119 7.45 4.81 9.32
8/28/2023 8:00:00 PM 19.09 66.362 0.119 7.43 4.84 9.29
8/28/2023 8:15:00 PM 19.09 66.362 0.119 7.42 4.91 9.28
8/28/2023 8:30:00 PM 19.08 66.344 0.119 7.41 4.98 9.26
8/28/2023 8:45:00 PM 19.08 66.344 0.119 7.41 4.91 9.26
8/28/2023 9:00:00 PM 19.06 66.308 0.119 7.39 5 9.25
8/28/2023 9:15:00 PM 19.05 66.29 0.119 7.39 4.96 9.25
8/28/2023 9:30:00 PM 19.03 66.254 0.119 7.38 5.13 9.25
8/28/2023 9:45:00 PM 19.01 66.218 0.119 7.36 5.04 9.25
8/28/2023 10:00:00 PM 18.99 66.182 0.12 7.38 5.28 9.25
8/28/2023 10:15:00 PM 18.96 66.128 0.12 7.37 5.1 9.26
8/28/2023 10:30:00 PM 18.93 66.074 0.12 7.38 5.27 9.26
8/28/2023 10:45:00 PM 18.9 66.02 0.12 7.36 4.91 9.26
8/28/2023 11:00:00 PM 18.88 65.984 0.12 7.36 5.07 9.27
8/28/2023 11:15:00 PM 18.85 65.93 0.12 7.36 5.63 9.27
8/28/2023 11:30:00 PM 18.82 65.876 0.12 7.36 5.28 9.28
8/28/2023 11:45:00 PM 18.79 65.82201 0.12 7.38 4.89 9.28
8/29/2023 12:00:00 AM 18.76 65.768 0.12 7.35 5.07 9.28
8/29/2023 12:15:00 AM 18.73 65.714 0.12 7.35 5.09 9.28
8/29/2023 12:30:00 AM 18.69 65.642 0.12 7.35 5.32 9.3
8/29/2023 12:45:00 AM 18.65 65.57 0.12 7.35 5.07 9.3
8/29/2023 1:00:00 AM 18.6 65.48 0.121 7.35 5.05 9.31
8/29/2023 1:15:00 AM 18.56 65.408 0.121 7.36 5.05 9.32
8/29/2023 1:30:00 AM 18.51 65.318 0.121 7.36 5.3 9.33
8/29/2023 1:45:00 AM 18.47 65.246 0.121 7.38 5 9.34
8/29/2023 2:00:00 AM 18.43 65.174 0.121 7.35 5.23 9.34
8/29/2023 2:15:00 AM 18.4 65.12 0.121 7.35 5.09 9.34
8/29/2023 2:30:00 AM 18.36 65.048 0.121 7.35 5.08 9.35
8/29/2023 2:45:00 AM 18.33 64.994 0.121 7.36 5.31 9.36
8/29/2023 3:00:00 AM 18.29 64.922 0.122 7.36 4.94 9.37
8/29/2023 3:15:00 AM 18.25 64.85 0.122 7.36 5 9.37
8/29/2023 3:30:00 AM 18.21 64.778 0.122 7.36 4.98 9.38
8/29/2023 3:45:00 AM 18.17 64.706 0.122 7.35 5.01 9.39
8/29/2023 4:00:00 AM 18.13 64.634 0.122 7.35 4.97 9.39
8/29/2023 4:15:00 AM 18.1 64.58 0.122 7.35 5.02 9.4
8/29/2023 4:30:00 AM 18.06 64.508 0.122 7.35 5.2 9.4
8/29/2023 4:45:00 AM 18.03 64.454 0.122 7.35 4.88 9.41
8/29/2023 5:00:00 AM 18.01 64.418 0.122 7.37 4.9 9.42
8/29/2023 5:15:00 AM 17.98 64.364 0.123 7.34 4.9 9.42
8/29/2023 5:30:00 AM 17.95 64.31 0.123 7.35 4.94 9.43
8/29/2023 5:45:00 AM 17.92 64.256 0.123 7.34 4.95 9.43
8/29/2023 6:00:00 AM 17.88 64.184 0.123 7.35 4.98 9.43
8/29/2023 6:15:00 AM 17.84 64.112 0.123 7.36 5.05 9.44
8/29/2023 6:30:00 AM 17.8 64.04 0.123 7.34 4.99 9.46
8/29/2023 6:45:00 AM 17.75 63.95 0.123 7.34 4.89 9.47
8/29/2023 7:00:00 AM 17.72 63.896 0.123 7.34 4.73 9.49
8/29/2023 7:15:00 AM 17.7 63.86 0.123 7.35 4.73 9.51
8/29/2023 7:30:00 AM 17.68 63.824 0.123 7.35 4.69 9.52
8/29/2023 7:45:00 AM 17.67 63.806 0.123 7.35 4.57 9.56
8/29/2023 8:00:00 AM 17.67 63.806 0.123 7.36 4.52 9.58
8/29/2023 8:15:00 AM 17.7 63.86 0.123 7.38 4.45 9.62
8/29/2023 8:30:00 AM 17.73 63.914 0.123 7.41 4.42 9.66
8/29/2023 8:45:00 AM 17.77 63.986 0.123 7.41 4.28 9.68
8/29/2023 9:00:00 AM 17.79 64.022 0.122 7.43 4.33 9.68
8/29/2023 9:15:00 AM 17.82 64.076 0.122 7.44 4.22 9.69
8/29/2023 9:30:00 AM 17.85 64.13 0.122 7.45 4.08 9.71
8/29/2023 9:45:00 AM 17.89 64.202 0.122 7.46 4.03 9.72
8/29/2023 10:00:00 AM 17.92 64.256 0.122 7.48 4.02 9.73
8/29/2023 10:15:00 AM 17.97 64.346 0.122 7.52 3.95 9.75
8/29/2023 10:30:00 AM 18 64.4 0.122 7.49 3.99 9.76
8/29/2023 10:45:00 AM 18.06 64.508 0.122 7.52 3.93 9.78
8/29/2023 11:00:00 AM 18.11 64.598 0.122 7.53 3.85 9.8
8/29/2023 11:15:00 AM 18.17 64.706 0.122 7.55 3.81 9.81
8/29/2023 11:30:00 AM 18.23 64.814 0.122 7.58 3.78 9.83
8/29/2023 11:45:00 AM 18.37 65.066 0.122 7.59 3.84 9.85
8/29/2023 12:00:00 PM 18.52 65.336 0.122 7.62 3.96 9.86
8/29/2023 12:15:00 PM 18.62 65.516 0.122 7.63 3.74 9.85
8/29/2023 12:30:00 PM 18.84 65.912 0.122 7.66 3.83 9.84
8/29/2023 12:45:00 PM 19.09 66.362 0.122 7.67 3.71 9.82
8/29/2023 1:00:00 PM 19.27 66.686 0.122 7.68 3.76 9.79
8/29/2023 1:15:00 PM 19.45 67.01 0.122 7.72 3.82 9.76
8/29/2023 1:30:00 PM 19.61 67.298 0.122 7.71 3.66 9.74
8/29/2023 1:45:00 PM 19.71 67.478 0.122 7.74 3.68 9.71
8/29/2023 2:00:00 PM 19.77 67.586 0.122 7.73 3.69 9.7
8/29/2023 2:15:00 PM 19.81 67.658 0.122 7.74 3.67 9.67
8/29/2023 2:30:00 PM 19.89 67.802 0.122 7.75 3.72 9.66
8/29/2023 2:45:00 PM 19.95 67.91 0.122 7.75 3.68 9.62
8/29/2023 3:00:00 PM 19.98 67.964 0.122 7.75 3.63 9.6
8/29/2023 3:15:00 PM 19.98 67.964 0.122 7.75 3.59 9.6
8/29/2023 3:30:00 PM 19.98 67.964 0.122 7.75 3.66 9.59
8/29/2023 3:45:00 PM 19.96 67.92799 0.122 7.73 3.69 9.57
8/29/2023 4:00:00 PM 19.94 67.892 0.122 7.73 3.67 9.56
8/29/2023 4:15:00 PM 19.97 67.946 0.122 7.73 3.65 9.56
8/29/2023 4:30:00 PM 19.99 67.982 0.122 7.73 3.91 9.55
8/29/2023 4:45:00 PM 20.05 68.09 0.122 7.72 3.69 9.52
8/29/2023 5:00:00 PM 20.04 68.07201 0.122 7.71 3.64 9.48
8/29/2023 5:15:00 PM 20 68 0.122 7.69 3.7 9.43
8/29/2023 5:30:00 PM 19.99 67.982 0.122 7.66 3.77 9.39
8/29/2023 5:45:00 PM 20 68 0.122 7.64 3.66 9.36
8/29/2023 6:00:00 PM 20.02 68.036 0.122 7.62 3.77 9.34
8/29/2023 6:15:00 PM 20.02 68.036 0.122 7.6 3.61 9.29
8/29/2023 6:30:00 PM 20.02 68.036 0.122 7.59 3.74 9.25
8/29/2023 6:45:00 PM 20.01 68.018 0.122 7.55 3.68 9.2
8/29/2023 7:00:00 PM 20.01 68.018 0.122 7.53 3.73 9.16
8/29/2023 7:15:00 PM 20.01 68.018 0.122 7.5 3.72 9.11
8/29/2023 7:30:00 PM 20.01 68.018 0.122 7.48 3.64 9.09
8/29/2023 7:45:00 PM 20.01 68.018 0.122 7.46 3.8 9.06
8/29/2023 8:00:00 PM 20 68 0.122 7.44 3.79 9.04
8/29/2023 8:15:00 PM 19.99 67.982 0.122 7.43 3.96 9.02
8/29/2023 8:30:00 PM 19.97 67.946 0.122 7.42 3.88 9.01
8/29/2023 8:45:00 PM 19.95 67.91 0.122 7.4 3.94 9
8/29/2023 9:00:00 PM 19.92 67.856 0.123 7.39 3.89 9.01
8/29/2023 9:15:00 PM 19.89 67.802 0.123 7.38 3.89 9
8/29/2023 9:30:00 PM 19.86 67.748 0.123 7.38 3.96 8.99
8/29/2023 9:45:00 PM 19.83 67.694 0.123 7.37 3.97 9
8/29/2023 10:00:00 PM 19.8 67.64 0.123 7.37 3.99 9.01
8/29/2023 10:15:00 PM 19.77 67.586 0.123 7.39 3.99 9.01
8/29/2023 10:30:00 PM 19.75 67.55 0.123 7.36 4.16 9.01
8/29/2023 10:45:00 PM 19.73 67.514 0.123 7.39 4.02 9.02
8/29/2023 11:00:00 PM 19.71 67.478 0.123 7.37 4.06 9.01
8/29/2023 11:15:00 PM 19.69 67.442 0.123 7.34 3.99 9.01
8/29/2023 11:30:00 PM 19.67 67.406 0.123 7.35 4 9.01
8/29/2023 11:45:00 PM 19.65 67.37 0.123 7.35 4.08 9.02
8/30/2023 12:00:00 AM 19.62 67.316 0.124 7.34 4.02 9.01
8/30/2023 12:15:00 AM 19.6 67.28 0.124 7.35 4.06 9.02
8/30/2023 12:30:00 AM 19.57 67.226 0.124 7.35 4.03 9.02
8/30/2023 12:45:00 AM 19.55 67.19 0.124 7.37 4.1 9.03
8/30/2023 1:00:00 AM 19.52 67.136 0.124 7.39 4.14 9.03
8/30/2023 1:15:00 AM 19.5 67.1 0.124 7.34 4.09 9.04
8/30/2023 1:30:00 AM 19.47 67.046 0.124 7.36 4.06 9.03
8/30/2023 1:45:00 AM 19.44 66.992 0.124 7.37 4.05 9.04
8/30/2023 2:00:00 AM 19.42 66.956 0.124 7.35 4.29 9.04
8/30/2023 2:15:00 AM 19.4 66.92 0.124 7.35 4.13 9.04
8/30/2023 2:30:00 AM 19.38 66.884 0.125 7.35 4.07 9.05
8/30/2023 2:45:00 AM 19.35 66.83 0.125 7.35 4.1 9.04
8/30/2023 3:00:00 AM 19.33 66.794 0.124 7.35 4.04 9.04
8/30/2023 3:15:00 AM 19.32 66.776 0.12 7.34 5.55 9.08
8/30/2023 3:30:00 AM 19.32 66.776 0.114 7.32 10.11 9.08
8/30/2023 3:45:00 AM 19.28 66.704 0.115 7.29 11.74 9.09
8/30/2023 4:00:00 AM 19.22 66.596 0.113 7.3 19.84 9.12
8/30/2023 4:15:00 AM 19.12 66.416 0.111 7.27 63.97 9.13
8/30/2023 4:30:00 AM 18.98 66.164 0.109 7.19 81.97 9.09
8/30/2023 4:45:00 AM 18.88 65.984 0.104 7.17 125.85 9.13
8/30/2023 5:00:00 AM 18.74 65.732 0.097 7.08 219.19 9.16
8/30/2023 5:15:00 AM 18.73 65.714 0.091 7.07 283.76 9.18
8/30/2023 5:30:00 AM 18.77 65.786 0.089 7.06 296.98 9.19
8/30/2023 5:45:00 AM 18.82 65.876 0.091 7.07 227.04 9.19
8/30/2023 6:00:00 AM 18.84 65.912 0.094 7.1 178.39 9.18
8/30/2023 6:15:00 AM 18.83 65.894 0.096 7.1 149.59 9.18
8/30/2023 6:30:00 AM 18.83 65.894 0.095 7.09 162.88 9.17
8/30/2023 6:45:00 AM 18.87 65.966 0.092 7.08 184.37 9.15
8/30/2023 7:00:00 AM 18.9 66.02 0.091 7.08 167.87 9.14
8/30/2023 7:15:00 AM 18.9 66.02 0.093 7.09 144.43 9.14
8/30/2023 7:30:00 AM 18.89 66.002 0.095 7.12 111.57 9.14
8/30/2023 7:45:00 AM 18.86 65.948 0.096 7.11 100.48 9.15
8/30/2023 8:00:00 AM 18.84 65.912 0.095 7.12 82.29 9.15
8/30/2023 8:15:00 AM 18.83 65.894 0.095 7.12 73.19 9.15
8/30/2023 8:30:00 AM 18.81 65.858 0.096 7.14 67.16 9.15
8/30/2023 8:45:00 AM 18.8 65.84 0.096 7.11 57.99 9.15
8/30/2023 9:00:00 AM 18.8 65.84 0.097 7.12 52.47 9.16
8/30/2023 9:15:00 AM 18.81 65.858 0.098 7.13 47.41 9.17
8/30/2023 9:30:00 AM 18.83 65.894 0.099 7.13 44.51 9.17
8/30/2023 9:45:00 AM 18.85 65.93 0.1 7.16 44.7 9.17
8/30/2023 10:00:00 AM 18.88 65.984 0.1 7.14 43.66 9.17
8/30/2023 10:15:00 AM 18.92 66.056 0.1 7.16 45.32 9.18
8/30/2023 10:30:00 AM 18.97 66.146 0.101 7.16 44.51 9.18
8/30/2023 10:45:00 AM 19.05 66.29 0.101 7.17 41.43 9.19
8/30/2023 11:00:00 AM 19.12 66.416 0.101 7.21 38.3 9.2
8/30/2023 11:15:00 AM 19.21 66.578 0.102 7.2 37.03 9.21
8/30/2023 11:30:00 AM 19.29 66.722 0.103 7.21 33.16 9.22
8/30/2023 11:45:00 AM 19.37 66.866 0.104 7.26 29.81 9.24
8/30/2023 12:00:00 PM 19.47 67.046 0.105 7.22 28.11 9.25
8/30/2023 12:15:00 PM 19.52 67.136 0.105 7.27 26.98 9.25
8/30/2023 12:30:00 PM 19.63 67.334 0.105 7.26 26.63 9.26
8/30/2023 12:45:00 PM 19.73 67.514 0.106 7.27 25.17 9.27
8/30/2023 1:00:00 PM 19.85 67.73 0.106 7.29 24.76 9.26
8/30/2023 1:15:00 PM 19.9 67.82 0.106 7.3 26.02 9.26
8/30/2023 1:30:00 PM 20.01 68.018 0.107 7.3 22.46 9.27
8/30/2023 1:45:00 PM 20.13 68.234 0.107 7.32 20.95 9.28
8/30/2023 2:00:00 PM 20.12 68.216 0.108 7.34 20.3 9.25
8/30/2023 2:15:00 PM 20.16 68.288 0.108 7.36 19.58 9.24
8/30/2023 2:30:00 PM 20.11 68.198 0.109 7.35 18.87 9.22
8/30/2023 2:45:00 PM 20.14 68.252 0.109 7.33 18.28 9.23
8/30/2023 3:00:00 PM 20.26 68.468 0.109 7.35 17.58 9.25
8/30/2023 3:15:00 PM 20.24 68.432 0.11 7.38 17.18 9.23
8/30/2023 3:30:00 PM 20.27 68.486 0.11 7.37 15.78 9.21
8/30/2023 3:45:00 PM 20.25 68.45 0.11 7.38 15.82 9.21
8/30/2023 4:00:00 PM 20.34 68.612 0.111 7.38 16.25 9.23
8/30/2023 4:15:00 PM 20.39 68.702 0.111 7.38 15.54 9.23
8/30/2023 4:30:00 PM 20.36 68.648 0.111 7.37 14.5 9.17
8/30/2023 4:45:00 PM 20.39 68.702 0.112 7.37 14.99 9.17
8/30/2023 5:00:00 PM 20.35 68.63 0.112 7.39 14.78 9.14
8/30/2023 5:15:00 PM 20.35 68.63 0.112 7.38 14.05 9.13
8/30/2023 5:30:00 PM 20.33 68.594 0.112 7.39 13.98 9.11
8/30/2023 5:45:00 PM 20.3 68.54 0.113 7.35 12.59 9.09
8/30/2023 6:00:00 PM 20.28 68.504 0.113 7.38 13.16 9.09
8/30/2023 6:15:00 PM 20.25 68.45 0.113 7.37 13.13 9.08
8/30/2023 6:30:00 PM 20.22 68.396 0.113 7.38 13.12 9.08
8/30/2023 6:45:00 PM 20.18 68.324 0.113 7.37 12.52 9.07
8/30/2023 7:00:00 PM 20.15 68.27 0.113 7.38 11.66 9.06
8/30/2023 7:15:00 PM 20.11 68.198 0.114 7.32 12.16 9.06
8/30/2023 7:30:00 PM 20.05 68.09 0.114 7.36 11.82 9.05
8/30/2023 7:45:00 PM 19.99 67.982 0.115 7.32 12.08 9.05
8/30/2023 8:00:00 PM 19.93 67.874 0.115 7.32 12.06 9.05
8/30/2023 8:15:00 PM 19.87 67.766 0.115 7.31 12.51 9.05
8/30/2023 8:30:00 PM 19.81 67.658 0.116 7.32 12.6 9.06
8/30/2023 8:45:00 PM 19.76 67.568 0.116 7.3 12.26 9.06
8/30/2023 9:00:00 PM 19.7 67.46 0.116 7.31 13.07 9.06
8/30/2023 9:15:00 PM 19.64 67.352 0.117 7.3 11.97 9.07
8/30/2023 9:30:00 PM 19.59 67.262 0.117 7.3 11.83 9.07
8/30/2023 9:45:00 PM 19.53 67.154 0.117 7.29 12.16 9.08
8/30/2023 10:00:00 PM 19.48 67.064 0.117 7.31 11.42 9.09
8/30/2023 10:15:00 PM 19.41 66.938 0.117 7.3 11.48 9.1
8/30/2023 10:30:00 PM 19.35 66.83 0.118 7.31 11.27 9.11
8/30/2023 10:45:00 PM 19.29 66.722 0.118 7.33 10.8 9.12
8/30/2023 11:00:00 PM 19.23 66.614 0.118 7.32 11.04 9.13
8/30/2023 11:15:00 PM 19.17 66.506 0.118 7.28 10.53 9.14
8/30/2023 11:30:00 PM 19.12 66.416 0.119 7.29 10.27 9.16
8/30/2023 11:45:00 PM 19.05 66.29 0.119 7.31 9.98 9.16
8/31/2023 12:00:00 AM 19 66.2 0.119 7.32 9.69 9.18
8/31/2023 12:15:00 AM 18.93 66.074 0.119 7.3 9.84 9.19
8/31/2023 12:30:00 AM 18.87 65.966 0.119 7.31 9.22 9.2
8/31/2023 12:45:00 AM 18.82 65.876 0.119 7.3 9.67 9.21
8/31/2023 1:00:00 AM 18.78 65.804 0.119 7.29 9.17 9.22
8/31/2023 1:15:00 AM 18.74 65.732 0.119 7.31 9.08 9.22
8/31/2023 1:30:00 AM 18.7 65.66 0.12 7.29 8.88 9.23
8/31/2023 1:45:00 AM 18.66 65.588 0.12 7.31 8.86 9.24
8/31/2023 2:00:00 AM 18.63 65.534 0.12 7.32 8.94 9.25
8/31/2023 2:15:00 AM 18.59 65.462 0.12 7.33 8.82 9.26
8/31/2023 2:30:00 AM 18.56 65.408 0.12 7.29 8.69 9.26
8/31/2023 2:45:00 AM 18.52 65.336 0.12 7.3 8.29 9.28
8/31/2023 3:00:00 AM 18.48 65.264 0.12 7.3 8.36 9.28
8/31/2023 3:15:00 AM 18.43 65.174 0.12 7.3 8.43 9.29
8/31/2023 3:30:00 AM 18.38 65.084 0.12 7.3 8.14 9.3
8/31/2023 3:45:00 AM 18.34 65.012 0.12 7.3 8.15 9.31
8/31/2023 4:00:00 AM 18.28 64.904 0.12 7.3 8.07 9.32
8/31/2023 4:15:00 AM 18.2 64.76 0.12 7.33 8.04 9.34
8/31/2023 4:30:00 AM 18.13 64.634 0.12 7.3 7.94 9.35
8/31/2023 4:45:00 AM 18.06 64.508 0.12 7.31 7.94 9.36
8/31/2023 5:00:00 AM 17.98 64.364 0.12 7.3 7.75 9.38
8/31/2023 5:15:00 AM 17.91 64.238 0.121 7.3 7.72 9.39
8/31/2023 5:30:00 AM 17.84 64.112 0.121 7.3 7.58 9.41
8/31/2023 5:45:00 AM 17.77 63.986 0.121 7.29 7.78 9.42
8/31/2023 6:00:00 AM 17.69 63.842 0.121 7.29 7.84 9.44
8/31/2023 6:15:00 AM 17.62 63.716 0.121 7.28 7.54 9.45
8/31/2023 6:30:00 AM 17.56 63.608 0.121 7.28 7.51 9.47
8/31/2023 6:45:00 AM 17.5 63.5 0.121 7.28 7.11 9.48
8/31/2023 7:00:00 AM 17.45 63.41 0.121 7.28 7.19 9.5
8/31/2023 7:15:00 AM 17.4 63.32 0.121 7.27 7.27 9.52
8/31/2023 7:30:00 AM 17.36 63.248 0.121 7.28 7.4 9.54
8/31/2023 7:45:00 AM 17.32 63.176 0.121 7.28 6.7 9.57
8/31/2023 8:00:00 AM 17.28 63.104 0.121 7.27 6.56 9.59
8/31/2023 8:15:00 AM 17.26 63.068 0.121 7.28 6.56 9.62
8/31/2023 8:30:00 AM 17.24 63.032 0.121 7.29 6.3 9.65
8/31/2023 8:45:00 AM 17.24 63.032 0.121 7.31 6.41 9.68
8/31/2023 9:00:00 AM 17.24 63.032 0.122 7.32 6.2 9.7
8/31/2023 9:15:00 AM 17.27 63.086 0.121 7.33 5.62 9.73
8/31/2023 9:30:00 AM 17.29 63.122 0.121 7.35 5.42 9.75
8/31/2023 9:45:00 AM 17.32 63.176 0.121 7.37 5.32 9.77
8/31/2023 10:00:00 AM 17.36 63.248 0.121 7.39 5.3 9.79
8/31/2023 10:15:00 AM 17.39 63.302 0.121 7.41 5.24 9.81
8/31/2023 10:30:00 AM 17.45 63.41 0.121 7.42 5 9.83
8/31/2023 10:45:00 AM 17.54 63.572 0.121 7.43 5.02 9.85
8/31/2023 11:00:00 AM 17.63 63.734 0.121 7.46 4.84 9.87
8/31/2023 11:15:00 AM 17.75 63.95 0.121 7.48 4.84 9.88
8/31/2023 11:30:00 AM 17.86 64.148 0.121 7.49 4.87 9.88
8/31/2023 11:45:00 AM 18.01 64.418 0.121 7.53 4.81 9.89
8/31/2023 12:00:00 PM 18.14 64.652 0.121 7.54 4.59 9.89
8/31/2023 12:15:00 PM 18.27 64.886 0.121 7.58 4.69 9.89
8/31/2023 12:30:00 PM 18.41 65.138 0.121 7.57 4.62 9.88
8/31/2023 12:45:00 PM 18.56 65.408 0.121 7.59 4.62 9.88
8/31/2023 1:00:00 PM 18.69 65.642 0.121 7.63 4.6 9.86
8/31/2023 1:15:00 PM 18.82 65.876 0.121 7.62 4.54 9.85
8/31/2023 1:30:00 PM 18.96 66.128 0.121 7.65 4.34 9.84
8/31/2023 1:45:00 PM 19.08 66.344 0.121 7.65 4.42 9.82
8/31/2023 2:00:00 PM 19.18 66.524 0.121 7.66 4.35 9.8
8/31/2023 2:15:00 PM 19.28 66.704 0.121 7.68 4.45 9.78
8/31/2023 2:30:00 PM 19.36 66.848 0.121 7.66 4.43 9.76
8/31/2023 2:45:00 PM 19.42 66.956 0.121 7.67 4.37 9.74
8/31/2023 3:00:00 PM 19.47 67.046 0.121 7.67 4.48 9.72
8/31/2023 3:15:00 PM 19.52 67.136 0.121 7.67 4.39 9.7
8/31/2023 3:30:00 PM 19.52 67.136 0.121 7.66 4.41 9.68
8/31/2023 3:45:00 PM 19.53 67.154 0.121 7.65 4.54 9.66
8/31/2023 4:00:00 PM 19.51 67.118 0.121 7.66 4.33 9.64
8/31/2023 4:15:00 PM 19.48 67.064 0.121 7.63 4.38 9.6
8/31/2023 4:30:00 PM 19.44 66.992 0.121 7.62 4.58 9.58
8/31/2023 4:45:00 PM 19.39 66.902 0.121 7.6 4.36 9.56
8/31/2023 5:00:00 PM 19.35 66.83 0.121 7.58 4.36 9.53
8/31/2023 5:15:00 PM 19.33 66.794 0.121 7.58 4.36 9.5
8/31/2023 5:30:00 PM 19.3 66.74 0.121 7.58 4.39 9.47
8/31/2023 5:45:00 PM 19.27 66.686 0.121 7.56 4.39 9.44
8/31/2023 6:00:00 PM 19.24 66.632 0.121 7.55 4.6 9.4
8/31/2023 6:15:00 PM 19.22 66.596 0.121 7.5 4.55 9.38
8/31/2023 6:30:00 PM 19.21 66.578 0.121 7.49 4.34 9.35
8/31/2023 6:45:00 PM 19.2 66.56 0.121 7.47 4.31 9.32
8/31/2023 7:00:00 PM 19.19 66.542 0.121 7.45 4.36 9.3
8/31/2023 7:15:00 PM 19.18 66.524 0.121 7.47 4.69 9.28
8/31/2023 7:30:00 PM 19.17 66.506 0.121 7.47 4.45 9.26
8/31/2023 7:45:00 PM 19.14 66.452 0.121 7.45 4.72 9.25
8/31/2023 8:00:00 PM 19.09 66.362 0.122 7.41 4.73 9.24
8/31/2023 8:15:00 PM 19.04 66.272 0.122 7.42 4.52 9.23
8/31/2023 8:30:00 PM 18.99 66.182 0.122 7.4 4.88 9.23
8/31/2023 8:45:00 PM 18.93 66.074 0.122 7.39 4.78 9.24
8/31/2023 9:00:00 PM 18.85 65.93 0.122 7.41 4.61 9.24
8/31/2023 9:15:00 PM 18.78 65.804 0.122 7.38 4.82 9.26
8/31/2023 9:30:00 PM 18.7 65.66 0.122 7.39 4.92 9.27
8/31/2023 9:45:00 PM 18.6 65.48 0.122 7.37 4.81 9.28
8/31/2023 10:00:00 PM 18.51 65.318 0.122 7.37 4.75 9.3
8/31/2023 10:15:00 PM 18.41 65.138 0.122 7.36 4.85 9.31
8/31/2023 10:30:00 PM 18.31 64.958 0.122 7.38 4.94 9.34
8/31/2023 10:45:00 PM 18.21 64.778 0.123 7.35 4.77 9.35
8/31/2023 11:00:00 PM 18.11 64.598 0.123 7.35 4.63 9.37
8/31/2023 11:15:00 PM 18.01 64.418 0.123 7.35 4.67 9.4
8/31/2023 11:30:00 PM 17.91 64.238 0.123 7.35 4.71 9.41
8/31/2023 11:45:00 PM 17.81 64.058 0.123 7.34 4.84 9.44
9/1/2023 12:00:00 AM 17.72 63.896 0.123 7.34 5.15 9.46
9/1/2023 12:15:00 AM 17.63 63.734 0.123 7.33 4.86 9.48
9/1/2023 12:30:00 AM 17.53 63.554 0.123 7.33 4.65 9.49
9/1/2023 12:45:00 AM 17.45 63.41 0.123 7.32 4.73 9.52
9/1/2023 1:00:00 AM 17.35 63.23 0.123 7.31 4.75 9.53
9/1/2023 1:15:00 AM 17.27 63.086 0.123 7.31 4.79 9.55
9/1/2023 1:30:00 AM 17.17 62.906 0.124 7.32 4.68 9.57
9/1/2023 1:45:00 AM 17.09 62.762 0.124 7.29 4.9 9.59
9/1/2023 2:00:00 AM 17 62.6 0.124 7.31 4.78 9.61
9/1/2023 2:15:00 AM 16.91 62.438 0.124 7.27 4.67 9.63
9/1/2023 2:30:00 AM 16.83 62.294 0.124 7.26 4.7 9.65
9/1/2023 2:45:00 AM 16.74 62.132 0.124 7.26 4.41 9.67
9/1/2023 3:00:00 AM 16.66 61.988 0.124 7.28 4.51 9.69
9/1/2023 3:15:00 AM 16.58 61.844 0.124 7.28 4.62 9.71
9/1/2023 3:30:00 AM 16.49 61.682 0.124 7.24 4.61 9.73
9/1/2023 3:45:00 AM 16.41 61.538 0.124 7.23 4.69 9.74
9/1/2023 4:00:00 AM 16.33 61.394 0.124 7.23 4.95 9.76
9/1/2023 4:15:00 AM 16.25 61.25 0.125 7.23 4.45 9.78
9/1/2023 4:30:00 AM 16.17 61.106 0.125 7.25 4.55 9.8
9/1/2023 4:45:00 AM 16.09 60.962 0.125 7.22 4.72 9.82
9/1/2023 5:00:00 AM 16.02 60.836 0.125 7.25 4.59 9.84
9/1/2023 5:15:00 AM 15.96 60.728 0.125 7.22 4.54 9.86
9/1/2023 5:30:00 AM 15.9 60.62 0.125 7.23 4.51 9.86
9/1/2023 5:45:00 AM 15.84 60.512 0.125 7.23 4.43 9.89
9/1/2023 6:00:00 AM 15.78 60.404 0.125 7.23 4.49 9.89
9/1/2023 6:15:00 AM 15.72 60.296 0.125 7.23 4.51 9.91
9/1/2023 6:30:00 AM 15.66 60.188 0.125 7.23 4.41 9.93
9/1/2023 6:45:00 AM 15.6 60.08 0.125 7.27 4.45 9.95
9/1/2023 7:00:00 AM 15.55 59.99 0.125 7.25 4.39 9.97
9/1/2023 7:15:00 AM 15.5 59.9 0.125 7.25 4.33 10.01
9/1/2023 7:30:00 AM 15.46 59.828 0.125 7.26 4.25 10.04
9/1/2023 7:45:00 AM 15.42 59.756 0.125 7.28 4.22 10.08
9/1/2023 8:00:00 AM 15.4 59.72 0.125 7.29 3.99 10.14
9/1/2023 8:15:00 AM 15.38 59.684 0.125 7.31 4.1 10.19
9/1/2023 8:30:00 AM 15.38 59.684 0.125 7.33 4.08 10.25
9/1/2023 8:45:00 AM 15.39 59.702 0.125 7.36 4 10.31
9/1/2023 9:00:00 AM 15.4 59.72 0.125 7.38 3.95 10.36
9/1/2023 9:15:00 AM 15.46 59.828 0.125 7.4 3.89 10.36
9/1/2023 9:30:00 AM 15.51 59.918 0.125 7.42 4.1 10.36
9/1/2023 9:45:00 AM 15.56 60.008 0.125 7.46 3.8 10.37
9/1/2023 10:00:00 AM 15.62 60.116 0.125 7.45 3.83 10.38
9/1/2023 10:15:00 AM 15.7 60.26 0.125 7.48 3.84 10.39
9/1/2023 10:30:00 AM 15.79 60.422 0.125 7.5 3.74 10.41
9/1/2023 10:45:00 AM 15.91 60.638 0.125 7.53 3.7 10.42
9/1/2023 11:00:00 AM 16.07 60.926 0.125 7.55 3.64 10.43
9/1/2023 11:15:00 AM 16.24 61.232 0.125 7.57 3.51 10.44
9/1/2023 11:30:00 AM 16.41 61.538 0.125 7.59 3.55 10.44
9/1/2023 11:45:00 AM 16.59 61.862 0.125 7.62 3.49 10.43
9/1/2023 12:00:00 PM 16.77 62.186 0.125 7.65 3.45 10.41
9/1/2023 12:15:00 PM 16.97 62.546 0.125 7.69 3.54 10.4
9/1/2023 12:30:00 PM 17.16 62.888 0.125 7.7 3.64 10.38
9/1/2023 12:45:00 PM 17.33 63.194 0.125 7.72 3.57 10.36
9/1/2023 1:00:00 PM 17.51 63.518 0.125 7.76 3.46 10.34
9/1/2023 1:15:00 PM 17.68 63.824 0.125 7.77 3.47 10.32
9/1/2023 1:30:00 PM 17.83 64.094 0.125 7.77 3.53 10.29
9/1/2023 1:45:00 PM 17.99 64.382 0.125 7.8 3.47 10.27
9/1/2023 2:00:00 PM 18.14 64.652 0.124 7.8 3.46 10.24
9/1/2023 2:15:00 PM 18.27 64.886 0.125 7.81 3.44 10.21
9/1/2023 2:30:00 PM 18.4 65.12 0.125 7.83 3.42 10.18
9/1/2023 2:45:00 PM 18.51 65.318 0.125 7.81 3.51 10.14
9/1/2023 3:00:00 PM 18.59 65.462 0.125 7.83 3.69 10.12
9/1/2023 3:15:00 PM 18.66 65.588 0.125 7.82 3.51 10.09
9/1/2023 3:30:00 PM 18.7 65.66 0.125 7.8 3.52 10.06
9/1/2023 3:45:00 PM 18.72 65.696 0.125 7.81 3.47 10.03
9/1/2023 4:00:00 PM 18.73 65.714 0.125 7.79 3.59 10
9/1/2023 4:15:00 PM 18.71 65.67799 0.125 7.81 3.58 9.98
9/1/2023 4:30:00 PM 18.68 65.624 0.125 7.79 3.58 9.95
9/1/2023 4:45:00 PM 18.64 65.552 0.125 7.73 3.46 9.92
9/1/2023 5:00:00 PM 18.59 65.462 0.125 7.74 3.63 9.88
9/1/2023 5:15:00 PM 18.53 65.354 0.125 7.69 3.54 9.85
9/1/2023 5:30:00 PM 18.49 65.282 0.125 7.67 3.63 9.82
9/1/2023 5:45:00 PM 18.45 65.21 0.125 7.65 3.55 9.78
9/1/2023 6:00:00 PM 18.42 65.156 0.125 7.63 3.44 9.75
9/1/2023 6:15:00 PM 18.4 65.12 0.125 7.63 3.54 9.7
9/1/2023 6:30:00 PM 18.38 65.084 0.125 7.58 3.55 9.67
9/1/2023 6:45:00 PM 18.37 65.066 0.125 7.55 3.54 9.62
9/1/2023 7:00:00 PM 18.36 65.048 0.125 7.53 3.45 9.57
9/1/2023 7:15:00 PM 18.37 65.066 0.125 7.54 3.62 9.54
9/1/2023 7:30:00 PM 18.36 65.048 0.125 7.52 3.47 9.51
9/1/2023 7:45:00 PM 18.36 65.048 0.125 7.53 3.57 9.47
9/1/2023 8:00:00 PM 18.35 65.03 0.125 7.46 3.53 9.43
9/1/2023 8:15:00 PM 18.33 64.994 0.125 7.44 3.75 9.41
9/1/2023 8:30:00 PM 18.31 64.958 0.125 7.45 3.61 9.4
9/1/2023 8:45:00 PM 18.28 64.904 0.125 7.45 4.11 9.39
9/1/2023 9:00:00 PM 18.25 64.85 0.125 7.44 3.72 9.39
9/1/2023 9:15:00 PM 18.22 64.796 0.126 7.43 3.7 9.39
9/1/2023 9:30:00 PM 18.17 64.706 0.126 7.41 3.81 9.39
9/1/2023 9:45:00 PM 18.12 64.616 0.126 7.44 3.85 9.4
9/1/2023 10:00:00 PM 18.07 64.526 0.126 7.41 3.88 9.41
9/1/2023 10:15:00 PM 18 64.4 0.126 7.42 4.14 9.42
9/1/2023 10:30:00 PM 17.94 64.292 0.126 7.39 4.16 9.43
9/1/2023 10:45:00 PM 17.86 64.148 0.126 7.39 4.01 9.43
9/1/2023 11:00:00 PM 17.79 64.022 0.126 7.4 3.8 9.45
9/1/2023 11:15:00 PM 17.72 63.896 0.126 7.39 3.82 9.47
9/1/2023 11:30:00 PM 17.64 63.752 0.126 7.39 4 9.49
9/1/2023 11:45:00 PM 17.56 63.608 0.126 7.39 4.04 9.5
9/2/2023 12:00:00 AM 17.47 63.446 0.126 7.38 4.01 9.52
9/2/2023 12:15:00 AM 17.4 63.32 0.126 7.39 4.02 9.54
9/2/2023 12:30:00 AM 17.31 63.158 0.126 7.38 4.15 9.54
9/2/2023 12:45:00 AM 17.23 63.014 0.126 7.4 4.05 9.56
9/2/2023 1:00:00 AM 17.15 62.87 0.126 7.39 3.79 9.58
9/2/2023 1:15:00 AM 17.07 62.726 0.127 7.39 3.91 9.59
9/2/2023 1:30:00 AM 16.99 62.582 0.127 7.38 3.9 9.6
9/2/2023 1:45:00 AM 16.92 62.456 0.127 7.39 3.92 9.62
9/2/2023 2:00:00 AM 16.84 62.312 0.127 7.38 3.81 9.64
9/2/2023 2:15:00 AM 16.76 62.168 0.127 7.36 3.9 9.65
9/2/2023 2:30:00 AM 16.7 62.06 0.127 7.39 3.95 9.68
9/2/2023 2:45:00 AM 16.63 61.934 0.127 7.37 3.97 9.68
9/2/2023 3:00:00 AM 16.55 61.79 0.127 7.37 3.98 9.7
9/2/2023 3:15:00 AM 16.49 61.682 0.127 7.37 4 9.71
9/2/2023 3:30:00 AM 16.43 61.574 0.127 7.38 4.12 9.73
9/2/2023 3:45:00 AM 16.38 61.484 0.127 7.35 4.01 9.74
9/2/2023 4:00:00 AM 16.32 61.376 0.127 7.38 3.91 9.75
9/2/2023 4:15:00 AM 16.25 61.25 0.128 7.36 3.89 9.77
9/2/2023 4:30:00 AM 16.18 61.124 0.128 7.34 3.88 9.78
9/2/2023 4:45:00 AM 16.11 60.998 0.128 7.35 3.85 9.79
9/2/2023 5:00:00 AM 16.03 60.854 0.128 7.33 3.76 9.81
9/2/2023 5:15:00 AM 15.96 60.728 0.128 7.33 3.85 9.83
9/2/2023 5:30:00 AM 15.88 60.584 0.128 7.34 3.79 9.85
9/2/2023 5:45:00 AM 15.81 60.458 0.128 7.31 3.84 9.86
9/2/2023 6:00:00 AM 15.73 60.314 0.128 7.32 3.79 9.88
9/2/2023 6:15:00 AM 15.66 60.188 0.129 7.31 3.97 9.9
9/2/2023 6:30:00 AM 15.59 60.062 0.129 7.31 3.82 9.91
9/2/2023 6:45:00 AM 15.52 59.936 0.129 7.31 3.72 9.94
9/2/2023 7:00:00 AM 15.46 59.828 0.129 7.32 3.86 9.97
9/2/2023 7:15:00 AM 15.4 59.72 0.129 7.34 3.67 10.01
9/2/2023 7:30:00 AM 15.35 59.63 0.129 7.31 3.62 10.05
9/2/2023 7:45:00 AM 15.31 59.558 0.129 7.32 3.55 10.09
9/2/2023 8:00:00 AM 15.28 59.504 0.129 7.33 3.55 10.14
9/2/2023 8:15:00 AM 15.26 59.468 0.129 7.35 3.42 10.18
9/2/2023 8:30:00 AM 15.26 59.468 0.129 7.37 3.45 10.23
9/2/2023 8:45:00 AM 15.29 59.522 0.129 7.39 3.5 10.29
9/2/2023 9:00:00 AM 15.31 59.558 0.129 7.4 3.24 10.32
9/2/2023 9:15:00 AM 15.36 59.648 0.129 7.45 3.34 10.35
9/2/2023 9:30:00 AM 15.43 59.774 0.129 7.45 3.27 10.39
9/2/2023 9:45:00 AM 15.54 59.972 0.129 7.48 3.17 10.44
9/2/2023 10:00:00 AM 15.65 60.17 0.129 7.54 3.2 10.5
9/2/2023 10:15:00 AM 15.73 60.314 0.129 7.55 3.16 10.52
9/2/2023 10:30:00 AM 15.81 60.458 0.129 7.6 3.09 10.54
9/2/2023 10:45:00 AM 15.96 60.728 0.129 7.64 3 10.56
9/2/2023 11:00:00 AM 16.16 61.088 0.129 7.69 3.04 10.59
9/2/2023 11:15:00 AM 16.3 61.34 0.128 7.71 2.95 10.59
9/2/2023 11:30:00 AM 16.48 61.664 0.128 7.75 2.97 10.58
9/2/2023 11:45:00 AM 16.69 62.042 0.128 7.78 2.99 10.58
9/2/2023 12:00:00 PM 16.88 62.384 0.128 7.81 2.97 10.56
9/2/2023 12:15:00 PM 17.1 62.78 0.128 7.87 2.99 10.54
9/2/2023 12:30:00 PM 17.32 63.176 0.128 7.89 3.11 10.5
9/2/2023 12:45:00 PM 17.54 63.572 0.128 7.89 3.02 10.45
9/2/2023 1:00:00 PM 17.77 63.986 0.128 7.94 2.9 10.42
9/2/2023 1:15:00 PM 17.99 64.382 0.128 7.96 2.95 10.38
9/2/2023 1:30:00 PM 18.2 64.76 0.128 7.97 2.97 10.34
9/2/2023 1:45:00 PM 18.38 65.084 0.128 8.03 2.91 10.32
9/2/2023 2:00:00 PM 18.53 65.354 0.128 8.03 2.92 10.3
9/2/2023 2:15:00 PM 18.65 65.57 0.128 8.07 2.89 10.3
9/2/2023 2:30:00 PM 18.74 65.732 0.128 8.06 2.87 10.25
9/2/2023 2:45:00 PM 18.85 65.93 0.128 8.07 2.85 10.2
9/2/2023 3:00:00 PM 18.96 66.128 0.128 8.09 2.86 10.16
9/2/2023 3:15:00 PM 19.06 66.308 0.128 8.08 2.95 10.12
9/2/2023 3:30:00 PM 19.12 66.416 0.128 8.06 2.9 10.07
9/2/2023 3:45:00 PM 19.18 66.524 0.128 8.05 2.86 10.04
9/2/2023 4:00:00 PM 19.21 66.578 0.128 8.04 2.91 10
9/2/2023 4:15:00 PM 19.22 66.596 0.128 8.01 2.96 9.98
9/2/2023 4:30:00 PM 19.19 66.542 0.128 8 2.98 9.96
9/2/2023 4:45:00 PM 19.13 66.434 0.128 7.97 2.97 9.93
9/2/2023 5:00:00 PM 19.08 66.344 0.128 7.94 2.96 9.91
9/2/2023 5:15:00 PM 19.03 66.254 0.128 7.93 2.92 9.88
9/2/2023 5:30:00 PM 18.99 66.182 0.128 7.9 2.91 9.85
9/2/2023 5:45:00 PM 18.92 66.056 0.128 7.83 2.92 9.78
9/2/2023 6:00:00 PM 18.85 65.93 0.128 7.79 2.93 9.74
9/2/2023 6:15:00 PM 18.81 65.858 0.128 7.75 2.95 9.71
9/2/2023 6:30:00 PM 18.79 65.82201 0.128 7.73 2.95 9.65
9/2/2023 6:45:00 PM 18.76 65.768 0.128 7.68 2.91 9.59
9/2/2023 7:00:00 PM 18.75 65.75 0.128 7.65 2.91 9.52
9/2/2023 7:15:00 PM 18.74 65.732 0.128 7.62 2.97 9.46
9/2/2023 7:30:00 PM 18.75 65.75 0.128 7.57 3 9.39
9/2/2023 7:45:00 PM 18.77 65.786 0.128 7.54 3.04 9.35
9/2/2023 8:00:00 PM 18.79 65.82201 0.128 7.52 3.09 9.3
9/2/2023 8:15:00 PM 18.82 65.876 0.128 7.5 3.11 9.27
9/2/2023 8:30:00 PM 18.84 65.912 0.128 7.48 3.17 9.24
9/2/2023 8:45:00 PM 18.87 65.966 0.128 7.46 3.11 9.23
9/2/2023 9:00:00 PM 18.89 66.002 0.128 7.46 3.22 9.22
9/2/2023 9:15:00 PM 18.91 66.038 0.128 7.43 3.21 9.21
9/2/2023 9:30:00 PM 18.92 66.056 0.128 7.43 3.21 9.19
9/2/2023 9:45:00 PM 18.92 66.056 0.128 7.43 3.26 9.19
9/2/2023 10:00:00 PM 18.91 66.038 0.128 7.41 3.23 9.18
9/2/2023 10:15:00 PM 18.9 66.02 0.128 7.44 3.25 9.18
9/2/2023 10:30:00 PM 18.88 65.984 0.129 7.4 3.25 9.18
9/2/2023 10:45:00 PM 18.85 65.93 0.129 7.42 3.21 9.18
9/2/2023 11:00:00 PM 18.82 65.876 0.129 7.42 3.22 9.19
9/2/2023 11:15:00 PM 18.77 65.786 0.129 7.41 3.18 9.2
9/2/2023 11:30:00 PM 18.73 65.714 0.129 7.4 3.16 9.21
9/2/2023 11:45:00 PM 18.68 65.624 0.129 7.39 3.21 9.22
9/3/2023 12:00:00 AM 18.63 65.534 0.129 7.39 3.27 9.22
9/3/2023 12:15:00 AM 18.58 65.444 0.129 7.4 3.35 9.23
9/3/2023 12:30:00 AM 18.53 65.354 0.129 7.39 3.26 9.25
9/3/2023 12:45:00 AM 18.48 65.264 0.129 7.38 3.23 9.25
9/3/2023 1:00:00 AM 18.42 65.156 0.129 7.4 3.25 9.27
9/3/2023 1:15:00 AM 18.37 65.066 0.13 7.37 3.24 9.28
9/3/2023 1:30:00 AM 18.31 64.958 0.13 7.38 3.18 9.29
9/3/2023 1:45:00 AM 18.26 64.868 0.13 7.37 3.25 9.29
9/3/2023 2:00:00 AM 18.21 64.778 0.13 7.38 3.22 9.3
9/3/2023 2:15:00 AM 18.17 64.706 0.13 7.39 3.2 9.31
9/3/2023 2:30:00 AM 18.11 64.598 0.13 7.37 3.19 9.32
9/3/2023 2:45:00 AM 18.06 64.508 0.13 7.39 3.24 9.33
9/3/2023 3:00:00 AM 18 64.4 0.13 7.36 3.31 9.34
9/3/2023 3:15:00 AM 17.94 64.292 0.13 7.37 3.23 9.35
9/3/2023 3:30:00 AM 17.89 64.202 0.13 7.37 3.33 9.36
9/3/2023 3:45:00 AM 17.84 64.112 0.13 7.37 3.36 9.37
9/3/2023 4:00:00 AM 17.8 64.04 0.13 7.37 3.21 9.38
9/3/2023 4:15:00 AM 17.75 63.95 0.13 7.37 3.27 9.39
9/3/2023 4:30:00 AM 17.7 63.86 0.13 7.38 3.25 9.4
9/3/2023 4:45:00 AM 17.65 63.77 0.13 7.37 3.22 9.4
9/3/2023 5:00:00 AM 17.6 63.68 0.131 7.37 3.33 9.42
9/3/2023 5:15:00 AM 17.55 63.59 0.131 7.37 3.2 9.43
9/3/2023 5:30:00 AM 17.5 63.5 0.131 7.36 3.15 9.44
9/3/2023 5:45:00 AM 17.46 63.428 0.131 7.36 3.23 9.44
9/3/2023 6:00:00 AM 17.41 63.338 0.131 7.36 3.25 9.46
9/3/2023 6:15:00 AM 17.36 63.248 0.131 7.37 3.21 9.47
9/3/2023 6:30:00 AM 17.31 63.158 0.131 7.36 3.22 9.48
9/3/2023 6:45:00 AM 17.26 63.068 0.131 7.36 3.31 9.5
9/3/2023 7:00:00 AM 17.21 62.978 0.131 7.36 3.19 9.53
9/3/2023 7:15:00 AM 17.18 62.924 0.131 7.37 3.06 9.57
9/3/2023 7:30:00 AM 17.14 62.852 0.131 7.37 3.11 9.61
9/3/2023 7:45:00 AM 17.12 62.816 0.131 7.39 2.97 9.67
9/3/2023 8:00:00 AM 17.1 62.78 0.131 7.4 3 9.72
9/3/2023 8:15:00 AM 17.1 62.78 0.131 7.42 2.9 9.78
9/3/2023 8:30:00 AM 17.11 62.798 0.131 7.44 2.82 9.83
9/3/2023 8:45:00 AM 17.13 62.834 0.131 7.46 2.77 9.89
9/3/2023 9:00:00 AM 17.17 62.906 0.131 7.5 2.87 9.94
9/3/2023 9:15:00 AM 17.23 63.014 0.131 7.51 2.73 10
9/3/2023 9:30:00 AM 17.3 63.14 0.131 7.56 2.68 10.04
9/3/2023 9:45:00 AM 17.4 63.32 0.131 7.58 2.67 10.08
9/3/2023 10:00:00 AM 17.5 63.5 0.131 7.62 2.71 10.11
9/3/2023 10:15:00 AM 17.62 63.716 0.131 7.66 2.66 10.15
9/3/2023 10:30:00 AM 17.77 63.986 0.131 7.69 2.67 10.18
9/3/2023 10:45:00 AM 17.91 64.238 0.131 7.73 2.58 10.2
9/3/2023 11:00:00 AM 18.07 64.526 0.131 7.75 2.58 10.22
9/3/2023 11:15:00 AM 18.25 64.85 0.131 7.8 2.69 10.24
9/3/2023 11:30:00 AM 18.44 65.192 0.13 7.85 2.61 10.25
9/3/2023 11:45:00 AM 18.64 65.552 0.13 7.91 2.59 10.25
9/3/2023 12:00:00 PM 18.85 65.93 0.13 7.95 2.58 10.25
9/3/2023 12:15:00 PM 19.08 66.344 0.13 8 2.59 10.23
9/3/2023 12:30:00 PM 19.31 66.758 0.13 8.04 2.57 10.21
9/3/2023 12:45:00 PM 19.54 67.172 0.13 8.08 2.58 10.18
9/3/2023 1:00:00 PM 19.76 67.568 0.13 8.13 2.54 10.15
9/3/2023 1:15:00 PM 19.98 67.964 0.13 8.17 2.54 10.12
9/3/2023 1:30:00 PM 20.19 68.342 0.13 8.2 2.4 10.08
9/3/2023 1:45:00 PM 20.39 68.702 0.13 8.25 2.45 10.04
9/3/2023 2:00:00 PM 20.58 69.044 0.13 8.29 2.49 10
9/3/2023 2:15:00 PM 20.75 69.35 0.13 8.3 2.49 9.95
9/3/2023 2:30:00 PM 20.91 69.638 0.13 8.32 2.46 9.91
9/3/2023 2:45:00 PM 21.04 69.872 0.129 8.34 2.48 9.87
9/3/2023 3:00:00 PM 21.16 70.088 0.13 8.35 2.44 9.82
9/3/2023 3:15:00 PM 21.26 70.268 0.13 8.35 2.45 9.77
9/3/2023 3:30:00 PM 21.33 70.394 0.13 8.35 2.46 9.73
9/3/2023 3:45:00 PM 21.37 70.466 0.13 8.34 2.54 9.69
9/3/2023 4:00:00 PM 21.39 70.502 0.13 8.31 2.45 9.64
9/3/2023 4:15:00 PM 21.38 70.484 0.13 8.29 2.4 9.61
9/3/2023 4:30:00 PM 21.35 70.43 0.13 8.25 2.45 9.57
9/3/2023 4:45:00 PM 21.29 70.32201 0.13 8.2 2.46 9.53
9/3/2023 5:00:00 PM 21.2 70.16 0.13 8.13 2.46 9.47
9/3/2023 5:15:00 PM 21.11 69.998 0.13 8.06 2.48 9.43
9/3/2023 5:30:00 PM 21.02 69.836 0.13 8 2.51 9.39
9/3/2023 5:45:00 PM 20.9 69.62 0.13 7.92 2.46 9.3
9/3/2023 6:00:00 PM 20.79 69.422 0.131 7.83 2.53 9.22
9/3/2023 6:15:00 PM 20.69 69.242 0.131 7.76 2.51 9.2
9/3/2023 6:30:00 PM 20.61 69.098 0.131 7.71 2.59 9.17
9/3/2023 6:45:00 PM 20.54 68.972 0.131 7.67 2.52 9.12
9/3/2023 7:00:00 PM 20.47 68.846 0.131 7.63 2.54 9.08
9/3/2023 7:15:00 PM 20.42 68.756 0.131 7.58 2.53 9.04
9/3/2023 7:30:00 PM 20.38 68.684 0.131 7.54 2.58 9
9/3/2023 7:45:00 PM 20.34 68.612 0.131 7.51 2.58 8.97
9/3/2023 8:00:00 PM 20.33 68.594 0.131 7.49 3.02 8.94
9/3/2023 8:15:00 PM 20.31 68.558 0.131 7.48 3.84 8.9
9/3/2023 8:30:00 PM 20.3 68.54 0.131 7.45 3.83 8.89
9/3/2023 8:45:00 PM 20.3 68.54 0.131 7.44 3.19 8.89
9/3/2023 9:00:00 PM 20.3 68.54 0.131 7.43 2.98 8.87
9/3/2023 9:15:00 PM 20.28 68.504 0.131 7.41 2.92 8.85
9/3/2023 9:30:00 PM 20.28 68.504 0.131 7.41 2.81 8.86
9/3/2023 9:45:00 PM 20.26 68.468 0.131 7.4 2.76 8.86
9/3/2023 10:00:00 PM 20.23 68.414 0.131 7.41 2.83 8.86
9/3/2023 10:15:00 PM 20.21 68.378 0.131 7.41 2.82 8.87
9/3/2023 10:30:00 PM 20.18 68.324 0.131 7.4 3.31 8.86
9/3/2023 10:45:00 PM 20.14 68.252 0.131 7.39 2.81 8.87
9/3/2023 11:00:00 PM 20.11 68.198 0.131 7.4 2.88 8.88
9/3/2023 11:15:00 PM 20.07 68.126 0.131 7.39 2.87 8.88
9/3/2023 11:30:00 PM 20.04 68.07201 0.131 7.39 2.86 8.88
9/3/2023 11:45:00 PM 20.01 68.018 0.132 7.37 2.81 8.89
9/4/2023 12:00:00 AM 19.98 67.964 0.132 7.35 2.84 8.9
9/4/2023 12:15:00 AM 19.94 67.892 0.132 7.38 2.79 8.9
9/4/2023 12:30:00 AM 19.91 67.838 0.132 7.36 2.77 8.92
9/4/2023 12:45:00 AM 19.87 67.766 0.132 7.37 2.8 8.92
9/4/2023 1:00:00 AM 19.84 67.712 0.132 7.36 2.81 8.93
9/4/2023 1:15:00 AM 19.8 67.64 0.132 7.35 2.9 8.95
9/4/2023 1:30:00 AM 19.76 67.568 0.132 7.38 2.83 8.95
9/4/2023 1:45:00 AM 19.71 67.478 0.132 7.37 2.88 8.95
9/4/2023 2:00:00 AM 19.67 67.406 0.132 7.35 2.88 8.97
9/4/2023 2:15:00 AM 19.63 67.334 0.133 7.31 2.79 8.97
9/4/2023 2:30:00 AM 19.6 67.28 0.133 7.36 2.84 8.98
9/4/2023 2:45:00 AM 19.56 67.208 0.133 7.37 2.9 8.98
9/4/2023 3:00:00 AM 19.52 67.136 0.133 7.36 2.89 8.98
9/4/2023 3:15:00 AM 19.48 67.064 0.133 7.37 2.89 8.98
9/4/2023 3:30:00 AM 19.44 66.992 0.133 7.37 2.84 9
9/4/2023 3:45:00 AM 19.4 66.92 0.133 7.37 2.94 9.01
9/4/2023 4:00:00 AM 19.36 66.848 0.133 7.38 2.92 9.02
9/4/2023 4:15:00 AM 19.33 66.794 0.133 7.37 2.87 9.02
9/4/2023 4:30:00 AM 19.29 66.722 0.133 7.36 2.85 9.03
9/4/2023 4:45:00 AM 19.26 66.668 0.133 7.36 2.84 9.04
9/4/2023 5:00:00 AM 19.23 66.614 0.133 7.36 2.85 9.04
9/4/2023 5:15:00 AM 19.19 66.542 0.133 7.37 2.86 9.04
9/4/2023 5:30:00 AM 19.17 66.506 0.134 7.38 2.9 9.06
9/4/2023 5:45:00 AM 19.14 66.452 0.134 7.36 2.87 9.06
9/4/2023 6:00:00 AM 19.11 66.398 0.134 7.36 2.86 9.07
9/4/2023 6:15:00 AM 19.07 66.326 0.134 7.37 2.87 9.07
9/4/2023 6:30:00 AM 19.04 66.272 0.134 7.35 2.88 9.08
9/4/2023 6:45:00 AM 19.01 66.218 0.134 7.34 2.82 9.09
9/4/2023 7:00:00 AM 18.97 66.146 0.134 7.37 2.8 9.12
9/4/2023 7:15:00 AM 18.94 66.092 0.134 7.36 2.7 9.16
9/4/2023 7:30:00 AM 18.92 66.056 0.134 7.36 2.74 9.2
9/4/2023 7:45:00 AM 18.9 66.02 0.134 7.37 2.73 9.26
9/4/2023 8:00:00 AM 18.9 66.02 0.134 7.38 2.67 9.36
9/4/2023 8:15:00 AM 18.91 66.038 0.134 7.41 2.64 9.42
9/4/2023 8:30:00 AM 18.94 66.092 0.134 7.44 2.64 9.48
9/4/2023 8:45:00 AM 18.96 66.128 0.134 7.47 2.58 9.54
9/4/2023 9:00:00 AM 19 66.2 0.134 7.49 2.51 9.59
9/4/2023 9:15:00 AM 19.05 66.29 0.134 7.5 2.5 9.65
9/4/2023 9:30:00 AM 19.13 66.434 0.134 7.57 2.49 9.69
9/4/2023 9:45:00 AM 19.21 66.578 0.134 7.59 2.4 9.73
9/4/2023 10:00:00 AM 19.31 66.758 0.134 7.63 2.4 9.76
9/4/2023 10:15:00 AM 19.43 66.974 0.134 7.64 2.4 9.81
9/4/2023 10:30:00 AM 19.57 67.226 0.134 7.72 2.33 9.85
9/4/2023 10:45:00 AM 19.71 67.478 0.134 7.76 2.33 9.87
9/4/2023 11:00:00 AM 19.87 67.766 0.134 7.8 2.36 9.89
9/4/2023 11:15:00 AM 19.99 67.982 0.133 7.89 2.37 9.92
9/4/2023 11:30:00 AM 20.21 68.378 0.133 7.86 2.33 9.87
9/4/2023 11:45:00 AM 20.4 68.72 0.133 7.9 2.32 9.88
9/4/2023 12:00:00 PM 20.6 69.08 0.133 7.97 2.25 9.9
9/4/2023 12:15:00 PM 20.8 69.44 0.133 8.05 2.27 9.83
9/4/2023 12:30:00 PM 21.03 69.854 0.133 8.12 2.26 9.76
9/4/2023 12:45:00 PM 21.25 70.25 0.132 8.15 2.21 9.62
9/4/2023 1:00:00 PM 21.47 70.646 0.132 8.24 2.27 9.63
9/4/2023 1:15:00 PM 21.64 70.952 0.132 8.27 2.24 9.55
9/4/2023 1:30:00 PM 21.83 71.294 0.132 8.29 2.3 9.32
9/4/2023 1:45:00 PM 22.02 71.636 0.132 8.28 2.29 9.19
9/4/2023 2:00:00 PM 22.21 71.978 0.132 8.3 2.39 9.19
9/4/2023 2:15:00 PM 22.39 72.302 0.132 8.26 2.34 9.14
9/4/2023 2:30:00 PM 22.53 72.554 0.132 8.2 9.42 9.08
9/4/2023 2:45:00 PM 22.64 72.752 0.132 8.23 3.66 8.99
9/4/2023 3:00:00 PM 22.73 72.914 0.132 8.21 6.11 8.94
9/4/2023 3:15:00 PM 22.83 73.094 0.132 8.2 1.8 8.93
9/4/2023 3:30:00 PM 22.85 73.13 0.132 8.19 132.53 8.88
9/4/2023 3:45:00 PM 22.97 73.346 0.132 8.22 12.3 8.84
9/4/2023 4:00:00 PM 22.97 73.346 0.132 8.17 2.14 8.83
9/4/2023 4:15:00 PM 23.04 73.472 0.131 8.12 154.98 8.81
9/4/2023 4:30:00 PM 23.08 73.544 0.132 8.11 4.89 8.79
9/4/2023 4:45:00 PM 23.03 73.454 0.132 8.1 7.24 8.79
9/4/2023 5:00:00 PM 22.9 73.22 0.132 8.09 15.01 8.8
9/4/2023 5:15:00 PM 22.77 72.986 0.132 8.01 12.37 8.8
9/4/2023 5:30:00 PM 22.65 72.77 0.132 7.93 22.1 8.81
9/4/2023 5:45:00 PM 22.56 72.608 0.132 7.95 9.68 8.82
9/4/2023 6:00:00 PM 22.45 72.41 0.132 7.86 9.71 8.84
9/4/2023 6:15:00 PM 22.34 72.212 0.133 7.84 7.07 8.86
9/4/2023 6:30:00 PM 22.22 71.996 0.133 7.74 7.64 8.88
9/4/2023 6:45:00 PM 22.12 71.816 0.133 7.73 6.39 8.89
9/4/2023 7:00:00 PM 22.04 71.672 0.133 7.61 5.31 8.91
9/4/2023 7:15:00 PM 21.96 71.528 0.133 7.58 5.06 8.92
9/4/2023 7:30:00 PM 21.89 71.402 0.134 7.52 3.93 8.92
9/4/2023 7:45:00 PM 21.83 71.294 0.134 7.45 3.44 8.93
9/4/2023 8:00:00 PM 21.77 71.186 0.134 7.41 3.78 8.94
9/4/2023 8:15:00 PM 21.71 71.078 0.134 7.17 3.69 8.95
9/4/2023 8:30:00 PM 21.67 71.006 0.134 7.13 3.68 8.95
9/4/2023 8:45:00 PM 21.63 70.934 0.134 6.97 3.65 8.96
9/4/2023 9:00:00 PM 21.59 70.862 0.135 6.79 3.7 8.96
9/4/2023 9:15:00 PM 21.55 70.79 0.135 6.64 3.6 8.97
9/4/2023 9:30:00 PM 21.52 70.736 0.134 6.83 3.58 8.97
9/4/2023 9:45:00 PM 21.49 70.682 0.135 6.77 3.69 8.97
9/4/2023 10:00:00 PM 21.46 70.628 0.135 6.39 3.56 8.97
9/4/2023 10:15:00 PM 21.44 70.592 0.135 6.1 3.8 8.98
9/4/2023 10:30:00 PM 21.41 70.538 0.135 6.3 3.63 8.97
9/4/2023 10:45:00 PM 21.38 70.484 0.135 6.24 3.66 8.97
9/4/2023 11:00:00 PM 21.35 70.43 0.135 6.17 3.7 8.96
9/4/2023 11:15:00 PM 21.31 70.358 0.135 6.21 3.72 8.97
9/4/2023 11:30:00 PM 21.27 70.286 0.135 6.18 3.61 8.97
9/4/2023 11:45:00 PM 21.23 70.214 0.135 6.18 3.64 8.95
9/5/2023 12:00:00 AM 21.19 70.142 0.135 6.16 3.64 8.97
9/5/2023 12:15:00 AM 21.15 70.07 0.135 6.12 3.6 8.98
9/5/2023 12:30:00 AM 21.11 69.998 0.135 6.12 3.61 8.98
9/5/2023 12:45:00 AM 21.08 69.944 0.135 6.08 3.55 9
9/5/2023 1:00:00 AM 21.04 69.872 0.135 6.09 3.58 9.01
9/5/2023 1:15:00 AM 21.01 69.818 0.135 6.14 3.71 9.04
9/5/2023 1:30:00 AM 20.98 69.764 0.135 6.15 3.63 9.02
9/5/2023 1:45:00 AM 20.94 69.692 0.135 6.12 3.68 9.05
9/5/2023 2:00:00 AM 20.91 69.638 0.135 6.13 3.71 9.05
9/5/2023 2:15:00 AM 20.86 69.548 0.134 6.09 3.6 9.06
9/5/2023 2:30:00 AM 20.82 69.476 0.134 6.06 3.64 9.06
9/5/2023 2:45:00 AM 20.76 69.368 0.134 6.01 3.58 9.07
9/5/2023 3:00:00 AM 20.7 69.26 0.135 6.02 3.67 9.07
9/5/2023 3:15:00 AM 20.64 69.152 0.135 6.03 3.56 9.09
9/5/2023 3:30:00 AM 20.58 69.044 0.134 6.01 3.66 9.1
9/5/2023 3:45:00 AM 20.51 68.918 0.134 5.99 3.63 9.1
9/5/2023 4:00:00 AM 20.45 68.81 0.134 5.99 3.65 9.12
9/5/2023 4:15:00 AM 20.4 68.72 0.132 6.01 3.53 9.13
9/5/2023 4:30:00 AM 20.33 68.594 0.131 6 3.59 9.13
9/5/2023 4:45:00 AM 20.27 68.486 0.126 5.99 3.51 9.15
9/5/2023 5:00:00 AM 20.23 68.414 0.129 5.99 3.51 9.15
9/5/2023 5:15:00 AM 20.18 68.324 0.129 6 3.51 9.16
9/5/2023 5:30:00 AM 20.12 68.216 0.127 6.05 3.54 9.17
9/5/2023 5:45:00 AM 20.08 68.144 0.128 5.98 3.58 9.18
9/5/2023 6:00:00 AM 20.03 68.054 0.123 6.04 3.48 9.17
9/5/2023 6:15:00 AM 20.01 68.018 0.125 6.02 3.49 9.2
9/5/2023 6:30:00 AM 19.97 67.946 0.127 6.02 3.59 9.2
9/5/2023 6:45:00 AM 19.92 67.856 0.121 6.01 3.59 9.19
9/5/2023 7:00:00 AM 19.88 67.784 0.119 5.99 3.51 9.21
9/5/2023 7:15:00 AM 19.82 67.676 0.119 6 3.66 9.2
9/5/2023 7:30:00 AM 19.8 67.64 0.12 5.99 3.68 9.22
9/5/2023 7:45:00 AM 19.78 67.604 0.113 6 3.58 9.25
9/5/2023 8:00:00 AM 19.78 67.604 0.113 5.99 3.7 9.27
9/5/2023 8:15:00 AM 19.79 67.622 0.122 5.99 3.49 9.28
9/5/2023 8:30:00 AM 19.83 67.694 0.122 6 3.44 9.29
9/5/2023 8:45:00 AM 19.88 67.784 0.119 6.01 3.45 9.29
9/5/2023 9:00:00 AM 19.93 67.874 0.115 6 3.52 9.31
9/5/2023 9:15:00 AM 20 68 0.118 6.02 3.4 9.32
9/5/2023 9:30:00 AM 20.09 68.162 0.113 6.04 3.34 9.33
9/5/2023 9:45:00 AM 20.17 68.306 0.111 6.06 3.39 9.31
9/5/2023 10:00:00 AM 20.26 68.468 0.11 6.07 3.44 9.32
9/5/2023 10:15:00 AM 20.38 68.684 0.106 6.06 3.31 9.3
9/5/2023 10:30:00 AM 20.51 68.918 0.097 6.08 3.42 9.29
9/5/2023 10:45:00 AM 20.69 69.242 0.096 6.08 3.27 9.26
9/5/2023 11:00:00 AM 20.87 69.566 0.1 6.1 3.35 9.24
9/5/2023 11:15:00 AM 21.05 69.89 0.098 6.12 3.45 9.24
9/5/2023 11:30:00 AM 21.19 70.142 0.095 6.13 3.57 9.23
9/5/2023 11:45:00 AM 21.42 70.556 0.093 6.21 3.51 9.2
9/5/2023 12:00:00 PM 21.57 70.826 0.084 6.24 3.45 9.17
9/5/2023 12:15:00 PM 21.81 71.258 0.088 6.25 3.42 9.11
9/5/2023 12:30:00 PM 22.04 71.672 0.085 6.3 3.62 9.07
9/5/2023 12:45:00 PM 22.3 72.14 0.071 6.34 3.55 9.01
9/5/2023 1:00:00 PM 22.49 72.482 0.066 7.87 3.55 8.98
9/5/2023 1:15:00 PM 22.65 72.77 0.062 6.43 3.38 8.94
9/5/2023 1:30:00 PM 22.88 73.184 0.058 6.45 3.55 8.9
9/5/2023 1:45:00 PM 23.02 73.436 0.062 6.5 3.6 8.85
9/5/2023 2:00:00 PM 23.16 73.688 0.048 6.62 3.45 8.82
9/5/2023 2:15:00 PM 23.24 73.832 0.056 6.51 3.61 8.81
9/5/2023 2:30:00 PM 23.37 74.066 0.051 6.58 3.42 8.79
9/5/2023 2:45:00 PM 23.5 74.3 0.03 6.53 3.54 8.76
9/5/2023 3:00:00 PM 23.5 74.3 0.05 6.51 3.48 8.75
9/5/2023 3:15:00 PM 23.58 74.444 0.027 6.49 3.52 8.73
9/5/2023 3:30:00 PM 23.62 74.516 0.027 6.5 3.42 8.74
9/5/2023 3:45:00 PM 23.72 74.696 0.021 6.51 3.69 8.73
9/5/2023 4:00:00 PM 23.75 74.75 0.017 6.52 3.46 8.73
9/5/2023 4:15:00 PM 23.75 74.75 0.017 6.54 3.66 8.71
9/5/2023 4:30:00 PM 23.67 74.606 0.013 6.5 3.64 8.72
9/5/2023 4:45:00 PM 23.6 74.48 0.013 6.49 3.55 8.72
9/5/2023 5:00:00 PM 23.56 74.408 0.008 6.51 3.74 8.72
9/5/2023 5:15:00 PM 23.54 74.372 0.006 6.47 3.58 8.71
9/5/2023 5:30:00 PM 23.51 74.318 0.005 6.44 3.77 8.71
9/5/2023 5:45:00 PM 23.47 74.246 0.002 6.43 3.7 8.72
9/5/2023 6:00:00 PM 23.4 74.12 0.002 6.38 3.69 8.72
9/5/2023 6:15:00 PM 23.33 73.994 0.002 6.34 3.63 8.73
9/5/2023 6:30:00 PM 23.24 73.832 0.001 6.31 3.77 8.74
9/5/2023 6:45:00 PM 23.15 73.67 0.001 6.36 3.8 8.75
9/5/2023 7:00:00 PM 23.06 73.508 0 6.33 3.73 8.76
9/5/2023 7:15:00 PM 22.96 73.328 0 6.33 3.7 8.77
9/5/2023 7:30:00 PM 22.85 73.13 0 6.26 3.7 8.78
9/5/2023 7:45:00 PM 22.74 72.932 0 6.23 3.76 8.79
9/5/2023 8:00:00 PM 22.62 72.716 0 6.24 3.77 8.8
9/5/2023 8:15:00 PM 22.51 72.518 0 6.21 3.68 8.81
9/5/2023 8:30:00 PM 22.43 72.374 0 6.17 3.78 8.83
9/5/2023 8:45:00 PM 22.28 72.104 0 6.16 3.76 8.84
9/5/2023 9:00:00 PM 22.07 71.726 0 6.13 3.73 8.86
9/5/2023 9:15:00 PM 21.95 71.51 0 6.13 3.74 8.88
9/5/2023 9:30:00 PM 21.85 71.33 0 6.15 4.67 8.9
9/5/2023 9:45:00 PM 21.82 71.276 0 6.14 3.59 8.9
9/5/2023 10:00:00 PM 21.59 70.862 0 6.11 3.76 8.93
9/5/2023 10:15:00 PM 21.47 70.646 0 6.11 3.65 8.95
9/5/2023 10:30:00 PM 21.24 70.232 0 6.11 3.8 8.99
9/5/2023 10:45:00 PM 21.22 70.196 0 6.13 3.83 9.01
9/5/2023 11:00:00 PM 21.23 70.214 0 6.11 3.86 9
9/5/2023 11:15:00 PM 20.9 69.62 0 6.11 3.78 9.07
9/5/2023 11:30:00 PM 20.9 69.62 0 6.12 3.79 9.06
9/5/2023 11:45:00 PM 20.85 69.53 0 6.11 3.74 9.07
9/6/2023 12:00:00 AM 20.85 69.53 0 6.09 3.76 9.06
9/6/2023 12:15:00 AM 20.58 69.044 0 6.09 3.87 9.12
9/6/2023 12:30:00 AM 20.32 68.576 0 6.08 3.7 9.17
9/6/2023 12:45:00 AM 20.31 68.558 0 6.08 3.96 9.16
9/6/2023 1:00:00 AM 20.31 68.558 0 6.27 3.69 9.16
9/6/2023 1:15:00 AM 20.01 68.018 0 6.09 3.87 9.22
9/6/2023 1:30:00 AM 20.11 68.198 0 6.09 3.95 9.19
9/6/2023 1:45:00 AM 20.04 68.07201 0 6.08 3.93 9.21
9/6/2023 2:00:00 AM 19.79 67.622 0 6.09 3.99 9.26
9/6/2023 2:15:00 AM 19.85 67.73 0 6.06 3.93 9.26
9/6/2023 2:30:00 AM 20.18 68.324 0 6.07 3.77 9.19
9/6/2023 2:45:00 AM 19.98 67.964 0 6.06 3.85 9.24
9/6/2023 3:00:00 AM 20.24 68.432 0 6.1 3.74 9.19
9/6/2023 3:15:00 AM 20.17 68.306 0 6.07 3.83 9.2
9/6/2023 3:30:00 AM 20.28 68.504 0 6.08 3.84 9.18
9/6/2023 3:45:00 AM 20.22 68.396 0 6.09 3.82 9.2
9/6/2023 4:00:00 AM 20.21 68.378 0 6.08 3.79 9.2
9/6/2023 4:15:00 AM 20.13 68.234 0 6.1 3.84 9.21
9/6/2023 4:30:00 AM 20.14 68.252 0 6.11 3.76 9.22
9/6/2023 4:45:00 AM 20.07 68.126 0 6.1 3.67 9.23
9/6/2023 5:00:00 AM 20.15 68.27 0 6.15 3.74 9.22
9/6/2023 5:15:00 AM 20.09 68.162 0 6.1 3.77 9.23
9/6/2023 5:30:00 AM 19.87 67.766 0 7.49 3.66 9.27
9/6/2023 5:45:00 AM 19.83 67.694 0 6.12 3.83 9.28
9/6/2023 6:00:00 AM 19.71 67.478 0 7.76 3.77 9.3
9/6/2023 6:15:00 AM 19.7 67.46 0 7.83 3.91 9.3
9/6/2023 6:30:00 AM 19.72 67.496 0 7.72 3.76 9.31
9/6/2023 6:45:00 AM 19.67 67.406 0 7.8 3.87 9.31
9/6/2023 7:00:00 AM 19.7 67.46 0 7.82 3.86 9.31
9/6/2023 7:15:00 AM 19.68 67.424 0 7.84 3.91 9.32
9/6/2023 7:30:00 AM 19.76 67.568 0 6.13 3.64 9.3
9/6/2023 7:45:00 AM 19.85 67.73 0 7.69 3.72 9.29
9/6/2023 8:00:00 AM 19.97 67.946 0 7.69 3.8 9.27
9/6/2023 8:15:00 AM 20.08 68.144 0 7.69 3.89 9.25
9/6/2023 8:30:00 AM 20.19 68.342 0 7.46 3.7 9.23
9/6/2023 8:45:00 AM 20.27 68.486 0 7.79 3.72 9.22
9/6/2023 9:00:00 AM 20.51 68.918 0 6.15 3.66 9.18
9/6/2023 9:15:00 AM 20.68 69.224 0 7.72 3.8 9.15
9/6/2023 9:30:00 AM 20.88 69.584 0 7.74 3.83 9.12
9/6/2023 9:45:00 AM 21.16 70.088 0 7.73 4.02 9.07
9/6/2023 10:00:00 AM 21.42 70.556 0 7.71 3.82 9.03
9/6/2023 10:15:00 AM 21.56 70.808 0 7.79 3.78 9.01
9/6/2023 10:30:00 AM 21.87 71.366 0 7.84 3.88 8.96
9/6/2023 10:45:00 AM 22.18 71.924 0 7.71 4.03 8.91
9/6/2023 11:00:00 AM 22.48 72.464 0 7.77 4.17 8.85
9/6/2023 11:15:00 AM 23.11 73.598 0 6.19 5.05 8.76
9/6/2023 11:30:00 AM 23.62 74.516 0 5.9 6.42 8.68
9/6/2023 11:45:00 AM 23.99 75.182 0 5.7 7.12 8.63
9/6/2023 12:00:00 PM 24.15 75.47 0 5.73 7.05 8.62
9/6/2023 12:15:00 PM 24.1 75.38 0 5.84 6.79 8.63
9/6/2023 12:30:00 PM 24.07 75.326 0 5.83 7.13 8.63
9/6/2023 12:45:00 PM 23.99 75.182 0 7.38 6.73 8.62
9/6/2023 1:00:00 PM 24.03 75.254 0 5.87 6.49 8.67
9/6/2023 1:15:00 PM 24.14 75.452 0 5.82 7.03 8.64
9/6/2023 1:30:00 PM 24.36 75.848 0 5.99 6.86 8.62
9/6/2023 1:45:00 PM 24.38 75.884 0 6.04 7.57 8.54
9/6/2023 2:00:00 PM 24.61 76.298 0 6.3 7.06 8.57
9/6/2023 2:15:00 PM 24.59 76.262 0 6.5 7.12 8.54
9/6/2023 2:30:00 PM 24.7 76.46 0 6.67 7.18 8.51
9/6/2023 2:45:00 PM 24.74 76.532 0 6.57 6.87 8.5
9/6/2023 3:00:00 PM 24.83 76.694 0 6.65 7.18 8.48
9/6/2023 3:15:00 PM 24.79 76.622 0 6.48 8.2 8.46
9/6/2023 3:30:00 PM 24.99 76.982 0 6.66 7.8 8.44
9/6/2023 3:45:00 PM 25.06 77.108 0 6.9 7.82 8.42
9/6/2023 4:00:00 PM 25.1 77.18 0 6.81 7.73 8.4
9/6/2023 4:15:00 PM 25.18 77.324 0 7.02 7.61 8.38
9/6/2023 4:30:00 PM 25.16 77.288 0 6.7 7.47 8.38
9/6/2023 4:45:00 PM 25.18 77.324 0 6.84 7.48 8.36
9/6/2023 5:00:00 PM 25.04 77.07201 0 6.92 7.67 8.39
9/6/2023 5:15:00 PM 24.98 76.964 0 6.82 7.81 8.39
9/6/2023 5:30:00 PM 24.93 76.874 0 6.98 7.63 8.39
9/6/2023 5:45:00 PM 24.83 76.694 0 6.79 6.84 8.42
9/6/2023 6:00:00 PM 24.63 76.334 0 6.96 7.28 8.45
9/6/2023 6:15:00 PM 24.6 76.28 0 6.89 7.44 8.44
9/6/2023 6:30:00 PM 24.45 76.01 0 6.83 7.41 8.46
9/6/2023 6:45:00 PM 24.23 75.614 0 6.85 7.09 8.49
9/6/2023 7:00:00 PM 24.01 75.218 0 7.01 7.32 8.52
9/6/2023 7:15:00 PM 23.66 74.588 0 7.03 7.55 8.59
9/6/2023 7:30:00 PM 23.47 74.246 0 7 7.27 8.6
9/6/2023 7:45:00 PM 23.12 73.616 0 7.14 7.63 8.67
9/6/2023 8:00:00 PM 22.96 73.328 0 7.07 7.27 8.69
9/6/2023 8:15:00 PM 22.78 73.004 0 7.19 7.26 8.71
9/6/2023 8:30:00 PM 22.52 72.536 0 7.06 7.29 8.76
9/6/2023 8:45:00 PM 22.41 72.338 0 7.07 7.16 8.77
9/6/2023 9:00:00 PM 22.3 72.14 0 7.1 7.16 8.79
9/6/2023 9:15:00 PM 22.04 71.672 0 7.14 7.07 8.84
9/6/2023 9:30:00 PM 22.04 71.672 0 7.02 7.05 8.83
9/6/2023 9:45:00 PM 21.57 70.826 0 7.11 7.6 8.93
9/6/2023 10:00:00 PM 21.49 70.682 0 7.3 7.27 8.94
9/6/2023 10:15:00 PM 21.33 70.394 0 7.05 7.21 8.95
9/6/2023 10:30:00 PM 21.15 70.07 0 7.23 7.08 8.99
9/6/2023 10:45:00 PM 21.02 69.836 0 7.22 7.06 9.02
9/6/2023 11:00:00 PM 21.06 69.908 0 7.21 6.97 8.99
9/6/2023 11:15:00 PM 20.71 69.278 0 7.03 7.53 9.07
9/6/2023 11:30:00 PM 20.58 69.044 0 7.03 7.42 9.08
9/6/2023 11:45:00 PM 20.42 68.756 0 7.08 7.55 9.12
9/7/2023 12:00:00 AM 20.51 68.918 0 7.31 6.92 9.09
9/7/2023 12:15:00 AM 20.24 68.432 0 7.03 7.32 9.15
9/7/2023 12:30:00 AM 20.19 68.342 0 7.09 6.94 9.15
9/7/2023 12:45:00 AM 19.96 67.92799 0 6.91 8.08 9.18
9/7/2023 1:00:00 AM 19.76 67.568 0 7.02 8.17 9.25
9/7/2023 1:15:00 AM 19.71 67.478 0 7.04 7.24 9.24
9/7/2023 1:30:00 AM 19.57 67.226 0 7.26 7.65 9.27
9/7/2023 1:45:00 AM 19.48 67.064 0 7.13 7.2 9.27
9/7/2023 2:00:00 AM 19.4 66.92 0 7.25 7.38 9.3
9/7/2023 2:15:00 AM 19.46 67.028 0 7.11 6.89 9.27
9/7/2023 2:30:00 AM 19.44 66.992 0 7.2 6.65 9.29
9/7/2023 2:45:00 AM 19.12 66.416 0 6.96 7.44 9.35
9/7/2023 3:00:00 AM 19.1 66.38 0 7.35 7.3 9.37
9/7/2023 3:15:00 AM 19.15 66.47 0 7.1 7.2 9.34
9/7/2023 3:30:00 AM 18.87 65.966 0 6.98 7.83 9.41
9/7/2023 3:45:00 AM 19.09 66.362 0 7.14 6.84 9.35
9/7/2023 4:00:00 AM 19.07 66.326 0 7.14 6.27 9.36
9/7/2023 4:15:00 AM 19.08 66.344 0 6.99 6.78 9.35
9/7/2023 4:30:00 AM 19.17 66.506 0 7.03 6.98 9.33
9/7/2023 4:45:00 AM 19.14 66.452 0 7.18 7.14 9.34
9/7/2023 5:00:00 AM 19.25 66.65 0 7.02 6.49 9.31
9/7/2023 5:15:00 AM 19.17 66.506 0 6.93 7.04 9.34
9/7/2023 5:30:00 AM 19.07 66.326 0 7.05 7.15 9.37
9/7/2023 5:45:00 AM 18.95 66.11 0 7.02 7.53 9.39
9/7/2023 6:00:00 AM 18.92 66.056 0 7 7.04 9.4
9/7/2023 6:15:00 AM 18.83 65.894 0 7.25 7.47 9.42
9/7/2023 6:30:00 AM 18.9 66.02 0 7.21 6.67 9.39
9/7/2023 6:45:00 AM 18.9 66.02 0 6.96 6.62 9.39
9/7/2023 7:00:00 AM 18.75 65.75 0 7.02 6.74 9.43
9/7/2023 7:15:00 AM 18.8 65.84 0 6.96 6.74 9.41
9/7/2023 7:30:00 AM 18.88 65.984 0 6.82 6.66 9.41
9/7/2023 7:45:00 AM 18.93 66.074 0 7.41 6.72 9.4
9/7/2023 8:00:00 AM 19.04 66.272 0 7.15 6.28 9.38
9/7/2023 8:15:00 AM 19.25 66.65 0 7.19 5.51 9.34
9/7/2023 8:30:00 AM 19.47 67.046 0 6.88 5.52 9.31
9/7/2023 8:45:00 AM 19.71 67.478 0 6.91 6.37 9.27
9/7/2023 9:00:00 AM 20.07 68.126 0 7.35 6.57 9.2
9/7/2023 9:15:00 AM 20.48 68.864 0 7.4 6.84 9.14
9/7/2023 9:30:00 AM 20.91 69.638 0 7.26 7.93 9.07
9/7/2023 9:45:00 AM 21.34 70.412 0 7.19 7.38 9
9/7/2023 10:00:00 AM 21.82 71.276 0 7.11 7.48 8.93
9/7/2023 10:15:00 AM 22.19 71.942 0 7.05 7.53 8.88
9/7/2023 10:30:00 AM 22.52 72.536 0 7.06 7.4 8.84
9/7/2023 10:45:00 AM 22.9 73.22 0 7.01 7.77 8.77
9/7/2023 11:00:00 AM 23.41 74.138 0 6.94 8.1 8.7
9/7/2023 11:15:00 AM 24.09 75.362 0 6.89 8.03 8.59
9/7/2023 11:30:00 AM 25.02 77.036 0 6.82 7.77 8.47
9/7/2023 11:45:00 AM 25.77 78.386 0 6.78 7.76 8.39
9/7/2023 12:00:00 PM 25.74 78.332 0 6.82 9.18 8.39
9/7/2023 12:15:00 PM 25.22 77.396 0 6.92 7.83 8.41
9/7/2023 12:30:00 PM 25.36 77.648 0 6.93 7.81 8.37
9/7/2023 12:45:00 PM 25.63 78.134 0 6.94 7.73 8.35
9/7/2023 1:00:00 PM 25.74 78.332 0 6.94 7.83 8.33
9/7/2023 1:15:00 PM 25.79 78.422 0 6.92 7.77 8.31
9/7/2023 1:30:00 PM 26 78.8 0 6.95 7.76 8.27
9/7/2023 1:45:00 PM 26.26 79.268 0 6.9 7.73 8.23
9/7/2023 2:00:00 PM 26.41 79.538 0 6.87 7.7 8.2
9/7/2023 2:15:00 PM 26.58 79.844 0 6.84 7.66 8.16
9/7/2023 2:30:00 PM 26.67 80.006 0 6.86 7.65 8.15
9/7/2023 2:45:00 PM 26.77 80.186 0 6.85 7.63 8.12
9/7/2023 3:00:00 PM 26.85 80.33 0 6.8 7.6 8.12
9/7/2023 3:15:00 PM 27.24 81.032 0 6.77 7.54 8.05
9/7/2023 3:30:00 PM 27.34 81.212 0 6.79 7.58 8.03
9/7/2023 3:45:00 PM 27.15 80.87 0 6.76 9.1 8.05
9/7/2023 4:00:00 PM 26.8 80.24 0 6.83 7.66 8.07
9/7/2023 4:15:00 PM 26.46 79.628 0 6.88 7.68 8.1
9/7/2023 4:30:00 PM 26.11 78.998 0 6.86 7.7 8.15
9/7/2023 4:45:00 PM 24.7 76.46 0 6.84 7.8 8.39
9/7/2023 5:00:00 PM 21.3 70.34 0 7.21 5.49 8.9
9/7/2023 5:15:00 PM 20.97 69.746 0 7.08 4.77 8.91
9/7/2023 5:30:00 PM 20.73 69.314 0 6.82 4.16 8.97
9/7/2023 5:45:00 PM 20.38 68.684 0 6.88 3.85 9.05
9/7/2023 6:00:00 PM 20.28 68.504 0 6.8 3.69 9.07
9/7/2023 6:15:00 PM 20.45 68.81 0 6.55 4.01 9.04
9/7/2023 6:30:00 PM 20.53 68.954 0 6.35 4.12 9.03
9/7/2023 6:45:00 PM 20.71 69.278 0 6.27 3.94 9
9/7/2023 7:00:00 PM 20.96 69.728 0 6.27 3.67 8.94
9/7/2023 7:15:00 PM 21.6 70.88 0 6.26 3.53 8.75
9/7/2023 7:30:00 PM 21.91 71.438 0.001 6.29 3.47 8.68
9/7/2023 7:45:00 PM 22.04 71.672 0.006 6.32 3.26 8.65
9/7/2023 8:00:00 PM 22.17 71.906 0.023 6.31 3.33 8.63
9/7/2023 8:15:00 PM 22.16 71.888 0.049 6.3 3.41 8.62
9/7/2023 8:30:00 PM 22.05 71.69 0.047 6.31 3.48 8.63
9/7/2023 8:45:00 PM 22.05 71.69 0.043 6.3 3.47 8.65
9/7/2023 9:00:00 PM 22.03 71.654 0.071 6.29 3.46 8.67
9/7/2023 9:15:00 PM 21.98 71.564 0.07 6.27 3.63 8.68
9/7/2023 9:30:00 PM 21.95 71.51 0.079 7.92 3.32 8.67
9/7/2023 9:45:00 PM 21.89 71.402 0.089 7.81 3.42 8.7
9/7/2023 10:00:00 PM 21.92 71.456 0.116 7.88 3.2 8.66
9/7/2023 10:15:00 PM 21.87 71.366 0.131 6.23 3.45 8.69
9/7/2023 10:30:00 PM 21.84 71.312 0.138 6.17 3.36 8.72
9/7/2023 10:45:00 PM 21.78 71.204 0.138 7.02 3.3 8.74
9/7/2023 11:00:00 PM 21.71 71.078 0.14 6.23 3.5 8.75
9/7/2023 11:15:00 PM 21.65 70.97 0.14 7.4 3.58 8.73
9/7/2023 11:30:00 PM 21.57 70.826 0.14 6.1 3.52 8.71
9/7/2023 11:45:00 PM 21.53 70.754 0.141 6.1 3.47 8.77
9/8/2023 12:00:00 AM 21.45 70.61 0.141 6.08 3.67 8.79
9/8/2023 12:15:00 AM 21.39 70.502 0.141 6.05 3.42 8.79
9/8/2023 12:30:00 AM 21.34 70.412 0.141 6.05 3.43 8.8
9/8/2023 12:45:00 AM 21.27 70.286 0.142 6.07 3.44 8.82
9/8/2023 1:00:00 AM 21.23 70.214 0.142 6.07 3.36 8.81
9/8/2023 1:15:00 AM 21.18 70.124 0.142 7.31 3.51 8.82
9/8/2023 1:30:00 AM 21.14 70.052 0.14 6.07 3.38 8.82
9/8/2023 1:45:00 AM 21.1 69.98 0.138 6.07 3.46 8.83
9/8/2023 2:00:00 AM 21.07 69.926 0.138 6.05 3.52 8.81
9/8/2023 2:15:00 AM 21.04 69.872 0.138 6.04 3.52 8.83
9/8/2023 2:30:00 AM 20.97 69.746 0.133 6.03 3.46 8.81
9/8/2023 2:45:00 AM 20.94 69.692 0.123 7.53 3.63 8.8
9/8/2023 3:00:00 AM 20.89 69.602 0.12 6.03 3.51 8.85
9/8/2023 3:15:00 AM 20.82 69.476 0.11 6.04 3.48 8.82
9/8/2023 3:30:00 AM 20.75 69.35 0.078 6.05 3.4 8.88
9/8/2023 3:45:00 AM 20.69 69.242 0.074 6.05 3.56 8.87
9/8/2023 4:00:00 AM 20.59 69.062 0.049 6.13 3.55 8.91
9/8/2023 4:15:00 AM 20.41 68.738 0.032 7.69 3.54 8.96
9/8/2023 4:30:00 AM 20.41 68.738 0.017 6.09 3.65 8.95
9/8/2023 4:45:00 AM 20.2 68.36 0.009 6.09 3.77 9
9/8/2023 5:00:00 AM 20.18 68.324 0.004 6.09 3.96 9.01
9/8/2023 5:15:00 AM 20.03 68.054 0.002 6.1 3.66 9.06
9/8/2023 5:30:00 AM 20.04 68.07201 0.002 7.71 3.7 9.02
9/8/2023 5:45:00 AM 20.05 68.09 0.001 7.81 3.71 9.05
9/8/2023 6:00:00 AM 19.85 67.73 0.001 7.77 3.71 9.09
9/8/2023 6:15:00 AM 19.82 67.676 0.001 7.72 3.74 9.12
9/8/2023 6:30:00 AM 19.75 67.55 0 7.7 3.69 9.12
9/8/2023 6:45:00 AM 19.64 67.352 0 7.68 3.55 9.15
9/8/2023 7:00:00 AM 19.76 67.568 0 7.8 3.49 9.12
9/8/2023 7:15:00 AM 19.7 67.46 0 7.71 3.62 9.16
9/8/2023 7:30:00 AM 19.63 67.334 0 6.06 3.73 9.19
9/8/2023 7:45:00 AM 19.69 67.442 0 6.09 3.86 9.19
9/8/2023 8:00:00 AM 19.6 67.28 0 6.09 3.69 9.2
9/8/2023 8:15:00 AM 19.67 67.406 0 6.09 3.78 9.21
9/8/2023 8:30:00 AM 19.85 67.73 0 7.27 3.65 9.18
9/8/2023 8:45:00 AM 19.92 67.856 0 6.11 3.63 9.18
9/8/2023 9:00:00 AM 19.95 67.91 0 6.14 3.7 9.19
9/8/2023 9:15:00 AM 20.04 68.07201 0 6.12 3.59 9.19
9/8/2023 9:30:00 AM 20.23 68.414 0 6.17 3.77 9.17
9/8/2023 9:45:00 AM 20.36 68.648 0 6.18 3.64 9.15
9/8/2023 10:00:00 AM 20.58 69.044 0 7.93 4.07 9.13
9/8/2023 10:15:00 AM 20.73 69.314 0 7.67 4.09 9.11
9/8/2023 10:30:00 AM 20.86 69.548 0 8.01 4.16 9.09
9/8/2023 10:45:00 AM 21.06 69.908 0 6.2 4.54 9.06
9/8/2023 11:00:00 AM 21.36 70.448 0 6.16 4.94 9.02
9/8/2023 11:15:00 AM 21.62 70.916 0 6.15 5.21 8.99
9/8/2023 11:30:00 AM 21.89 71.402 0 6.2 6.06 8.95
9/8/2023 11:45:00 AM 21.95 71.51 0 6.04 6.08 8.94
9/8/2023 12:00:00 PM 21.99 71.582 0 6.16 6.14 8.93
9/8/2023 12:15:00 PM 22.07 71.726 0 7.17 5.82 8.92
9/8/2023 12:30:00 PM 22.24 72.032 0 7.47 5.38 8.88
9/8/2023 12:45:00 PM 22.32 72.176 0 7.2 5.6 8.85
9/8/2023 1:00:00 PM 22.48 72.464 0 6.29 5.66 8.82
9/8/2023 1:15:00 PM 22.6 72.68 0 6.34 6.7 8.8
9/8/2023 1:30:00 PM 22.75 72.95 0 6.35 5.79 8.77
9/8/2023 1:45:00 PM 22.89 73.202 0 6.37 6.18 8.74
9/8/2023 2:00:00 PM 22.98 73.364 0 6.4 5.42 8.73
9/8/2023 2:15:00 PM 23.1 73.58 0 6.38 5.91 8.71
9/8/2023 2:30:00 PM 23.16 73.688 0 6.38 6.17 8.7
9/8/2023 2:45:00 PM 23.19 73.742 0 6.4 7.12 8.7
9/8/2023 3:00:00 PM 23.29 73.922 0 6.43 5.87 8.68
9/8/2023 3:15:00 PM 23.41 74.138 0 6.38 6.11 8.67
9/8/2023 3:30:00 PM 23.48 74.264 0 6.38 6.81 8.65
9/8/2023 3:45:00 PM 23.51 74.318 0 6.32 6.98 8.63
9/8/2023 4:00:00 PM 23.54 74.372 0 6.34 6.56 8.63
9/8/2023 4:15:00 PM 23.54 74.372 0 6.33 6.57 8.63
9/8/2023 4:30:00 PM 23.56 74.408 0 6.31 6.02 8.63
9/8/2023 4:45:00 PM 23.59 74.462 0 6.31 6.92 8.63
9/8/2023 5:00:00 PM 23.57 74.426 0 6.31 7.15 8.62
9/8/2023 5:15:00 PM 23.55 74.39 0 6.31 6.78 8.63
9/8/2023 5:30:00 PM 23.58 74.444 0 6.24 7.34 8.63
9/8/2023 5:45:00 PM 23.43 74.174 0 6.28 5.95 8.65
9/8/2023 6:00:00 PM 23.34 74.012 0 6.22 6.8 8.66
9/8/2023 6:15:00 PM 23.26 73.868 0 6.28 7.59 8.67
9/8/2023 6:30:00 PM 23.15 73.67 0 6.25 7.34 8.68
9/8/2023 6:45:00 PM 23.01 73.418 0 7.76 6.97 8.7
9/8/2023 7:00:00 PM 22.86 73.148 0 7.96 6.69 8.72
9/8/2023 7:15:00 PM 22.64 72.752 0 7.96 6.58 8.76
9/8/2023 7:30:00 PM 22.21 71.978 0 6.23 6.89 8.83
9/8/2023 7:45:00 PM 22.13 71.834 0 7.95 6.86 8.84
9/8/2023 8:00:00 PM 21.99 71.582 0 6.17 6.66 8.86
9/8/2023 8:15:00 PM 21.86 71.348 0 6.24 6.91 8.89
9/8/2023 8:30:00 PM 21.73 71.114 0 8.01 6.85 8.9
9/8/2023 8:45:00 PM 21.53 70.754 0 7.88 6.47 8.93
9/8/2023 9:00:00 PM 21.64 70.952 0 8.03 5.89 8.91
9/8/2023 9:15:00 PM 21.48 70.664 0 7.82 5.94 8.93
9/8/2023 9:30:00 PM 21.4 70.52 0 7.89 5.81 8.95
9/8/2023 9:45:00 PM 21.51 70.718 0 7.94 5.67 8.94
9/8/2023 10:00:00 PM 21.59 70.862 0 6.19 6.2 8.93
9/8/2023 10:15:00 PM 21.59 70.862 0 7.95 5.47 8.94
9/8/2023 10:30:00 PM 21.56 70.808 0 7.97 5.02 8.93
9/8/2023 10:45:00 PM 21.59 70.862 0 7.25 5.64 8.92
9/8/2023 11:00:00 PM 21.58 70.844 0.001 7.93 5.53 8.91
9/8/2023 11:15:00 PM 21.48 70.664 0.001 7.9 5.23 8.93
9/8/2023 11:30:00 PM 21.58 70.844 0.003 7.93 5.29 8.92
9/8/2023 11:45:00 PM 21.43 70.574 0.003 7.89 4.92 8.95
9/9/2023 12:00:00 AM 21.51 70.718 0.003 6.1 4.84 8.94
9/9/2023 12:15:00 AM 21.53 70.754 0.004 6.12 4.74 8.94
9/9/2023 12:30:00 AM 21.54 70.772 0.01 6.12 4.13 8.95
9/9/2023 12:45:00 AM 21.57 70.826 0.037 7.62 3.92 8.94
9/9/2023 1:00:00 AM 21.59 70.862 0.086 7.75 3.63 8.93
9/9/2023 1:15:00 AM 21.58 70.844 0.132 7.69 3.51 8.94
9/9/2023 1:30:00 AM 21.55 70.79 0.143 7.71 3.29 8.94
9/9/2023 1:45:00 AM 21.54 70.772 0.143 5.95 3.27 8.97
9/9/2023 2:00:00 AM 21.51 70.718 0.142 7.57 3.59 8.97
9/9/2023 2:15:00 AM 21.48 70.664 0.142 5.97 3.32 8.98
9/9/2023 2:30:00 AM 21.45 70.61 0.142 5.92 5.69 8.99
9/9/2023 2:45:00 AM 21.42 70.556 0.141 6.26 1249.25 8.99
9/9/2023 3:00:00 AM 21.39 70.502 0.141 7.42 4.99 8.92
9/9/2023 3:15:00 AM 21.36 70.448 0.141 7.06 3.06 8.78
9/9/2023 3:30:00 AM 21.32 70.376 0.141 7.33 2.94 8.6
9/9/2023 3:45:00 AM 21.3 70.34 0.141 7.37 2.97 8.59
9/9/2023 4:00:00 AM 21.27 70.286 0.141 7.37 2.93 8.6
9/9/2023 4:15:00 AM 21.24 70.232 0.141 7.39 2.91 8.61
9/9/2023 4:30:00 AM 21.22 70.196 0.141 7.39 3.2 8.62
9/9/2023 4:45:00 AM 21.18 70.124 0.141 7.39 2.96 8.62
9/9/2023 5:00:00 AM 21.14 70.052 0.141 7.4 3.1 8.63
9/9/2023 5:15:00 AM 21.11 69.998 0.141 7.39 3.07 8.65
9/9/2023 5:30:00 AM 21.08 69.944 0.141 7.41 3.18 8.66
9/9/2023 5:45:00 AM 21.04 69.872 0.142 7.4 3.36 8.66
9/9/2023 6:00:00 AM 21 69.8 0.142 7.41 3.59 8.67
9/9/2023 6:15:00 AM 20.95 69.71 0.142 7.4 3.68 8.68
9/9/2023 6:30:00 AM 20.91 69.638 0.143 7.41 3.81 8.7
9/9/2023 6:45:00 AM 20.86 69.548 0.143 7.41 3.87 8.71
9/9/2023 7:00:00 AM 20.82 69.476 0.143 7.42 3.86 8.72
9/9/2023 7:15:00 AM 20.79 69.422 0.144 7.42 3.69 8.74
9/9/2023 7:30:00 AM 20.76 69.368 0.144 7.43 3.71 8.76
9/9/2023 7:45:00 AM 20.74 69.332 0.145 7.44 3.55 8.79
9/9/2023 8:00:00 AM 20.73 69.314 0.145 7.45 3.46 8.83
9/9/2023 8:15:00 AM 20.73 69.314 0.145 7.46 3.23 8.89
9/9/2023 8:30:00 AM 20.74 69.332 0.145 7.49 3.22 8.96
9/9/2023 8:45:00 AM 20.75 69.35 0.145 7.5 3 9
9/9/2023 9:00:00 AM 20.75 69.35 0.145 7.52 2.92 9.04
9/9/2023 9:15:00 AM 20.76 69.368 0.145 7.54 2.86 9.07
9/9/2023 9:30:00 AM 20.76 69.368 0.145 7.56 2.83 9.09
9/9/2023 9:45:00 AM 20.78 69.404 0.145 7.58 2.65 9.14
9/9/2023 10:00:00 AM 20.79 69.422 0.145 7.6 2.57 9.15
9/9/2023 10:15:00 AM 20.81 69.458 0.145 7.61 2.55 9.19
9/9/2023 10:30:00 AM 20.82 69.476 0.145 7.63 2.56 9.23
9/9/2023 10:45:00 AM 20.84 69.512 0.146 7.65 2.49 9.26
9/9/2023 11:00:00 AM 20.85 69.53 0.146 7.68 2.48 9.3
9/9/2023 11:15:00 AM 20.88 69.584 0.146 7.71 2.42 9.37
9/9/2023 11:30:00 AM 20.93 69.674 0.146 7.75 2.48 9.46
9/9/2023 11:45:00 AM 20.96 69.728 0.147 7.79 2.37 9.49
9/9/2023 12:00:00 PM 20.99 69.782 0.147 7.82 2.33 9.5
9/9/2023 12:15:00 PM 21 69.8 0.147 7.83 2.28 9.46
9/9/2023 12:30:00 PM 21.02 69.836 0.147 7.84 2.31 9.45
9/9/2023 12:45:00 PM 21.06 69.908 0.147 7.86 2.29 9.52
9/9/2023 1:00:00 PM 21.13 70.034 0.146 7.91 2.31 9.62
9/9/2023 1:15:00 PM 21.19 70.142 0.146 7.97 2.18 9.63
9/9/2023 1:30:00 PM 21.27 70.286 0.146 8.03 2.18 9.7
9/9/2023 1:45:00 PM 21.36 70.448 0.146 8.11 2.16 9.77
9/9/2023 2:00:00 PM 21.46 70.628 0.145 8.18 2.2 9.82
9/9/2023 2:15:00 PM 21.61 70.898 0.145 8.25 2.03 9.84
9/9/2023 2:30:00 PM 21.68 71.024 0.145 8.29 2.17 9.77
9/9/2023 2:45:00 PM 21.77 71.186 0.145 8.32 2.08 9.76
9/9/2023 3:00:00 PM 21.82 71.276 0.144 8.34 2.02 9.72
9/9/2023 3:15:00 PM 21.92 71.456 0.144 8.37 2.03 9.69
9/9/2023 3:30:00 PM 22.1 71.78 0.144 8.4 2.06 9.69
9/9/2023 3:45:00 PM 22.29 72.122 0.144 8.44 1.98 9.63
9/9/2023 4:00:00 PM 22.44 72.392 0.143 8.47 2 9.63
9/9/2023 4:15:00 PM 22.5 72.5 0.144 8.47 1.95 9.57
9/9/2023 4:30:00 PM 22.52 72.536 0.144 8.44 1.97 9.49
9/9/2023 4:45:00 PM 22.5 72.5 0.144 8.41 2.02 9.44
9/9/2023 5:00:00 PM 22.46 72.42799 0.144 8.35 2.09 9.36
9/9/2023 5:15:00 PM 22.41 72.338 0.145 8.29 1.96 9.28
9/9/2023 5:30:00 PM 22.31 72.158 0.145 8.15 1.98 9.09
9/9/2023 5:45:00 PM 22.21 71.978 0.146 7.99 2.05 8.94
9/9/2023 6:00:00 PM 22.14 71.852 0.146 7.87 2.01 8.83
9/9/2023 6:15:00 PM 22.09 71.762 0.146 7.77 2.06 8.75
9/9/2023 6:30:00 PM 22.03 71.654 0.146 7.72 2.22 8.71
9/9/2023 6:45:00 PM 21.96 71.528 0.147 7.67 2.14 8.68
9/9/2023 7:00:00 PM 21.87 71.366 0.147 7.64 2.12 8.67
9/9/2023 7:15:00 PM 21.8 71.24 0.146 7.61 2.18 8.66
9/9/2023 7:30:00 PM 21.73 71.114 0.146 7.6 2.29 8.65
9/9/2023 7:45:00 PM 21.66 70.988 0.145 7.56 2.74 8.65
9/9/2023 8:00:00 PM 21.61 70.898 0.144 7.55 3.27 8.66
9/9/2023 8:15:00 PM 21.51 70.718 0.14 7.56 4.5 8.69
9/9/2023 8:30:00 PM 21.45 70.61 0.137 7.54 7.21 8.74
9/9/2023 8:45:00 PM 21.37 70.466 0.136 7.52 8.27 8.77
9/9/2023 9:00:00 PM 21.2 70.16 0.135 7.45 14.45 8.78
9/9/2023 9:15:00 PM 20.98 69.764 0.132 7.42 36.1 8.82
9/9/2023 9:30:00 PM 20.78 69.404 0.127 7.39 59.46 8.88
9/9/2023 9:45:00 PM 20.62 69.116 0.122 7.36 78.86 8.89
9/9/2023 10:00:00 PM 20.61 69.098 0.122 7.35 86.47 8.89
9/9/2023 10:15:00 PM 20.68 69.224 0.125 7.34 63.56 8.87
9/9/2023 10:30:00 PM 20.71 69.278 0.125 7.34 53.07 8.86
9/9/2023 10:45:00 PM 20.68 69.224 0.123 7.32 51.12 8.87
9/9/2023 11:00:00 PM 20.59 69.062 0.121 7.3 64.2 8.87
9/9/2023 11:15:00 PM 20.47 68.846 0.117 7.29 75.81 8.88
9/9/2023 11:30:00 PM 20.37 68.666 0.113 7.24 83.68 8.89
9/9/2023 11:45:00 PM 20.3 68.54 0.112 7.23 80.52 8.9
9/10/2023 12:00:00 AM 20.28 68.504 0.112 7.23 71.3 8.89
9/10/2023 12:15:00 AM 20.28 68.504 0.112 7.21 62.65 8.9
9/10/2023 12:30:00 AM 20.26 68.468 0.112 7.22 58.06 8.89
9/10/2023 12:45:00 AM 20.23 68.414 0.111 7.23 51.23 8.89
9/10/2023 1:00:00 AM 20.2 68.36 0.112 7.22 47.38 8.9
9/10/2023 1:15:00 AM 20.18 68.324 0.113 7.2 41.6 8.91
9/10/2023 1:30:00 AM 20.16 68.288 0.115 7.21 39.35 8.91
9/10/2023 1:45:00 AM 20.14 68.252 0.116 7.21 34.98 8.92
9/10/2023 2:00:00 AM 20.12 68.216 0.117 7.22 33.09 8.93
9/10/2023 2:15:00 AM 20.1 68.18 0.118 7.24 28.77 8.93
9/10/2023 2:30:00 AM 20.08 68.144 0.117 7.22 27.9 8.93
9/10/2023 2:45:00 AM 20.04 68.07201 0.117 7.22 27.79 8.94
9/10/2023 3:00:00 AM 20.01 68.018 0.117 7.22 25.41 8.95
9/10/2023 3:15:00 AM 19.98 67.964 0.118 7.23 25.24 8.96
9/10/2023 3:30:00 AM 19.95 67.91 0.119 7.23 23.52 8.96
9/10/2023 3:45:00 AM 19.92 67.856 0.12 7.23 22.65 8.97
9/10/2023 4:00:00 AM 19.9 67.82 0.121 7.24 22.54 8.98
9/10/2023 4:15:00 AM 19.87 67.766 0.122 7.25 20.74 8.99
9/10/2023 4:30:00 AM 19.84 67.712 0.123 7.24 20.49 9
9/10/2023 4:45:00 AM 19.81 67.658 0.124 7.25 20.31 9
9/10/2023 5:00:00 AM 19.78 67.604 0.125 7.26 19.27 9.01
9/10/2023 5:15:00 AM 19.75 67.55 0.126 7.26 16.77 9.02
9/10/2023 5:30:00 AM 19.72 67.496 0.126 7.26 18.94 9.03
9/10/2023 5:45:00 AM 19.7 67.46 0.126 7.26 18.79 9.03
9/10/2023 6:00:00 AM 19.67 67.406 0.126 7.27 18.82 9.04
9/10/2023 6:15:00 AM 19.65 67.37 0.125 7.28 19.17 9.05
9/10/2023 6:30:00 AM 19.62 67.316 0.125 7.26 18.34 9.06
9/10/2023 6:45:00 AM 19.6 67.28 0.125 7.26 18.42 9.06
9/10/2023 7:00:00 AM 19.58 67.244 0.125 7.27 17.91 9.07
9/10/2023 7:15:00 AM 19.56 67.208 0.125 7.26 17.28 9.08
9/10/2023 7:30:00 AM 19.55 67.19 0.125 7.26 16.82 9.08
9/10/2023 7:45:00 AM 19.54 67.172 0.125 7.27 15.54 9.08
9/10/2023 8:00:00 AM 19.54 67.172 0.125 7.28 15.1 9.1
9/10/2023 8:15:00 AM 19.54 67.172 0.125 7.28 13.62 9.12
9/10/2023 8:30:00 AM 19.55 67.19 0.125 7.3 13.73 9.15
9/10/2023 8:45:00 AM 19.57 67.226 0.125 7.31 12.85 9.18
9/10/2023 9:00:00 AM 19.59 67.262 0.125 7.34 12.16 9.19
9/10/2023 9:15:00 AM 19.62 67.316 0.125 7.34 11.74 9.23
9/10/2023 9:30:00 AM 19.64 67.352 0.126 7.36 11.24 9.25
9/10/2023 9:45:00 AM 19.66 67.388 0.126 7.37 10.47 9.26
9/10/2023 10:00:00 AM 19.69 67.442 0.126 7.39 10.04 9.29
9/10/2023 10:15:00 AM 19.73 67.514 0.126 7.42 9.63 9.3
9/10/2023 10:30:00 AM 19.76 67.568 0.126 7.42 8.93 9.32
9/10/2023 10:45:00 AM 19.82 67.676 0.126 7.44 8.32 9.37
9/10/2023 11:00:00 AM 19.88 67.784 0.126 7.47 7.97 9.4
9/10/2023 11:15:00 AM 19.91 67.838 0.127 7.49 7.95 9.41
9/10/2023 11:30:00 AM 19.94 67.892 0.127 7.51 7.45 9.39
9/10/2023 11:45:00 AM 19.97 67.946 0.127 7.51 7.39 9.4
9/10/2023 12:00:00 PM 20.03 68.054 0.127 7.53 7.13 9.42
9/10/2023 12:15:00 PM 20.09 68.162 0.127 7.55 6.73 9.45
9/10/2023 12:30:00 PM 20.15 68.27 0.127 7.58 6.84 9.46
9/10/2023 12:45:00 PM 20.22 68.396 0.127 7.59 6.74 9.49
9/10/2023 1:00:00 PM 20.28 68.504 0.127 7.63 6.6 9.5
9/10/2023 1:15:00 PM 20.34 68.612 0.127 7.63 6.51 9.5
9/10/2023 1:30:00 PM 20.43 68.774 0.128 7.66 6.5 9.53
9/10/2023 1:45:00 PM 20.49 68.882 0.128 7.68 6.42 9.52
9/10/2023 2:00:00 PM 20.57 69.026 0.129 7.7 6.43 9.53
9/10/2023 2:15:00 PM 20.61 69.098 0.129 7.69 6.59 9.49
9/10/2023 2:30:00 PM 20.64 69.152 0.13 7.68 6.36 9.45
9/10/2023 2:45:00 PM 20.67 69.206 0.131 7.68 6.5 9.45
9/10/2023 3:00:00 PM 20.68 69.224 0.132 7.68 6.48 9.43
9/10/2023 3:15:00 PM 20.71 69.278 0.132 7.68 6.38 9.43
9/10/2023 3:30:00 PM 20.78 69.404 0.133 7.7 6.41 9.46
9/10/2023 3:45:00 PM 20.83 69.494 0.133 7.71 6.31 9.45
9/10/2023 4:00:00 PM 20.87 69.566 0.134 7.73 6.33 9.42
9/10/2023 4:15:00 PM 20.89 69.602 0.134 7.7 6.28 9.4
9/10/2023 4:30:00 PM 20.87 69.566 0.134 7.67 6.02 9.33
9/10/2023 4:45:00 PM 20.9 69.62 0.134 7.67 6.03 9.32
9/10/2023 5:00:00 PM 20.93 69.674 0.134 7.65 6.25 9.31
9/10/2023 5:15:00 PM 20.95 69.71 0.134 7.65 6.2 9.3
9/10/2023 5:30:00 PM 20.95 69.71 0.134 7.64 6.17 9.24
9/10/2023 5:45:00 PM 20.94 69.692 0.134 7.61 5.97 9.21
9/10/2023 6:00:00 PM 20.95 69.71 0.133 7.59 5.94 9.17
9/10/2023 6:15:00 PM 20.95 69.71 0.133 7.58 6.3 9.13
9/10/2023 6:30:00 PM 20.95 69.71 0.133 7.55 6.08 9.1
9/10/2023 6:45:00 PM 20.95 69.71 0.133 7.52 6 9.05
9/10/2023 7:00:00 PM 20.93 69.674 0.133 7.51 6.17 9.02
9/10/2023 7:15:00 PM 20.91 69.638 0.133 7.5 6.04 8.98
9/10/2023 7:30:00 PM 20.88 69.584 0.133 7.46 5.95 8.95
9/10/2023 7:45:00 PM 20.85 69.53 0.133 7.45 5.97 8.94
9/10/2023 8:00:00 PM 20.83 69.494 0.134 7.43 6.17 8.91
9/10/2023 8:15:00 PM 20.81 69.458 0.134 7.43 6.32 8.91
9/10/2023 8:30:00 PM 20.79 69.422 0.134 7.43 6.22 8.9
9/10/2023 8:45:00 PM 20.77 69.386 0.134 7.41 6.05 8.89
9/10/2023 9:00:00 PM 20.75 69.35 0.135 7.41 6.14 8.9
9/10/2023 9:15:00 PM 20.73 69.314 0.135 7.4 6.1 8.89
9/10/2023 9:30:00 PM 20.7 69.26 0.135 7.4 6.12 8.89
9/10/2023 9:45:00 PM 20.67 69.206 0.136 7.39 6.18 8.89
9/10/2023 10:00:00 PM 20.64 69.152 0.136 7.39 6.03 8.88
9/10/2023 10:15:00 PM 20.61 69.098 0.137 7.4 6.03 8.89
9/10/2023 10:30:00 PM 20.57 69.026 0.137 7.38 5.96 8.89
9/10/2023 10:45:00 PM 20.54 68.972 0.138 7.38 6.23 8.89
9/10/2023 11:00:00 PM 20.5 68.9 0.138 7.37 5.83 8.9
9/10/2023 11:15:00 PM 20.46 68.828 0.138 7.37 5.76 8.9
9/10/2023 11:30:00 PM 20.42 68.756 0.138 7.36 5.8 8.9
9/10/2023 11:45:00 PM 20.38 68.684 0.138 7.36 5.98 8.9
9/11/2023 12:00:00 AM 20.34 68.612 0.138 7.35 5.85 8.91
9/11/2023 12:15:00 AM 20.3 68.54 0.138 7.37 5.75 8.91
9/11/2023 12:30:00 AM 20.27 68.486 0.138 7.37 5.72 8.92
9/11/2023 12:45:00 AM 20.23 68.414 0.138 7.36 5.55 8.92
9/11/2023 1:00:00 AM 20.2 68.36 0.138 7.37 5.39 8.93
9/11/2023 1:15:00 AM 20.17 68.306 0.138 7.36 5.4 8.94
9/11/2023 1:30:00 AM 20.14 68.252 0.138 7.35 5.46 8.94
9/11/2023 1:45:00 AM 20.11 68.198 0.138 7.35 5.52 8.94
9/11/2023 2:00:00 AM 20.08 68.144 0.138 7.35 5.35 8.95
9/11/2023 2:15:00 AM 20.06 68.108 0.137 7.36 5.15 8.95
9/11/2023 2:30:00 AM 20.03 68.054 0.137 7.34 5.23 8.95
9/11/2023 2:45:00 AM 20.01 68.018 0.137 7.34 5.19 8.95
9/11/2023 3:00:00 AM 19.99 67.982 0.137 7.34 5.26 8.96
9/11/2023 3:15:00 AM 19.97 67.946 0.137 7.34 5.08 8.96
9/11/2023 3:30:00 AM 19.95 67.91 0.137 7.34 5.03 8.96
9/11/2023 3:45:00 AM 19.93 67.874 0.137 7.34 5.13 8.95
9/11/2023 4:00:00 AM 19.91 67.838 0.137 7.34 4.89 8.97
9/11/2023 4:15:00 AM 19.89 67.802 0.137 7.34 4.95 8.97
9/11/2023 4:30:00 AM 19.87 67.766 0.136 7.34 4.82 8.97
9/11/2023 4:45:00 AM 19.84 67.712 0.136 7.34 4.86 8.97
9/11/2023 5:00:00 AM 19.82 67.676 0.136 7.33 4.88 8.98
9/11/2023 5:15:00 AM 19.8 67.64 0.136 7.33 4.91 8.99
9/11/2023 5:30:00 AM 19.77 67.586 0.136 7.35 4.86 8.98
9/11/2023 5:45:00 AM 19.76 67.568 0.136 7.32 4.53 8.99
9/11/2023 6:00:00 AM 19.74 67.532 0.136 7.33 4.56 8.99
9/11/2023 6:15:00 AM 19.72 67.496 0.136 7.33 4.73 8.99
9/11/2023 6:30:00 AM 19.7 67.46 0.136 7.33 4.98 9
9/11/2023 6:45:00 AM 19.67 67.406 0.136 7.34 4.66 8.99
9/11/2023 7:00:00 AM 19.65 67.37 0.136 7.33 4.57 9
9/11/2023 7:15:00 AM 19.63 67.334 0.136 7.33 4.58 9.02
9/11/2023 7:30:00 AM 19.62 67.316 0.135 7.34 4.29 9.02
9/11/2023 7:45:00 AM 19.6 67.28 0.135 7.35 4.37 9.04
9/11/2023 8:00:00 AM 19.59 67.262 0.135 7.33 4.14 9.05
9/11/2023 8:15:00 AM 19.59 67.262 0.135 7.34 4.07 9.07
9/11/2023 8:30:00 AM 19.6 67.28 0.135 7.37 4.07 9.14
9/11/2023 8:45:00 AM 19.62 67.316 0.135 7.38 4.03 9.23
9/11/2023 9:00:00 AM 19.65 67.37 0.135 7.42 3.72 9.32
9/11/2023 9:15:00 AM 19.68 67.424 0.135 7.48 3.65 9.35
9/11/2023 9:30:00 AM 19.69 67.442 0.135 7.47 3.61 9.35
9/11/2023 9:45:00 AM 19.69 67.442 0.135 7.48 3.69 9.37
9/11/2023 10:00:00 AM 19.71 67.478 0.136 7.53 3.68 9.42
9/11/2023 10:15:00 AM 19.74 67.532 0.136 7.55 3.56 9.46
9/11/2023 10:30:00 AM 19.77 67.586 0.136 7.56 3.56 9.49
9/11/2023 10:45:00 AM 19.82 67.676 0.136 7.61 3.65 9.55
9/11/2023 11:00:00 AM 19.89 67.802 0.136 7.63 3.63 9.58
9/11/2023 11:15:00 AM 20.06 68.108 0.136 7.68 3.53 9.68
9/11/2023 11:30:00 AM 20.18 68.324 0.136 7.74 3.5 9.7
9/11/2023 11:45:00 AM 20.26 68.468 0.136 7.77 3.53 9.71
9/11/2023 12:00:00 PM 20.34 68.612 0.136 7.81 3.33 9.76
9/11/2023 12:15:00 PM 20.42 68.756 0.136 7.84 3.39 9.73
9/11/2023 12:30:00 PM 20.55 68.99 0.136 7.88 3.43 9.78
9/11/2023 12:45:00 PM 20.57 69.026 0.136 7.9 3.56 9.8
9/11/2023 1:00:00 PM 20.61 69.098 0.136 7.92 3.37 9.77
9/11/2023 1:15:00 PM 20.62 69.116 0.136 7.94 3.39 9.78
9/11/2023 1:30:00 PM 20.66 69.188 0.136 7.96 3.53 9.77
9/11/2023 1:45:00 PM 20.73 69.314 0.136 7.97 3.39 9.75
9/11/2023 2:00:00 PM 20.77 69.386 0.136 7.99 3.34 9.75
9/11/2023 2:15:00 PM 20.89 69.602 0.136 8.04 3.34 9.81
9/11/2023 2:30:00 PM 20.91 69.638 0.136 8.04 3.48 9.73
9/11/2023 2:45:00 PM 20.93 69.674 0.136 8.03 3.31 9.69
9/11/2023 3:00:00 PM 21.03 69.854 0.136 8.06 3.51 9.69
9/11/2023 3:15:00 PM 21.1 69.98 0.136 8.05 3.33 9.61
9/11/2023 3:30:00 PM 21.18 70.124 0.136 8.06 3.33 9.64
9/11/2023 3:45:00 PM 21.15 70.07 0.136 8.02 3.38 9.58
9/11/2023 4:00:00 PM 21.15 70.07 0.136 8.01 3.33 9.55
9/11/2023 4:15:00 PM 21.15 70.07 0.136 7.99 3.4 9.55
9/11/2023 4:30:00 PM 21.15 70.07 0.136 7.98 3.47 9.47
9/11/2023 4:45:00 PM 21.14 70.052 0.136 7.94 3.38 9.41
9/11/2023 5:00:00 PM 21.13 70.034 0.136 7.88 3.46 9.35
9/11/2023 5:15:00 PM 21.11 69.998 0.136 7.85 3.31 9.31
9/11/2023 5:30:00 PM 21.08 69.944 0.136 7.8 3.35 9.24
9/11/2023 5:45:00 PM 21.05 69.89 0.136 7.74 3.4 9.16
9/11/2023 6:00:00 PM 21.06 69.908 0.136 7.69 3.34 9.11
9/11/2023 6:15:00 PM 21.09 69.962 0.136 7.65 3.36 9.06
9/11/2023 6:30:00 PM 21.1 69.98 0.136 7.63 3.28 9.02
9/11/2023 6:45:00 PM 21.11 69.998 0.136 7.6 3.5 8.97
9/11/2023 7:00:00 PM 21.09 69.962 0.136 7.58 3.43 8.93

These are provisional data and have not been subject to a quality assurance process, but rather are the raw data reported by the instrument.
H: value is above sensor operating range
L: value is below sensor operating range
Offline: station is not reporting data
NC: parameter is not collected at site

Data Availability & Limitations

Uncertainty and potential for error can be associated with environmental monitoring data. Provisional data have not been subject to a quality assurance process, but rather are the raw data reported by the instrument. Data users are cautioned to consider carefully the provisional nature of the information before using it for decisions that concern personal or public safety or the conduct of business that involves substantial monetary or operational consequences.

Approved data are currently available by request by emailing: [email protected]. Approved data have been subject to a quality assurance process to correct for equipment or fouling drift. Data recorded during equipment malfunctions have been removed.

View Historical Stations that have been discontinued.